Provisional Data: Meshoppen Creek near Kaiserville, PA


Please select a monitoring station.
Please select start date.
Please select start date.

Toggle Unit: C/F Toggle Unit: C/F
Sample Time Temperature (C) Temperature (F) Specific Conductivity (mS/cm) pH   Turbidity (NTU+) DO (mg/L)
5/4/2021 12:00:00 AM 13.41 56.138 0.117 7.21 29.59 9.66
5/4/2021 12:15:00 AM 13.39 56.102 0.117 7.21 28.42 9.63
5/4/2021 12:30:00 AM 13.36 56.048 0.117 7.23 30.14 9.67
5/4/2021 12:45:00 AM 13.34 56.012 0.117 7.21 29.14 9.67
5/4/2021 1:00:00 AM 13.31 55.958 0.118 7.21 27.77 9.69
5/4/2021 1:15:00 AM 13.29 55.922 0.118 7.21 32.19 9.69
5/4/2021 1:30:00 AM 13.26 55.868 0.118 7.21 34.13 9.7
5/4/2021 1:45:00 AM 13.24 55.832 0.118 7.22 29.57 9.7
5/4/2021 2:00:00 AM 13.22 55.796 0.118 7.22 31.46 9.72
5/4/2021 2:15:00 AM 13.19 55.742 0.118 7.21 41.96 9.72
5/4/2021 2:30:00 AM 13.17 55.706 0.118 7.21 31.84 9.72
5/4/2021 2:45:00 AM 13.14 55.652 0.118 7.22 54.81 9.72
5/4/2021 3:00:00 AM 13.11 55.598 0.118 7.21 32.01 9.74
5/4/2021 3:15:00 AM 13.09 55.562 0.118 7.21 32.87 9.74
5/4/2021 3:30:00 AM 13.06 55.508 0.118 7.21 32.12 9.75
5/4/2021 3:45:00 AM 13.04 55.472 0.118 7.24 30.91 9.75
5/4/2021 4:00:00 AM 13.01 55.418 0.119 7.24 34.14 9.77
5/4/2021 4:15:00 AM 12.99 55.382 0.119 7.23 34.16 9.77
5/4/2021 4:30:00 AM 12.96 55.328 0.119 7.21 31.75 9.78
5/4/2021 4:45:00 AM 12.94 55.292 0.119 7.21 33.95 9.78
5/4/2021 5:00:00 AM 12.92 55.256 0.119 7.21 39.17 9.79
5/4/2021 5:15:00 AM 12.89 55.202 0.119 7.23 31.81 9.8
5/4/2021 5:30:00 AM 12.87 55.166 0.119 7.22 28.5 9.8
5/4/2021 5:45:00 AM 12.85 55.13 0.119 7.23 33.18 9.81
5/4/2021 6:00:00 AM 12.83 55.094 0.119 7.23 32.6 9.81
5/4/2021 6:15:00 AM 12.81 55.058 0.119 7.24 30.29 9.84
5/4/2021 6:30:00 AM 12.8 55.04 0.119 7.24 31.51 9.85
5/4/2021 6:45:00 AM 12.79 55.022 0.119 7.24 28.81 9.89
5/4/2021 7:00:00 AM 12.78 55.004 0.119 7.26 29.82 9.97
5/4/2021 7:15:00 AM 12.78 55.004 0.119 7.28 29.78 10
5/4/2021 7:30:00 AM 12.8 55.04 0.119 7.32 30.57 10.13
5/4/2021 7:45:00 AM 12.81 55.058 0.119 7.33 29.37 10.18
5/4/2021 8:00:00 AM 12.83 55.094 0.119 7.36 29.03 10.23
5/4/2021 8:15:00 AM 12.85 55.13 0.118 7.39 31.69 10.3
5/4/2021 8:30:00 AM 12.87 55.166 0.119 7.42 32.63 10.32
5/4/2021 8:45:00 AM 12.88 55.184 0.119 7.43 34.8 10.33
5/4/2021 9:00:00 AM 12.92 55.256 0.118 7.48 34.05 10.45
5/4/2021 9:15:00 AM 12.99 55.382 0.118 7.53 38.35 10.52
5/4/2021 9:30:00 AM 13.16 55.688 0.119 7.59 38.16 10.6
5/4/2021 9:45:00 AM 13.26 55.868 0.118 7.63 33.99 10.63
5/4/2021 10:00:00 AM 13.3 55.94 0.118 7.66 42 10.62
5/4/2021 10:15:00 AM 13.38 56.084 0.118 7.73 40.56 10.71
5/4/2021 10:30:00 AM 13.5 56.3 0.118 7.79 40.13 10.73
5/4/2021 10:45:00 AM 13.76 56.768 0.118 7.88 35.23 10.77
5/4/2021 11:00:00 AM 14 57.2 0.118 7.95 40.81 10.77
5/4/2021 11:15:00 AM 14.18 57.524 0.117 8 48.09 10.75
5/4/2021 11:30:00 AM 14.42 57.956 0.117 8.08 29.61 10.74
5/4/2021 11:45:00 AM 14.69 58.442 0.117 8.16 32.86 10.73
5/4/2021 12:00:00 PM 14.88 58.784 0.117 8.19 39.15 10.69
5/4/2021 12:15:00 PM 14.93 58.874 0.116 8.21 43.1 10.66
5/4/2021 12:30:00 PM 15.21 59.378 0.116 8.3 40.96 10.64
5/4/2021 12:45:00 PM 15.48 59.864 0.116 8.36 46.08 10.56
5/4/2021 1:00:00 PM 15.65 60.17 0.116 8.39 51.75 10.51
5/4/2021 1:15:00 PM 15.66 60.188 0.116 8.4 50.58 10.47
5/4/2021 1:30:00 PM 15.71 60.278 0.115 8.43 61.19 10.41
5/4/2021 1:45:00 PM 15.72 60.296 0.115 8.45 43.89 10.45
5/4/2021 2:00:00 PM 15.85 60.53 0.115 8.5 52.9 10.44
5/4/2021 2:15:00 PM 16.01 60.818 0.115 8.56 52.83 10.4
5/4/2021 2:30:00 PM 16.18 61.124 0.115 8.61 50.69 10.36
5/4/2021 2:45:00 PM 16.5 61.7 0.114 8.67 43.87 10.35
5/4/2021 3:00:00 PM 16.67 62.006 0.114 8.69 28.76 10.27
5/4/2021 3:15:00 PM 16.77 62.186 0.114 8.71 34.33 10.24
5/4/2021 3:30:00 PM 16.86 62.348 0.114 8.73 31.22 10.21
5/4/2021 3:45:00 PM 16.88 62.384 0.114 8.74 33.77 10.19
5/4/2021 4:00:00 PM 16.81 62.258 0.114 8.71 32.53 10.1
5/4/2021 4:15:00 PM 16.79 62.222 0.114 8.68 34.13 9.97
5/4/2021 4:30:00 PM 16.8 62.24 0.114 8.66 29.61 9.95
5/4/2021 4:45:00 PM 16.83 62.294 0.113 8.62 28.17 9.93
5/4/2021 5:00:00 PM 16.88 62.384 0.113 8.62 26.01 9.9
5/4/2021 5:15:00 PM 16.98 62.564 0.113 8.65 28.31 9.88
5/4/2021 5:30:00 PM 17.01 62.618 0.113 8.61 28.3 9.76
5/4/2021 5:45:00 PM 16.99 62.582 0.113 8.5 31.37 9.61
5/4/2021 6:00:00 PM 17 62.6 0.113 8.45 31.7 9.66
5/4/2021 6:15:00 PM 16.98 62.564 0.114 8.33 31.47 9.53
5/4/2021 6:30:00 PM 16.95 62.51 0.114 8.21 33.48 9.44
5/4/2021 6:45:00 PM 16.93 62.474 0.114 8.07 30.34 9.37
5/4/2021 7:00:00 PM 16.92 62.456 0.115 7.91 31.19 9.28
5/4/2021 7:15:00 PM 16.89 62.402 0.115 7.74 31.22 9.2
5/4/2021 7:30:00 PM 16.87 62.366 0.115 7.63 29.78 9.14
5/4/2021 7:45:00 PM 16.86 62.348 0.115 7.55 28.03 9.1
5/4/2021 8:00:00 PM 16.84 62.312 0.115 7.5 29.19 9.08
5/4/2021 8:15:00 PM 16.81 62.258 0.116 7.45 28.54 9.03
5/4/2021 8:30:00 PM 16.78 62.204 0.116 7.39 24.23 9.01
5/4/2021 8:45:00 PM 16.75 62.15 0.116 7.37 25.19 8.99
5/4/2021 9:00:00 PM 16.71 62.078 0.116 7.33 26.85 8.98
5/4/2021 9:15:00 PM 16.69 62.042 0.116 7.3 30.9 8.96
5/4/2021 9:30:00 PM 16.65 61.97 0.116 7.23 24.29 8.97
5/4/2021 9:45:00 PM 16.62 61.916 0.117 7.22 27.98 8.96
5/4/2021 10:00:00 PM 16.58 61.844 0.117 7.2 31.87 8.97
5/4/2021 10:15:00 PM 16.55 61.79 0.117 7.19 28.31 8.96
5/4/2021 10:30:00 PM 16.51 61.718 0.117 7.19 22.46 8.97
5/4/2021 10:45:00 PM 16.46 61.628 0.118 7.17 22.39 8.98
5/4/2021 11:00:00 PM 16.42 61.556 0.118 7.16 24.81 8.98
5/4/2021 11:15:00 PM 16.38 61.484 0.118 7.15 25.09 8.99
5/4/2021 11:30:00 PM 16.34 61.412 0.118 7.15 26.43 8.98
5/4/2021 11:45:00 PM 16.29 61.322 0.119 7.16 23.74 8.98
5/5/2021 12:00:00 AM 16.24 61.232 0.118 7.15 24.44 9
5/5/2021 12:15:00 AM 16.2 61.16 0.119 7.14 24.67 9
5/5/2021 12:30:00 AM 16.16 61.088 0.119 7.13 27.44 9.01
5/5/2021 12:45:00 AM 16.11 60.998 0.119 7.12 26.92 9.03
5/5/2021 1:00:00 AM 16.07 60.926 0.119 7.13 25.71 9.02
5/5/2021 1:15:00 AM 16.02 60.836 0.119 7.15 25.9 9.04
5/5/2021 1:30:00 AM 15.97 60.746 0.119 7.13 26.48 9.05
5/5/2021 1:45:00 AM 15.92 60.656 0.119 7.12 31.09 9.07
5/5/2021 2:00:00 AM 15.86 60.548 0.119 7.11 28.5 9.08
5/5/2021 2:15:00 AM 15.81 60.458 0.119 7.11 34.22 9.08
5/5/2021 2:30:00 AM 15.75 60.35 0.119 7.1 26.81 9.11
5/5/2021 2:45:00 AM 15.7 60.26 0.12 7.09 26.96 9.12
5/5/2021 3:00:00 AM 15.64 60.152 0.12 7.08 28.62 9.12
5/5/2021 3:15:00 AM 15.59 60.062 0.12 7.08 24.89 9.14
5/5/2021 3:30:00 AM 15.54 59.972 0.12 7.09 24.17 9.16
5/5/2021 3:45:00 AM 15.49 59.882 0.12 7.1 26.05 9.16
5/5/2021 4:00:00 AM 15.44 59.792 0.12 7.1 26.85 9.19
5/5/2021 4:15:00 AM 15.39 59.702 0.12 7.1 28.26 9.2
5/5/2021 4:30:00 AM 15.35 59.63 0.12 7.1 23.8 9.22
5/5/2021 4:45:00 AM 15.3 59.54 0.12 7.1 27.96 9.23
5/5/2021 5:00:00 AM 15.25 59.45 0.12 7.1 29.52 9.24
5/5/2021 5:15:00 AM 15.21 59.378 0.12 7.1 25.85 9.25
5/5/2021 5:30:00 AM 15.16 59.288 0.12 7.1 31.51 9.26
5/5/2021 5:45:00 AM 15.12 59.216 0.12 7.1 36.88 9.28
5/5/2021 6:00:00 AM 15.07 59.126 0.12 7.1 38.33 9.29
5/5/2021 6:15:00 AM 15.03 59.054 0.12 7.1 37.88 9.31
5/5/2021 6:30:00 AM 14.99 58.982 0.12 7.09 34.25 9.35
5/5/2021 6:45:00 AM 14.96 58.928 0.12 7.09 33.75 9.39
5/5/2021 7:00:00 AM 14.93 58.874 0.12 7.11 33.54 9.4
5/5/2021 7:15:00 AM 14.9 58.82 0.12 7.11 34.39 9.45
5/5/2021 7:30:00 AM 14.87 58.766 0.12 7.13 34.81 9.51
5/5/2021 7:45:00 AM 14.85 58.73 0.12 7.14 41.51 9.56
5/5/2021 8:00:00 AM 14.83 58.694 0.12 7.16 37.95 9.61
5/5/2021 8:15:00 AM 14.82 58.676 0.12 7.19 30.78 9.67
5/5/2021 8:30:00 AM 14.81 58.658 0.12 7.2 27.96 9.7
5/5/2021 8:45:00 AM 14.81 58.658 0.119 7.23 30.78 9.78
5/5/2021 9:00:00 AM 14.82 58.676 0.119 7.27 33.43 9.89
5/5/2021 9:15:00 AM 14.83 58.694 0.119 7.32 30.58 9.94
5/5/2021 9:30:00 AM 14.82 58.676 0.119 7.34 34.06 9.9
5/5/2021 9:45:00 AM 14.82 58.676 0.119 7.36 33.19 9.92
5/5/2021 10:00:00 AM 14.82 58.676 0.119 7.39 35.37 9.98
5/5/2021 10:15:00 AM 14.81 58.658 0.119 7.39 33.67 9.95
5/5/2021 10:30:00 AM 14.81 58.658 0.118 7.42 32.52 9.97
5/5/2021 10:45:00 AM 14.82 58.676 0.118 7.46 34.94 10.03
5/5/2021 11:00:00 AM 14.83 58.694 0.118 7.48 37.28 10.04
5/5/2021 11:15:00 AM 14.83 58.694 0.118 7.49 38.67 10
5/5/2021 11:30:00 AM 14.81 58.658 0.118 7.47 31.81 9.88
5/5/2021 11:45:00 AM 14.8 58.64 0.117 7.45 28.76 9.91
5/5/2021 12:00:00 PM 14.79 58.622 0.117 7.44 29.5 9.9
5/5/2021 12:15:00 PM 14.78 58.604 0.117 7.46 34.57 9.99
5/5/2021 12:30:00 PM 14.78 58.604 0.116 7.47 34.83 10.03
5/5/2021 12:45:00 PM 14.77 58.586 0.116 7.49 29.15 10.05
5/5/2021 1:00:00 PM 14.77 58.586 0.116 7.53 33.57 10.14
5/5/2021 1:15:00 PM 14.79 58.622 0.116 7.58 32.78 10.25
5/5/2021 1:30:00 PM 14.8 58.64 0.116 7.63 33.27 10.25
5/5/2021 1:45:00 PM 14.8 58.64 0.116 7.64 39.59 10.24
5/5/2021 2:00:00 PM 14.78 58.604 0.116 7.67 31.11 10.26
5/5/2021 2:15:00 PM 14.75 58.55 0.116 7.67 35.78 10.27
5/5/2021 2:30:00 PM 14.73 58.514 0.116 7.69 36.42 10.3
5/5/2021 2:45:00 PM 14.72 58.496 0.116 7.74 36.86 10.34
5/5/2021 3:00:00 PM 14.7 58.46 0.116 7.74 35.81 10.28
5/5/2021 3:15:00 PM 14.67 58.406 0.116 7.74 33.72 10.25
5/5/2021 3:30:00 PM 14.64 58.352 0.116 7.73 36.59 10.24
5/5/2021 3:45:00 PM 14.62 58.316 0.117 7.76 32.24 10.28
5/5/2021 4:00:00 PM 14.6 58.28 0.117 7.78 35.96 10.3
5/5/2021 4:15:00 PM 14.58 58.244 0.117 7.78 34.11 10.24
5/5/2021 4:30:00 PM 14.58 58.244 0.117 7.81 44.42 10.3
5/5/2021 4:45:00 PM 14.57 58.226 0.117 7.81 36.07 10.26
5/5/2021 5:00:00 PM 14.56 58.208 0.117 7.81 42.37 10.3
5/5/2021 5:15:00 PM 14.55 58.19 0.117 7.8 37.36 10.25
5/5/2021 5:30:00 PM 14.51 58.118 0.117 7.76 40.11 10.17
5/5/2021 5:45:00 PM 14.46 58.028 0.117 7.67 23.85 10.08
5/5/2021 6:00:00 PM 14.4 57.92 0.118 7.62 33.89 10.05
5/5/2021 6:15:00 PM 14.35 57.83 0.118 7.56 29.56 9.99
5/5/2021 6:30:00 PM 14.29 57.722 0.118 7.52 21.58 9.94
5/5/2021 6:45:00 PM 14.23 57.614 0.118 7.47 22.39 9.92
5/5/2021 7:00:00 PM 14.18 57.524 0.118 7.42 27.08 9.9
5/5/2021 7:15:00 PM 14.14 57.452 0.118 7.42 23.17 9.9
5/5/2021 7:30:00 PM 14.1 57.38 0.118 7.42 25.54 9.87
5/5/2021 7:45:00 PM 14.06 57.308 0.117 7.4 21.97 9.85
5/5/2021 8:00:00 PM 14.02 57.236 0.117 7.38 25.02 9.83
5/5/2021 8:15:00 PM 13.99 57.182 0.117 7.33 23.97 9.81
5/5/2021 8:30:00 PM 13.96 57.128 0.117 7.32 25.2 9.81
5/5/2021 8:45:00 PM 13.92 57.056 0.117 7.31 22 9.8
5/5/2021 9:00:00 PM 13.88 56.984 0.117 7.31 19.83 9.8
5/5/2021 9:15:00 PM 13.83 56.894 0.117 7.3 22.51 9.8
5/5/2021 9:30:00 PM 13.78 56.804 0.117 7.29 25.66 9.81
5/5/2021 9:45:00 PM 13.73 56.714 0.118 7.27 22.94 9.81
5/5/2021 10:00:00 PM 13.68 56.624 0.118 7.28 22.51 9.82
5/5/2021 10:15:00 PM 13.62 56.516 0.119 7.29 24.08 9.82
5/5/2021 10:30:00 PM 13.58 56.444 0.119 7.3 20.52 9.84
5/5/2021 10:45:00 PM 13.53 56.354 0.119 7.27 21.13 9.85
5/5/2021 11:00:00 PM 13.48 56.264 0.119 7.28 20.22 9.85
5/5/2021 11:15:00 PM 13.43 56.174 0.119 7.27 19.92 9.86
5/5/2021 11:30:00 PM 13.37 56.066 0.119 7.26 17.97 9.87
5/5/2021 11:45:00 PM 13.32 55.976 0.12 7.27 20.23 9.87
5/6/2021 12:00:00 AM 13.27 55.886 0.12 7.28 19.58 9.89
5/6/2021 12:15:00 AM 13.22 55.796 0.119 7.26 22 9.9
5/6/2021 12:30:00 AM 13.17 55.706 0.119 7.28 22.96 9.9
5/6/2021 12:45:00 AM 13.12 55.616 0.119 7.27 24.41 9.92
5/6/2021 1:00:00 AM 13.06 55.508 0.119 7.26 23.28 9.93
5/6/2021 1:15:00 AM 12.99 55.382 0.119 7.27 27.62 9.94
5/6/2021 1:30:00 AM 12.92 55.256 0.119 7.26 21.26 9.96
5/6/2021 1:45:00 AM 12.85 55.13 0.119 7.24 20.97 9.97
5/6/2021 2:00:00 AM 12.78 55.004 0.119 7.25 21.09 9.98
5/6/2021 2:15:00 AM 12.71 54.878 0.119 7.25 21.81 10
5/6/2021 2:30:00 AM 12.66 54.788 0.119 7.25 21.21 10.01
5/6/2021 2:45:00 AM 12.61 54.698 0.119 7.27 20.21 10.03
5/6/2021 3:00:00 AM 12.57 54.626 0.118 7.27 22.81 10.04
5/6/2021 3:15:00 AM 12.52 54.536 0.119 7.25 19.73 10.05
5/6/2021 3:30:00 AM 12.48 54.464 0.118 7.25 20.77 10.07
5/6/2021 3:45:00 AM 12.43 54.374 0.118 7.25 23.63 10.08
5/6/2021 4:00:00 AM 12.4 54.32 0.118 7.25 27.45 10.1
5/6/2021 4:15:00 AM 12.36 54.248 0.118 7.26 25.4 10.11
5/6/2021 4:30:00 AM 12.33 54.194 0.118 7.27 24.08 10.1
5/6/2021 4:45:00 AM 12.29 54.122 0.119 7.26 23.5 10.12
5/6/2021 5:00:00 AM 12.26 54.068 0.119 7.25 25.61 10.13
5/6/2021 5:15:00 AM 12.23 54.014 0.119 7.27 22.48 10.12
5/6/2021 5:30:00 AM 12.19 53.942 0.119 7.28 19.71 10.14
5/6/2021 5:45:00 AM 12.16 53.888 0.119 7.26 19.62 10.15
5/6/2021 6:00:00 AM 12.12 53.816 0.119 7.27 25.1 10.17
5/6/2021 6:15:00 AM 12.08 53.744 0.119 7.26 25.71 10.2
5/6/2021 6:30:00 AM 12.03 53.654 0.119 7.27 23.83 10.24
5/6/2021 6:45:00 AM 12 53.6 0.119 7.28 18.3 10.3
5/6/2021 7:00:00 AM 11.98 53.564 0.119 7.31 21.67 10.35
5/6/2021 7:15:00 AM 11.95 53.51 0.119 7.33 20.59 10.38
5/6/2021 7:30:00 AM 11.91 53.438 0.119 7.33 20.13 10.44
5/6/2021 7:45:00 AM 11.94 53.492 0.119 7.37 20.82 10.52
5/6/2021 8:00:00 AM 11.94 53.492 0.119 7.4 21.78 10.57
5/6/2021 8:15:00 AM 12 53.6 0.119 7.44 19.43 10.64
5/6/2021 8:30:00 AM 12.06 53.708 0.118 7.48 19.95 10.71
5/6/2021 8:45:00 AM 12.1 53.78 0.118 7.49 20.46 10.73
5/6/2021 9:00:00 AM 12.12 53.816 0.118 7.52 21.64 10.75
5/6/2021 9:15:00 AM 12.16 53.888 0.117 7.55 17.13 10.81
5/6/2021 9:30:00 AM 12.18 53.924 0.117 7.56 14.37 10.81
5/6/2021 9:45:00 AM 12.2 53.96 0.117 7.58 14.87 10.83
5/6/2021 10:00:00 AM 12.21 53.978 0.117 7.59 23 10.86
5/6/2021 10:15:00 AM 12.33 54.194 0.117 7.65 18.56 10.91
5/6/2021 10:30:00 AM 12.47 54.446 0.117 7.7 21 10.91
5/6/2021 10:45:00 AM 12.66 54.788 0.117 7.75 20.42 10.95
5/6/2021 11:00:00 AM 12.88 55.184 0.117 7.81 20 10.96
5/6/2021 11:15:00 AM 13.1 55.58 0.117 7.86 17.65 10.95
5/6/2021 11:30:00 AM 13.28 55.904 0.116 7.89 25.94 10.91
5/6/2021 11:45:00 AM 13.4 56.12 0.116 7.9 21.01 10.89
5/6/2021 12:00:00 PM 13.55 56.39 0.116 7.94 19.44 10.89
5/6/2021 12:15:00 PM 13.75 56.75 0.116 7.99 16.91 10.89
5/6/2021 12:30:00 PM 13.96 57.128 0.117 8.05 46.37 10.88
5/6/2021 12:45:00 PM 14.2 57.56 0.117 8.11 12.2 10.86
5/6/2021 1:00:00 PM 14.42 57.956 0.118 8.17 14.27 10.82
5/6/2021 1:15:00 PM 14.61 58.298 0.117 8.22 19.88 10.8
5/6/2021 1:30:00 PM 14.73 58.514 0.117 8.27 22.07 10.76
5/6/2021 1:45:00 PM 14.8 58.64 0.117 8.31 17.8 10.75
5/6/2021 2:00:00 PM 14.88 58.784 0.117 8.35 18.11 10.74
5/6/2021 2:15:00 PM 14.98 58.964 0.117 8.39 26.07 10.73
5/6/2021 2:30:00 PM 15.07 59.126 0.117 8.42 21.02 10.7
5/6/2021 2:45:00 PM 15.21 59.378 0.116 8.46 25.81 10.68
5/6/2021 3:00:00 PM 15.3 59.54 0.116 8.49 23.72 10.64
5/6/2021 3:15:00 PM 15.35 59.63 0.116 8.5 29.3 10.59
5/6/2021 3:30:00 PM 15.36 59.648 0.116 8.51 31.86 10.57
5/6/2021 3:45:00 PM 15.43 59.774 0.114 8.53 38.1 10.56
5/6/2021 4:00:00 PM 15.51 59.918 0.112 8.55 22.16 10.54
5/6/2021 4:15:00 PM 15.54 59.972 0.112 8.55 25.98 10.51
5/6/2021 4:30:00 PM 15.51 59.918 0.111 8.53 19.29 10.47
5/6/2021 4:45:00 PM 15.47 59.846 0.111 8.53 25.74 10.46
5/6/2021 5:00:00 PM 15.44 59.792 0.111 8.55 28.01 10.43
5/6/2021 5:15:00 PM 15.42 59.756 0.111 8.54 21.67 10.39
5/6/2021 5:30:00 PM 15.41 59.738 0.11 8.53 22.57 10.37
5/6/2021 5:45:00 PM 15.41 59.738 0.109 8.53 22.03 10.33
5/6/2021 6:00:00 PM 15.38 59.684 0.109 8.52 29.99 10.27
5/6/2021 6:15:00 PM 15.36 59.648 0.107 8.49 27.22 10.22
5/6/2021 6:30:00 PM 15.3 59.54 0.106 8.43 23.94 10.17
5/6/2021 6:45:00 PM 15.28 59.504 0.105 8.36 27.57 10.11
5/6/2021 7:00:00 PM 15.24 59.432 0.105 8.28 23.97 10.04
5/6/2021 7:15:00 PM 15.19 59.342 0.104 8.16 29.34 9.97
5/6/2021 7:30:00 PM 15.13 59.234 0.104 8.01 37.02 9.89
5/6/2021 7:45:00 PM 15.06 59.108 0.103 7.89 28.82 9.83
5/6/2021 8:00:00 PM 14.99 58.982 0.102 7.77 16.64 9.77
5/6/2021 8:15:00 PM 14.91 58.838 0.101 7.67 15.91 9.71
5/6/2021 8:30:00 PM 14.83 58.694 0.1 7.59 24.96 9.66
5/6/2021 8:45:00 PM 14.74 58.532 0.1 7.53 16.1 9.63
5/6/2021 9:00:00 PM 14.66 58.388 0.099 7.48 15.81 9.61
5/6/2021 9:15:00 PM 14.57 58.226 0.098 7.42 16.1 9.6
5/6/2021 9:30:00 PM 14.46 58.028 0.098 7.38 17.08 9.6
5/6/2021 9:45:00 PM 14.35 57.83 0.097 7.37 16.47 9.61
5/6/2021 10:00:00 PM 14.23 57.614 0.096 7.35 19.14 9.62
5/6/2021 10:15:00 PM 14.11 57.398 0.095 7.33 14.02 9.64
5/6/2021 10:30:00 PM 13.99 57.182 0.095 7.31 17.32 9.65
5/6/2021 10:45:00 PM 13.85 56.93 0.094 7.3 26.82 9.68
5/6/2021 11:00:00 PM 13.72 56.696 0.094 7.28 23.89 9.71
5/6/2021 11:15:00 PM 13.59 56.462 0.093 7.26 16.55 9.73
5/6/2021 11:30:00 PM 13.45 56.21 0.093 7.24 19.74 9.76
5/6/2021 11:45:00 PM 13.32 55.976 0.093 7.25 18.53 9.79
5/7/2021 12:00:00 AM 13.18 55.724 0.092 7.25 13.27 9.82
5/7/2021 12:15:00 AM 13.04 55.472 0.092 7.25 19.65 9.84
5/7/2021 12:30:00 AM 12.91 55.238 0.092 7.25 15.18 9.86
5/7/2021 12:45:00 AM 12.78 55.004 0.092 7.25 70.8 9.9
5/7/2021 1:00:00 AM 12.64 54.752 0.091 7.25 22.75 9.93
5/7/2021 1:15:00 AM 12.51 54.518 0.091 7.24 42.55 9.96
5/7/2021 1:30:00 AM 12.38 54.284 0.091 7.24 17.23 9.99
5/7/2021 1:45:00 AM 12.26 54.068 0.09 7.24 17.49 10.01
5/7/2021 2:00:00 AM 12.13 53.834 0.09 7.24 21.26 10.05
5/7/2021 2:15:00 AM 12.01 53.618 0.09 7.24 17.83 10.08
5/7/2021 2:30:00 AM 11.89 53.402 0.089 7.24 24.46 10.1
5/7/2021 2:45:00 AM 11.77 53.186 0.089 7.25 17.17 10.13
5/7/2021 3:00:00 AM 11.65 52.97 0.088 7.25 17.07 10.15
5/7/2021 3:15:00 AM 11.54 52.772 0.087 7.25 16.74 10.19
5/7/2021 3:30:00 AM 11.43 52.574 0.087 7.24 18.56 10.21
5/7/2021 3:45:00 AM 11.32 52.376 0.086 7.22 21.45 10.24
5/7/2021 4:00:00 AM 11.21 52.178 0.086 7.22 54.07 10.27
5/7/2021 4:15:00 AM 11.1 51.98 0.086 7.24 15.96 10.29
5/7/2021 4:30:00 AM 10.99 51.782 0.086 7.25 25.56 10.32
5/7/2021 4:45:00 AM 10.89 51.602 0.085 7.25 34.71 10.35
5/7/2021 5:00:00 AM 10.78 51.404 0.084 7.24 16.52 10.37
5/7/2021 5:15:00 AM 10.68 51.224 0.082 7.25 74.58 10.4
5/7/2021 5:30:00 AM 10.58 51.044 0.081 7.23 15.67 10.43
5/7/2021 5:45:00 AM 10.48 50.864 0.079 7.24 14.8 10.46
5/7/2021 6:00:00 AM 10.38 50.684 0.078 7.25 13.33 10.5
5/7/2021 6:15:00 AM 10.3 50.54 0.078 7.25 12.09 10.56
5/7/2021 6:30:00 AM 10.22 50.396 0.076 7.24 14.23 10.64
5/7/2021 6:45:00 AM 10.16 50.288 0.075 7.28 13.53 10.72
5/7/2021 7:00:00 AM 10.11 50.198 0.074 7.3 14.89 10.8
5/7/2021 7:15:00 AM 10.07 50.126 0.073 7.33 7.42 10.89
5/7/2021 7:30:00 AM 10.05 50.09 0.072 7.37 11.5 11
5/7/2021 7:45:00 AM 10.07 50.126 0.07 7.41 12.85 11.1
5/7/2021 8:00:00 AM 10.1 50.18 0.069 7.44 12.52 11.15
5/7/2021 8:15:00 AM 10.14 50.252 0.067 7.48 12.96 11.21
5/7/2021 8:30:00 AM 10.2 50.36 0.065 7.52 11.24 11.27
5/7/2021 8:45:00 AM 10.26 50.468 0.064 7.56 4.56 11.31
5/7/2021 9:00:00 AM 10.36 50.648 0.064 7.61 10.94 11.34
5/7/2021 9:15:00 AM 10.45 50.81 0.064 7.64 7.67 11.37
5/7/2021 9:30:00 AM 10.57 51.026 0.063 7.68 13.02 11.4
5/7/2021 9:45:00 AM 10.67 51.206 0.062 7.73 15.28 11.44
5/7/2021 10:00:00 AM 10.82 51.476 0.063 7.78 113.49 11.47
5/7/2021 10:15:00 AM 10.9 51.62 0.064 7.83 2.88 11.46
5/7/2021 10:30:00 AM 10.96 51.728 0.064 7.87 3.02 11.48
5/7/2021 10:45:00 AM 11.08 51.944 0.064 7.93 3.08 11.51
5/7/2021 11:00:00 AM 11.21 52.178 0.065 8 3.07 11.51
5/7/2021 11:15:00 AM 11.35 52.43 0.125 7.99 3.71 11.51
5/7/2021 11:30:00 AM 11.5 52.7 0.125 8.13 3.05 11.51
5/7/2021 11:45:00 AM 11.6 52.88 0.125 8.2 2.78 11.49
5/7/2021 12:00:00 PM 11.69 53.042 0.125 8.26 2.8 11.46
5/7/2021 12:15:00 PM 11.77 53.186 0.125 8.3 2.7 11.44
5/7/2021 12:30:00 PM 11.86 53.348 0.124 8.35 2.72 11.43
5/7/2021 12:45:00 PM 11.89 53.402 0.124 8.38 2.81 11.39
5/7/2021 1:00:00 PM 11.91 53.438 0.124 8.4 2.71 11.35
5/7/2021 1:15:00 PM 11.97 53.546 0.124 8.44 2.88 11.38
5/7/2021 1:30:00 PM 12.13 53.834 0.124 8.52 2.76 11.4
5/7/2021 1:45:00 PM 12.21 53.978 0.124 8.54 2.77 11.35
5/7/2021 2:00:00 PM 12.24 54.032 0.124 8.56 2.9 11.33
5/7/2021 2:15:00 PM 12.25 54.05 0.124 8.57 2.81 11.27
5/7/2021 2:30:00 PM 12.24 54.032 0.124 8.56 2.9 11.24
5/7/2021 2:45:00 PM 12.25 54.05 0.124 8.57 3.13 11.24
5/7/2021 3:00:00 PM 12.25 54.05 0.123 8.57 2.9 11.23
5/7/2021 3:15:00 PM 12.3 54.14 0.123 8.61 2.86 11.25
5/7/2021 3:30:00 PM 12.34 54.212 0.123 8.63 2.91 11.23
5/7/2021 3:45:00 PM 12.34 54.212 0.123 8.59 2.76 11.09
5/7/2021 4:00:00 PM 12.35 54.23 0.123 8.56 2.73 11.06
5/7/2021 4:15:00 PM 12.38 54.284 0.123 8.56 2.86 11.06
5/7/2021 4:30:00 PM 12.41 54.338 0.123 8.56 2.86 11.07
5/7/2021 4:45:00 PM 12.44 54.392 0.123 8.57 2.83 11.06
5/7/2021 5:00:00 PM 12.45 54.41 0.123 8.54 2.63 10.96
5/7/2021 5:15:00 PM 12.45 54.41 0.123 8.46 2.68 10.84
5/7/2021 5:30:00 PM 12.45 54.41 0.123 8.36 2.66 10.77
5/7/2021 5:45:00 PM 12.45 54.41 0.122 8.29 2.77 10.75
5/7/2021 6:00:00 PM 12.47 54.446 0.122 8.25 2.66 10.76
5/7/2021 6:15:00 PM 12.48 54.464 0.122 8.22 2.92 10.75
5/7/2021 6:30:00 PM 12.49 54.482 0.122 8.15 2.78 10.69
5/7/2021 6:45:00 PM 12.48 54.464 0.122 8.07 2.71 10.61
5/7/2021 7:00:00 PM 12.48 54.464 0.122 7.97 2.81 10.54
5/7/2021 7:15:00 PM 12.47 54.446 0.123 7.86 2.75 10.45
5/7/2021 7:30:00 PM 12.45 54.41 0.123 7.76 2.68 10.36
5/7/2021 7:45:00 PM 12.43 54.374 0.123 7.67 2.85 10.3
5/7/2021 8:00:00 PM 12.4 54.32 0.123 7.6 2.76 10.25
5/7/2021 8:15:00 PM 12.38 54.284 0.123 7.55 2.83 10.2
5/7/2021 8:30:00 PM 12.35 54.23 0.123 7.5 3.02 10.16
5/7/2021 8:45:00 PM 12.33 54.194 0.123 7.47 2.91 10.13
5/7/2021 9:00:00 PM 12.3 54.14 0.123 7.45 2.84 10.12
5/7/2021 9:15:00 PM 12.27 54.086 0.123 7.42 2.89 10.1
5/7/2021 9:30:00 PM 12.25 54.05 0.123 7.4 3.46 10.1
5/7/2021 9:45:00 PM 12.22 53.996 0.123 7.38 3.31 10.08
5/7/2021 10:00:00 PM 12.19 53.942 0.123 7.39 5.05 10.08
5/7/2021 10:15:00 PM 12.17 53.906 0.123 7.38 4.84 10.08
5/7/2021 10:30:00 PM 12.14 53.852 0.124 7.38 2.83 10.07
5/7/2021 10:45:00 PM 12.11 53.798 0.124 7.34 2.9 10.07
5/7/2021 11:00:00 PM 12.08 53.744 0.124 7.33 2.77 10.08
5/7/2021 11:15:00 PM 12.05 53.69 0.124 7.32 2.79 10.07
5/7/2021 11:30:00 PM 12.02 53.636 0.124 7.32 2.82 10.07
5/7/2021 11:45:00 PM 11.99 53.582 0.124 7.31 3.01 10.08
5/8/2021 12:00:00 AM 11.97 53.546 0.124 7.3 2.97 10.08
5/8/2021 12:15:00 AM 11.94 53.492 0.124 7.31 2.91 10.09
5/8/2021 12:30:00 AM 11.91 53.438 0.124 7.29 2.93 10.09
5/8/2021 12:45:00 AM 11.88 53.384 0.125 7.3 2.77 10.09
5/8/2021 1:00:00 AM 11.85 53.33 0.125 7.29 2.92 10.1
5/8/2021 1:15:00 AM 11.82 53.276 0.125 7.28 3.06 10.1
5/8/2021 1:30:00 AM 11.78 53.204 0.125 7.29 2.88 10.11
5/8/2021 1:45:00 AM 11.75 53.15 0.125 7.28 2.94 10.12
5/8/2021 2:00:00 AM 11.71 53.078 0.125 7.29 2.79 10.13
5/8/2021 2:15:00 AM 11.67 53.006 0.125 7.29 2.83 10.13
5/8/2021 2:30:00 AM 11.62 52.916 0.125 7.28 2.78 10.14
5/8/2021 2:45:00 AM 11.58 52.844 0.125 7.29 2.87 10.15
5/8/2021 3:00:00 AM 11.53 52.754 0.125 7.28 2.8 10.16
5/8/2021 3:15:00 AM 11.48 52.664 0.125 7.28 2.78 10.17
5/8/2021 3:30:00 AM 11.42 52.556 0.125 7.27 2.81 10.19
5/8/2021 3:45:00 AM 11.36 52.448 0.125 7.28 3 10.2
5/8/2021 4:00:00 AM 11.31 52.358 0.125 7.26 3.02 10.22
5/8/2021 4:15:00 AM 11.24 52.232 0.125 7.27 3 10.24
5/8/2021 4:30:00 AM 11.17 52.106 0.124 7.26 3.17 10.27
5/8/2021 4:45:00 AM 11.1 51.98 0.124 7.26 3.21 10.28
5/8/2021 5:00:00 AM 11.04 51.872 0.124 7.26 3.49 10.28
5/8/2021 5:15:00 AM 10.99 51.782 0.125 7.28 3.49 10.31
5/8/2021 5:30:00 AM 10.94 51.692 0.125 7.27 3.64 10.32
5/8/2021 5:45:00 AM 10.89 51.602 0.125 7.26 3.72 10.33
5/8/2021 6:00:00 AM 10.82 51.476 0.125 7.26 3.73 10.35
5/8/2021 6:15:00 AM 10.76 51.368 0.125 7.27 3.58 10.39
5/8/2021 6:30:00 AM 10.7 51.26 0.125 7.27 3.63 10.42
5/8/2021 6:45:00 AM 10.64 51.152 0.125 7.29 3.87 10.46
5/8/2021 7:00:00 AM 10.59 51.062 0.126 7.31 3.93 10.52
5/8/2021 7:15:00 AM 10.54 50.972 0.126 7.32 4 10.56
5/8/2021 7:30:00 AM 10.49 50.882 0.126 7.32 4.59 10.62
5/8/2021 7:45:00 AM 10.44 50.792 0.127 7.33 4.66 10.66
5/8/2021 8:00:00 AM 10.38 50.684 0.128 7.35 5.52 10.7
5/8/2021 8:15:00 AM 10.34 50.612 0.128 7.36 4.95 10.73
5/8/2021 8:30:00 AM 10.31 50.558 0.128 7.36 5.17 10.79
5/8/2021 8:45:00 AM 10.3 50.54 0.128 7.38 5.08 10.83
5/8/2021 9:00:00 AM 10.29 50.522 0.128 7.4 5.07 10.86
5/8/2021 9:15:00 AM 10.27 50.486 0.127 7.4 5.24 10.89
5/8/2021 9:30:00 AM 10.27 50.486 0.127 7.43 5.15 10.95
5/8/2021 9:45:00 AM 10.27 50.486 0.127 7.45 5.17 11.01
5/8/2021 10:00:00 AM 10.28 50.504 0.128 7.47 5.48 11.06
5/8/2021 10:15:00 AM 10.29 50.522 0.128 7.51 5.62 11.1
5/8/2021 10:30:00 AM 10.32 50.576 0.128 7.53 6.46 11.16
5/8/2021 10:45:00 AM 10.42 50.756 0.128 7.61 7.17 11.24
5/8/2021 11:00:00 AM 10.47 50.846 0.128 7.63 7.16 11.26
5/8/2021 11:15:00 AM 10.51 50.918 0.127 7.67 7.31 11.28
5/8/2021 11:30:00 AM 10.51 50.918 0.126 7.68 7.12 11.27
5/8/2021 11:45:00 AM 10.53 50.954 0.126 7.69 7.22 11.3
5/8/2021 12:00:00 PM 10.59 51.062 0.125 7.74 6.85 11.32
5/8/2021 12:15:00 PM 10.64 51.152 0.125 7.78 6.77 11.35
5/8/2021 12:30:00 PM 10.65 51.17 0.125 7.75 6.09 11.31
5/8/2021 12:45:00 PM 10.66 51.188 0.125 7.76 5.94 11.31
5/8/2021 1:00:00 PM 10.69 51.242 0.125 7.79 6.05 11.34
5/8/2021 1:15:00 PM 10.72 51.296 0.125 7.82 5.36 11.32
5/8/2021 1:30:00 PM 10.82 51.476 0.125 7.88 5.5 11.39
5/8/2021 1:45:00 PM 10.95 51.71 0.125 7.95 5.13 11.42
5/8/2021 2:00:00 PM 11.08 51.944 0.126 7.98 5.02 11.42
5/8/2021 2:15:00 PM 11.19 52.142 0.126 8.04 4.95 11.42
5/8/2021 2:30:00 PM 11.22 52.196 0.126 8.07 4.73 11.44
5/8/2021 2:45:00 PM 11.23 52.214 0.126 8.06 5.07 11.39
5/8/2021 3:00:00 PM 11.2 52.16 0.126 8.05 4.79 11.37
5/8/2021 3:15:00 PM 11.23 52.214 0.126 8.05 4.9 11.38
5/8/2021 3:30:00 PM 11.37 52.466 0.126 8.13 5.16 11.38
5/8/2021 3:45:00 PM 11.45 52.61 0.126 8.16 5.07 11.37
5/8/2021 4:00:00 PM 11.48 52.664 0.126 8.14 5.21 11.35
5/8/2021 4:15:00 PM 11.57 52.826 0.125 8.17 5.45 11.34
5/8/2021 4:30:00 PM 11.6 52.88 0.125 8.17 5.2 11.29
5/8/2021 4:45:00 PM 11.6 52.88 0.125 8.12 5.43 11.24
5/8/2021 5:00:00 PM 11.6 52.88 0.124 8.1 5.43 11.22
5/8/2021 5:15:00 PM 11.62 52.916 0.124 8.08 5.58 11.2
5/8/2021 5:30:00 PM 11.64 52.952 0.123 8.06 6.29 11.16
5/8/2021 5:45:00 PM 11.61 52.898 0.123 7.99 5.81 11.11
5/8/2021 6:00:00 PM 11.61 52.898 0.123 7.94 5.98 11.05
5/8/2021 6:15:00 PM 11.6 52.88 0.122 7.87 6.48 11.01
5/8/2021 6:30:00 PM 11.57 52.826 0.122 7.8 7.33 10.95
5/8/2021 6:45:00 PM 11.52 52.736 0.122 7.73 6.65 10.9
5/8/2021 7:00:00 PM 11.48 52.664 0.122 7.67 7.16 10.83
5/8/2021 7:15:00 PM 11.46 52.628 0.122 7.61 7.8 10.77
5/8/2021 7:30:00 PM 11.43 52.574 0.122 7.56 7.02 10.74
5/8/2021 7:45:00 PM 11.41 52.538 0.123 7.55 7.2 10.7
5/8/2021 8:00:00 PM 11.37 52.466 0.123 7.52 8.34 10.66
5/8/2021 8:15:00 PM 11.32 52.376 0.124 7.49 8.42 10.64
5/8/2021 8:30:00 PM 11.25 52.25 0.124 7.45 8.92 10.62
5/8/2021 8:45:00 PM 11.17 52.106 0.124 7.42 8.48 10.61
5/8/2021 9:00:00 PM 11.09 51.962 0.124 7.41 8.7 10.6
5/8/2021 9:15:00 PM 11.03 51.854 0.123 7.38 8.26 10.6
5/8/2021 9:30:00 PM 10.99 51.782 0.123 7.36 8.07 10.6
5/8/2021 9:45:00 PM 10.93 51.674 0.123 7.34 8.4 10.59
5/8/2021 10:00:00 PM 10.86 51.548 0.122 7.31 7.77 10.6
5/8/2021 10:15:00 PM 10.78 51.404 0.122 7.32 7.38 10.61
5/8/2021 10:30:00 PM 10.69 51.242 0.122 7.3 7.15 10.62
5/8/2021 10:45:00 PM 10.61 51.098 0.122 7.31 7.57 10.63
5/8/2021 11:00:00 PM 10.53 50.954 0.122 7.31 7.13 10.65
5/8/2021 11:15:00 PM 10.45 50.81 0.122 7.3 7.49 10.66
5/8/2021 11:30:00 PM 10.37 50.666 0.123 7.3 6.75 10.67
5/8/2021 11:45:00 PM 10.29 50.522 0.123 7.3 7.4 10.69
5/9/2021 12:00:00 AM 10.22 50.396 0.124 7.3 7.11 10.7
5/9/2021 12:15:00 AM 10.16 50.288 0.124 7.29 7.21 10.71
5/9/2021 12:30:00 AM 10.1 50.18 0.124 7.28 7.04 10.73
5/9/2021 12:45:00 AM 10.04 50.072 0.124 7.27 6.84 10.74
5/9/2021 1:00:00 AM 9.99 49.982 0.124 7.26 6.64 10.76
5/9/2021 1:15:00 AM 9.93 49.874 0.123 7.25 6.82 10.77
5/9/2021 1:30:00 AM 9.86 49.748 0.123 7.26 7 10.79
5/9/2021 1:45:00 AM 9.8 49.64 0.122 7.27 7.37 10.81
5/9/2021 2:00:00 AM 9.74 49.532 0.122 7.27 7.18 10.82
5/9/2021 2:15:00 AM 9.69 49.442 0.121 7.26 7.15 10.83
5/9/2021 2:30:00 AM 9.63 49.334 0.12 7.26 6.78 10.85
5/9/2021 2:45:00 AM 9.57 49.226 0.12 7.26 7.06 10.87
5/9/2021 3:00:00 AM 9.52 49.136 0.119 7.24 6.12 10.87
5/9/2021 3:15:00 AM 9.45 49.01 0.119 7.25 6.67 10.89
5/9/2021 3:30:00 AM 9.39 48.902 0.119 7.24 6.86 10.91
5/9/2021 3:45:00 AM 9.34 48.812 0.118 7.25 6.35 10.92
5/9/2021 4:00:00 AM 9.28 48.704 0.118 7.24 6.91 10.94
5/9/2021 4:15:00 AM 9.21 48.578 0.118 7.25 6.64 10.95
5/9/2021 4:30:00 AM 9.15 48.47 0.118 7.25 6.41 10.97
5/9/2021 4:45:00 AM 9.1 48.38 0.117 7.27 6.67 10.98
5/9/2021 5:00:00 AM 9.04 48.272 0.117 7.25 6.6 11
5/9/2021 5:15:00 AM 8.98 48.164 0.117 7.24 6.85 11.02
5/9/2021 5:30:00 AM 8.93 48.074 0.117 7.25 6.65 11.04
5/9/2021 5:45:00 AM 8.88 47.984 0.117 7.25 6.96 11.06
5/9/2021 6:00:00 AM 8.82 47.876 0.117 7.26 7.12 11.08
5/9/2021 6:15:00 AM 8.78 47.804 0.117 7.25 6.67 11.11
5/9/2021 6:30:00 AM 8.74 47.732 0.117 7.26 6.7 11.15
5/9/2021 6:45:00 AM 8.71 47.678 0.117 7.28 6.62 11.23
5/9/2021 7:00:00 AM 8.68 47.624 0.117 7.32 6.55 11.28
5/9/2021 7:15:00 AM 8.67 47.606 0.117 7.31 6.62 11.33
5/9/2021 7:30:00 AM 8.68 47.624 0.117 7.34 6.29 11.38
5/9/2021 7:45:00 AM 8.69 47.642 0.117 7.35 6.27 11.44
5/9/2021 8:00:00 AM 8.69 47.642 0.117 7.37 6.14 11.46
5/9/2021 8:15:00 AM 8.75 47.75 0.117 7.42 6.41 11.54
5/9/2021 8:30:00 AM 8.84 47.912 0.117 7.45 6.1 11.57
5/9/2021 8:45:00 AM 8.89 48.002 0.117 7.48 6.27 11.6
5/9/2021 9:00:00 AM 8.92 48.056 0.117 7.49 6.32 11.63
5/9/2021 9:15:00 AM 9.03 48.254 0.117 7.53 6.01 11.67
5/9/2021 9:30:00 AM 9.17 48.506 0.117 7.57 6.21 11.7
5/9/2021 9:45:00 AM 9.25 48.65 0.117 7.61 6.33 11.72
5/9/2021 10:00:00 AM 9.34 48.812 0.117 7.66 6.19 11.75
5/9/2021 10:15:00 AM 9.48 49.064 0.116 7.69 7 11.77
5/9/2021 10:30:00 AM 9.66 49.388 0.116 7.76 6.64 11.79
5/9/2021 10:45:00 AM 9.75 49.55 0.116 7.79 6.43 11.77
5/9/2021 11:00:00 AM 9.83 49.694 0.116 7.83 6.55 11.78
5/9/2021 11:15:00 AM 9.91 49.838 0.116 7.87 6.54 11.8
5/9/2021 11:30:00 AM 10.04 50.072 0.116 7.93 6.62 11.8
5/9/2021 11:45:00 AM 10.14 50.252 0.116 7.96 6.86 11.78
5/9/2021 12:00:00 PM 10.2 50.36 0.115 7.98 6.65 11.76
5/9/2021 12:15:00 PM 10.27 50.486 0.115 8.02 6.41 11.77
5/9/2021 12:30:00 PM 10.35 50.63 0.115 8.08 6.45 11.76
5/9/2021 12:45:00 PM 10.42 50.756 0.115 8.12 6.69 11.74
5/9/2021 1:00:00 PM 10.49 50.882 0.115 8.14 7.01 11.74
5/9/2021 1:15:00 PM 10.52 50.936 0.115 8.14 7.13 11.69
5/9/2021 1:30:00 PM 10.52 50.936 0.115 8.16 7.21 11.68
5/9/2021 1:45:00 PM 10.5 50.9 0.114 8.13 7 11.63
5/9/2021 2:00:00 PM 10.49 50.882 0.114 8.1 7.24 11.57
5/9/2021 2:15:00 PM 10.48 50.864 0.114 8.04 6.88 11.51
5/9/2021 2:30:00 PM 10.47 50.846 0.114 8 7.25 11.47
5/9/2021 2:45:00 PM 10.47 50.846 0.114 7.95 6.73 11.44
5/9/2021 3:00:00 PM 10.47 50.846 0.114 7.93 7.11 11.43
5/9/2021 3:15:00 PM 10.48 50.864 0.114 7.95 6.73 11.44
5/9/2021 3:30:00 PM 10.5 50.9 0.114 7.95 6.98 11.43
5/9/2021 3:45:00 PM 10.5 50.9 0.114 7.9 6.86 11.39
5/9/2021 4:00:00 PM 10.48 50.864 0.113 7.86 6.82 11.33
5/9/2021 4:15:00 PM 10.46 50.828 0.113 7.81 6.89 11.3
5/9/2021 4:30:00 PM 10.44 50.792 0.113 7.75 6.89 11.25
5/9/2021 4:45:00 PM 10.42 50.756 0.113 7.68 6.36 11.2
5/9/2021 5:00:00 PM 10.39 50.702 0.113 7.67 6.56 11.15
5/9/2021 5:15:00 PM 10.37 50.666 0.113 7.62 6.77 11.13
5/9/2021 5:30:00 PM 10.35 50.63 0.113 7.59 6.41 11.09
5/9/2021 5:45:00 PM 10.32 50.576 0.113 7.56 6.57 11.06
5/9/2021 6:00:00 PM 10.29 50.522 0.113 7.53 6.47 11.04
5/9/2021 6:15:00 PM 10.27 50.486 0.113 7.53 7.12 11.05
5/9/2021 6:30:00 PM 10.24 50.432 0.113 7.49 6.21 11.02
5/9/2021 6:45:00 PM 10.21 50.378 0.113 7.48 6.19 10.99
5/9/2021 7:00:00 PM 10.17 50.306 0.113 7.46 6.23 10.96
5/9/2021 7:15:00 PM 10.13 50.234 0.113 7.43 6.31 10.94
5/9/2021 7:30:00 PM 10.09 50.162 0.113 7.41 6.38 10.92
5/9/2021 7:45:00 PM 10.05 50.09 0.113 7.41 5.84 10.89
5/9/2021 8:00:00 PM 10.01 50.018 0.114 7.39 6.1 10.88
5/9/2021 8:15:00 PM 9.96 49.928 0.114 7.37 6.13 10.86
5/9/2021 8:30:00 PM 9.91 49.838 0.114 7.36 6.46 10.85
5/9/2021 8:45:00 PM 9.86 49.748 0.115 7.33 6.12 10.85
5/9/2021 9:00:00 PM 9.81 49.658 0.115 7.34 6.34 10.84
5/9/2021 9:15:00 PM 9.76 49.568 0.115 7.32 6.61 10.84
5/9/2021 9:30:00 PM 9.7 49.46 0.116 7.31 6.41 10.85
5/9/2021 9:45:00 PM 9.66 49.388 0.116 7.3 6.38 10.85
5/9/2021 10:00:00 PM 9.61 49.298 0.116 7.3 6.84 10.85
5/9/2021 10:15:00 PM 9.57 49.226 0.116 7.29 6.63 10.86
5/9/2021 10:30:00 PM 9.52 49.136 0.117 7.29 6.71 10.86
5/9/2021 10:45:00 PM 9.47 49.046 0.117 7.28 6.72 10.87
5/9/2021 11:00:00 PM 9.43 48.974 0.117 7.28 6.61 10.87
5/9/2021 11:15:00 PM 9.39 48.902 0.117 7.28 7.12 10.87
5/9/2021 11:30:00 PM 9.35 48.83 0.117 7.26 7.44 10.88
5/9/2021 11:45:00 PM 9.31 48.758 0.117 7.25 7.78 10.89
5/10/2021 12:00:00 AM 9.28 48.704 0.118 7.25 7.68 10.89
5/10/2021 12:15:00 AM 9.24 48.632 0.117 7.25 7.95 10.89
5/10/2021 12:30:00 AM 9.21 48.578 0.117 7.25 9.24 10.89
5/10/2021 12:45:00 AM 9.18 48.524 0.117 7.25 8.33 10.9
5/10/2021 1:00:00 AM 9.15 48.47 0.117 7.24 13.7 10.91
5/10/2021 1:15:00 AM 9.13 48.434 0.117 7.26 9.23 10.92
5/10/2021 1:30:00 AM 9.1 48.38 0.117 7.24 10.35 10.93
5/10/2021 1:45:00 AM 9.08 48.344 0.117 7.23 9.84 10.93
5/10/2021 2:00:00 AM 9.06 48.308 0.117 7.24 11.62 10.94
5/10/2021 2:15:00 AM 9.05 48.29 0.117 7.22 11.14 10.94
5/10/2021 2:30:00 AM 9.03 48.254 0.117 7.24 11.45 10.95
5/10/2021 2:45:00 AM 9.01 48.218 0.118 7.23 11.98 10.95
5/10/2021 3:00:00 AM 9 48.2 0.118 7.22 12.33 10.95
5/10/2021 3:15:00 AM 8.99 48.182 0.118 7.22 12.45 10.96
5/10/2021 3:30:00 AM 8.98 48.164 0.118 7.22 14.62 10.96
5/10/2021 3:45:00 AM 8.97 48.146 0.118 7.21 15.56 10.96
5/10/2021 4:00:00 AM 8.97 48.146 0.117 7.21 15.93 10.96
5/10/2021 4:15:00 AM 8.97 48.146 0.117 7.21 15.21 10.97
5/10/2021 4:30:00 AM 8.96 48.128 0.117 7.21 22.24 10.97
5/10/2021 4:45:00 AM 8.96 48.128 0.117 7.21 15.66 10.97
5/10/2021 5:00:00 AM 8.96 48.128 0.117 7.19 16.65 10.97
5/10/2021 5:15:00 AM 8.96 48.128 0.117 7.19 18.31 10.97
5/10/2021 5:30:00 AM 8.96 48.128 0.116 7.19 18.36 10.98
5/10/2021 5:45:00 AM 8.96 48.128 0.116 7.19 28.13 10.98
5/10/2021 6:00:00 AM 8.96 48.128 0.116 7.19 22.27 10.99
5/10/2021 6:15:00 AM 8.96 48.128 0.115 7.19 28.02 10.99
5/10/2021 6:30:00 AM 8.96 48.128 0.115 7.2 20.71 10.99
5/10/2021 6:45:00 AM 8.95 48.11 0.115 7.19 19.92 11
5/10/2021 7:00:00 AM 8.95 48.11 0.116 7.18 19.98 11.01
5/10/2021 7:15:00 AM 8.94 48.092 0.116 7.19 19.42 11.02
5/10/2021 7:30:00 AM 8.94 48.092 0.116 7.19 21.01 11.03
5/10/2021 7:45:00 AM 8.94 48.092 0.115 7.19 18.93 11.05
5/10/2021 8:00:00 AM 8.94 48.092 0.115 7.19 21.91 11.07
5/10/2021 8:15:00 AM 8.94 48.092 0.115 7.21 22.28 11.09
5/10/2021 8:30:00 AM 8.95 48.11 0.114 7.2 21.41 11.1
5/10/2021 8:45:00 AM 8.95 48.11 0.114 7.21 25.93 11.12
5/10/2021 9:00:00 AM 8.97 48.146 0.114 7.21 20.84 11.13
5/10/2021 9:15:00 AM 8.97 48.146 0.113 7.21 18.53 11.14
5/10/2021 9:30:00 AM 8.97 48.146 0.113 7.23 20.62 11.16
5/10/2021 9:45:00 AM 8.99 48.182 0.113 7.22 16.83 11.17
5/10/2021 10:00:00 AM 9 48.2 0.114 7.24 21.54 11.18
5/10/2021 10:15:00 AM 9.04 48.272 0.114 7.24 14.85 11.2
5/10/2021 10:30:00 AM 9.05 48.29 0.114 7.26 18.6 11.21
5/10/2021 10:45:00 AM 9.04 48.272 0.114 7.25 19.05 11.21
5/10/2021 11:00:00 AM 9.06 48.308 0.114 7.24 19.49 11.22
5/10/2021 11:15:00 AM 9.1 48.38 0.114 7.27 20.4 11.24
5/10/2021 11:30:00 AM 9.11 48.398 0.114 7.28 17.98 11.24
5/10/2021 11:45:00 AM 9.15 48.47 0.114 7.29 16.64 11.25
5/10/2021 12:00:00 PM 9.17 48.506 0.113 7.29 25.66 11.25
5/10/2021 12:15:00 PM 9.19 48.542 0.113 7.29 17.46 11.25
5/10/2021 12:30:00 PM 9.27 48.686 0.112 7.31 19.19 11.27
5/10/2021 12:45:00 PM 9.41 48.938 0.111 7.34 20.29 11.27
5/10/2021 1:00:00 PM 9.45 49.01 0.111 7.33 20.54 11.26
5/10/2021 1:15:00 PM 9.46 49.028 0.11 7.32 19.82 11.27
5/10/2021 1:30:00 PM 9.55 49.19 0.11 7.34 17.49 11.28
5/10/2021 1:45:00 PM 9.67 49.406 0.109 7.36 18.99 11.28
5/10/2021 2:00:00 PM 9.72 49.496 0.109 7.35 19.36 11.28
5/10/2021 2:15:00 PM 9.87 49.766 0.109 7.39 14.97 11.29
5/10/2021 2:30:00 PM 9.97 49.946 0.108 7.38 18.59 11.25
5/10/2021 2:45:00 PM 9.97 49.946 0.108 7.36 18.49 11.25
5/10/2021 3:00:00 PM 10.04 50.072 0.108 7.36 19.96 11.23
5/10/2021 3:15:00 PM 10.13 50.234 0.108 7.37 19.66 11.23
5/10/2021 3:30:00 PM 10.21 50.378 0.107 7.37 17.94 11.22
5/10/2021 3:45:00 PM 10.27 50.486 0.107 7.38 21.31 11.2
5/10/2021 4:00:00 PM 10.33 50.594 0.107 7.37 18.5 11.16
5/10/2021 4:15:00 PM 10.36 50.648 0.106 7.36 18.12 11.14
5/10/2021 4:30:00 PM 10.36 50.648 0.106 7.31 16.13 11.11
5/10/2021 4:45:00 PM 10.37 50.666 0.106 7.32 16.66 11.07
5/10/2021 5:00:00 PM 10.34 50.612 0.106 7.31 18.33 11.07
5/10/2021 5:15:00 PM 10.24 50.432 0.105 7.27 16.82 11.07
5/10/2021 5:30:00 PM 10.22 50.396 0.105 7.28 16.9 11.08
5/10/2021 5:45:00 PM 10.18 50.324 0.105 7.28 17.67 11.07
5/10/2021 6:00:00 PM 10.16 50.288 0.105 7.28 18.52 11.06
5/10/2021 6:15:00 PM 10.14 50.252 0.104 7.26 20.87 11.05
5/10/2021 6:30:00 PM 10.14 50.252 0.104 7.25 19.36 11.04
5/10/2021 6:45:00 PM 10.13 50.234 0.104 7.24 18.97 11.02
5/10/2021 7:00:00 PM 10.13 50.234 0.103 7.23 22.9 10.99
5/10/2021 7:15:00 PM 10.12 50.216 0.103 7.23 18.93 10.97
5/10/2021 7:30:00 PM 10.12 50.216 0.103 7.23 18.06 10.96
5/10/2021 7:45:00 PM 10.08 50.144 0.103 7.21 18.53 10.94
5/10/2021 8:00:00 PM 10.04 50.072 0.102 7.19 19.01 10.93
5/10/2021 8:15:00 PM 10 50 0.102 7.19 16.89 10.92
5/10/2021 8:30:00 PM 9.95 49.91 0.102 7.18 16.06 10.91
5/10/2021 8:45:00 PM 9.91 49.838 0.102 7.18 16.08 10.91
5/10/2021 9:00:00 PM 9.86 49.748 0.102 7.16 23 10.9
5/10/2021 9:15:00 PM 9.81 49.658 0.102 7.15 15.82 10.91
5/10/2021 9:30:00 PM 9.77 49.586 0.102 7.14 19.31 10.91
5/10/2021 9:45:00 PM 9.73 49.514 0.102 7.14 19.18 10.91
5/10/2021 10:00:00 PM 9.7 49.46 0.101 7.13 17.49 10.92
5/10/2021 10:15:00 PM 9.66 49.388 0.101 7.14 17.4 10.92
5/10/2021 10:30:00 PM 9.63 49.334 0.101 7.13 21.64 10.92
5/10/2021 10:45:00 PM 9.59 49.262 0.101 7.18 17.71 10.93
5/10/2021 11:00:00 PM 9.56 49.208 0.101 7.12 17.25 10.93
5/10/2021 11:15:00 PM 9.52 49.136 0.102 7.12 17.87 10.94
5/10/2021 11:30:00 PM 9.49 49.082 0.102 7.11 16.82 10.94
5/10/2021 11:45:00 PM 9.46 49.028 0.102 7.13 16.18 10.94
5/11/2021 12:00:00 AM 9.43 48.974 0.102 7.13 16.48 10.95
5/11/2021 12:15:00 AM 9.4 48.92 0.102 7.1 15.32 10.95
5/11/2021 12:30:00 AM 9.37 48.866 0.102 7.12 15.49 10.96
5/11/2021 12:45:00 AM 9.34 48.812 0.102 7.11 16.15 10.97
5/11/2021 1:00:00 AM 9.31 48.758 0.102 7.1 16.21 10.97
5/11/2021 1:15:00 AM 9.28 48.704 0.102 7.11 16.37 10.98
5/11/2021 1:30:00 AM 9.26 48.668 0.102 7.1 16.05 10.99
5/11/2021 1:45:00 AM 9.24 48.632 0.102 7.11 15.6 10.99
5/11/2021 2:00:00 AM 9.21 48.578 0.102 7.11 14.66 11
5/11/2021 2:15:00 AM 9.19 48.542 0.102 7.1 13.99 11.01
5/11/2021 2:30:00 AM 9.17 48.506 0.102 7.1 14.88 11.01
5/11/2021 2:45:00 AM 9.15 48.47 0.102 7.11 13.91 11.01
5/11/2021 3:00:00 AM 9.14 48.452 0.102 7.1 14.64 11.02
5/11/2021 3:15:00 AM 9.11 48.398 0.103 7.11 12.84 11.02
5/11/2021 3:30:00 AM 9.1 48.38 0.103 7.1 14.02 11.02
5/11/2021 3:45:00 AM 9.09 48.362 0.103 7.1 13.33 11.03
5/11/2021 4:00:00 AM 9.08 48.344 0.103 7.12 12.52 11.03
5/11/2021 4:15:00 AM 9.06 48.308 0.103 7.12 12.68 11.04
5/11/2021 4:30:00 AM 9.05 48.29 0.103 7.11 12.53 11.03
5/11/2021 4:45:00 AM 9.04 48.272 0.103 7.12 12.23 11.04
5/11/2021 5:00:00 AM 9.01 48.218 0.103 7.11 11.96 11.05
5/11/2021 5:15:00 AM 8.99 48.182 0.103 7.11 12.28 11.06
5/11/2021 5:30:00 AM 8.97 48.146 0.103 7.11 12.12 11.06
5/11/2021 5:45:00 AM 8.94 48.092 0.103 7.09 12.26 11.07
5/11/2021 6:00:00 AM 8.92 48.056 0.104 7.11 11.75 11.08
5/11/2021 6:15:00 AM 8.89 48.002 0.104 7.1 11.26 11.1
5/11/2021 6:30:00 AM 8.87 47.966 0.104 7.12 11.09 11.12
5/11/2021 6:45:00 AM 8.85 47.93 0.104 7.12 10.95 11.14
5/11/2021 7:00:00 AM 8.83 47.894 0.104 7.13 10.26 11.16
5/11/2021 7:15:00 AM 8.83 47.894 0.104 7.14 9.88 11.19
5/11/2021 7:30:00 AM 8.84 47.912 0.104 7.15 9.8 11.23
5/11/2021 7:45:00 AM 8.86 47.948 0.104 7.16 10.03 11.26
5/11/2021 8:00:00 AM 8.91 48.038 0.104 7.19 9.07 11.29
5/11/2021 8:15:00 AM 8.96 48.128 0.104 7.21 8.75 11.32
5/11/2021 8:30:00 AM 9.02 48.236 0.104 7.23 8.2 11.35
5/11/2021 8:45:00 AM 9.09 48.362 0.104 7.25 8.96 11.38
5/11/2021 9:00:00 AM 9.17 48.506 0.105 7.27 8.21 11.41
5/11/2021 9:15:00 AM 9.26 48.668 0.105 7.3 8.31 11.43
5/11/2021 9:30:00 AM 9.35 48.83 0.105 7.32 8.35 11.45
5/11/2021 9:45:00 AM 9.45 49.01 0.105 7.34 7.88 11.46
5/11/2021 10:00:00 AM 9.56 49.208 0.105 7.36 8.33 11.48
5/11/2021 10:15:00 AM 9.7 49.46 0.105 7.39 7.98 11.48
5/11/2021 10:30:00 AM 9.84 49.712 0.105 7.42 8.12 11.49
5/11/2021 10:45:00 AM 10.01 50.018 0.105 7.45 7.93 11.49
5/11/2021 11:00:00 AM 10.21 50.378 0.105 7.48 8.87 11.5
5/11/2021 11:15:00 AM 10.42 50.756 0.105 7.52 7.81 11.5
5/11/2021 11:30:00 AM 10.44 50.792 0.105 7.5 7.94 11.47
5/11/2021 11:45:00 AM 10.42 50.756 0.105 7.49 7.69 11.49
5/11/2021 12:00:00 PM 10.4 50.72 0.106 7.5 7.2 11.46
5/11/2021 12:15:00 PM 10.41 50.738 0.106 7.51 7.35 11.46
5/11/2021 12:30:00 PM 10.4 50.72 0.106 7.5 7.41 11.43
5/11/2021 12:45:00 PM 10.4 50.72 0.106 7.49 7.41 11.41
5/11/2021 1:00:00 PM 10.42 50.756 0.106 7.51 6.92 11.41
5/11/2021 1:15:00 PM 10.58 51.044 0.106 7.59 6.76 11.45
5/11/2021 1:30:00 PM 10.76 51.368 0.106 7.61 6.67 11.44
5/11/2021 1:45:00 PM 10.81 51.458 0.106 7.61 6.56 11.41
5/11/2021 2:00:00 PM 11.05 51.89 0.106 7.66 6.55 11.42
5/11/2021 2:15:00 PM 11.24 52.232 0.106 7.69 6.65 11.4
5/11/2021 2:30:00 PM 11.32 52.376 0.106 7.7 6.43 11.34
5/11/2021 2:45:00 PM 11.36 52.448 0.106 7.65 6.41 11.3
5/11/2021 3:00:00 PM 11.38 52.484 0.106 7.65 6.43 11.27
5/11/2021 3:15:00 PM 11.42 52.556 0.106 7.66 6.41 11.25
5/11/2021 3:30:00 PM 11.46 52.628 0.106 7.65 6.15 11.23
5/11/2021 3:45:00 PM 11.47 52.646 0.106 7.63 5.82 11.18
5/11/2021 4:00:00 PM 11.48 52.664 0.107 7.6 5.96 11.15
5/11/2021 4:15:00 PM 11.51 52.718 0.107 7.61 6.01 11.15
5/11/2021 4:30:00 PM 11.52 52.736 0.107 7.6 5.85 11.12
5/11/2021 4:45:00 PM 11.51 52.718 0.107 7.59 5.86 11.11
5/11/2021 5:00:00 PM 11.47 52.646 0.107 7.59 5.77 11.1
5/11/2021 5:15:00 PM 11.43 52.574 0.107 7.57 5.88 11.11
5/11/2021 5:30:00 PM 11.39 52.502 0.107 7.56 5.87 11.09
5/11/2021 5:45:00 PM 11.37 52.466 0.107 7.57 5.95 11.1
5/11/2021 6:00:00 PM 11.36 52.448 0.107 7.56 5.56 11.09
5/11/2021 6:15:00 PM 11.31 52.358 0.107 7.54 5.63 11.1
5/11/2021 6:30:00 PM 11.22 52.196 0.108 7.5 5.77 11.03
5/11/2021 6:45:00 PM 11.13 52.034 0.108 7.44 5.62 11
5/11/2021 7:00:00 PM 11.04 51.872 0.108 7.41 5.6 10.97
5/11/2021 7:15:00 PM 10.96 51.728 0.108 7.37 5.44 10.96
5/11/2021 7:30:00 PM 10.91 51.638 0.108 7.37 5.41 10.96
5/11/2021 7:45:00 PM 10.85 51.53 0.108 7.35 5.29 10.94
5/11/2021 8:00:00 PM 10.78 51.404 0.109 7.33 5.37 10.9
5/11/2021 8:15:00 PM 10.71 51.278 0.109 7.29 5.49 10.87
5/11/2021 8:30:00 PM 10.63 51.134 0.109 7.28 5.7 10.85
5/11/2021 8:45:00 PM 10.54 50.972 0.109 7.25 5.63 10.84
5/11/2021 9:00:00 PM 10.44 50.792 0.109 7.23 5.87 10.85
5/11/2021 9:15:00 PM 10.35 50.63 0.109 7.21 6.03 10.85
5/11/2021 9:30:00 PM 10.28 50.504 0.109 7.23 5.68 10.85
5/11/2021 9:45:00 PM 10.21 50.378 0.109 7.2 5.82 10.85
5/11/2021 10:00:00 PM 10.14 50.252 0.11 7.2 5.88 10.87
5/11/2021 10:15:00 PM 10.06 50.108 0.11 7.19 5.68 10.87
5/11/2021 10:30:00 PM 9.99 49.982 0.11 7.18 5.83 10.88
5/11/2021 10:45:00 PM 9.93 49.874 0.11 7.19 5.62 10.89
5/11/2021 11:00:00 PM 9.86 49.748 0.11 7.18 5.88 10.9
5/11/2021 11:15:00 PM 9.79 49.622 0.11 7.17 5.62 10.91
5/11/2021 11:30:00 PM 9.71 49.478 0.11 7.16 5.71 10.92
5/11/2021 11:45:00 PM 9.63 49.334 0.11 7.16 5.49 10.95
5/12/2021 12:00:00 AM 9.56 49.208 0.11 7.15 5.47 10.96
5/12/2021 12:15:00 AM 9.48 49.064 0.11 7.16 5.2 10.97
5/12/2021 12:30:00 AM 9.41 48.938 0.11 7.17 5.29 10.98
5/12/2021 12:45:00 AM 9.35 48.83 0.11 7.17 5.78 11
5/12/2021 1:00:00 AM 9.28 48.704 0.11 7.15 5.08 11.01
5/12/2021 1:15:00 AM 9.22 48.596 0.111 7.16 5.28 11.02
5/12/2021 1:30:00 AM 9.16 48.488 0.111 7.17 5.67 11.04
5/12/2021 1:45:00 AM 9.11 48.398 0.111 7.17 5.42 11.05
5/12/2021 2:00:00 AM 9.06 48.308 0.111 7.14 5.39 11.06
5/12/2021 2:15:00 AM 9 48.2 0.111 7.16 5.19 11.08
5/12/2021 2:30:00 AM 8.95 48.11 0.111 7.15 5.37 11.09
5/12/2021 2:45:00 AM 8.88 47.984 0.111 7.16 5.18 11.1
5/12/2021 3:00:00 AM 8.83 47.894 0.111 7.16 5.38 11.12
5/12/2021 3:15:00 AM 8.78 47.804 0.111 7.15 5.31 11.14
5/12/2021 3:30:00 AM 8.72 47.696 0.111 7.15 5.39 11.15
5/12/2021 3:45:00 AM 8.67 47.606 0.111 7.15 5 11.17
5/12/2021 4:00:00 AM 8.63 47.534 0.111 7.15 5.3 11.18
5/12/2021 4:15:00 AM 8.58 47.444 0.111 7.16 5.26 11.17
5/12/2021 4:30:00 AM 8.54 47.372 0.111 7.16 5.3 11.19
5/12/2021 4:45:00 AM 8.52 47.336 0.111 7.16 5.09 11.19
5/12/2021 5:00:00 AM 8.51 47.318 0.111 7.17 5.4 11.2
5/12/2021 5:15:00 AM 8.5 47.3 0.111 7.18 4.93 11.21
5/12/2021 5:30:00 AM 8.5 47.3 0.111 7.18 4.99 11.23
5/12/2021 5:45:00 AM 8.49 47.282 0.111 7.18 5.17 11.22
5/12/2021 6:00:00 AM 8.49 47.282 0.111 7.17 5.15 11.24
5/12/2021 6:15:00 AM 8.48 47.264 0.111 7.19 5 11.25
5/12/2021 6:30:00 AM 8.48 47.264 0.111 7.2 5.12 11.28
5/12/2021 6:45:00 AM 8.48 47.264 0.11 7.21 4.79 11.34
5/12/2021 7:00:00 AM 8.48 47.264 0.11 7.23 4.66 11.37
5/12/2021 7:15:00 AM 8.48 47.264 0.11 7.23 4.52 11.44
5/12/2021 7:30:00 AM 8.51 47.318 0.11 7.27 4.46 11.49
5/12/2021 7:45:00 AM 8.54 47.372 0.11 7.29 4.57 11.55
5/12/2021 8:00:00 AM 8.55 47.39 0.11 7.32 4.24 11.56
5/12/2021 8:15:00 AM 8.58 47.444 0.11 7.33 4.22 11.61
5/12/2021 8:30:00 AM 8.65 47.57 0.11 7.38 4.17 11.68
5/12/2021 8:45:00 AM 8.71 47.678 0.11 7.41 3.99 11.74
5/12/2021 9:00:00 AM 8.85 47.93 0.11 7.45 3.97 11.76
5/12/2021 9:15:00 AM 8.96 48.128 0.11 7.47 3.85 11.76
5/12/2021 9:30:00 AM 9.04 48.272 0.11 7.49 3.78 11.78
5/12/2021 9:45:00 AM 9.16 48.488 0.11 7.52 3.78 11.78
5/12/2021 10:00:00 AM 9.3 48.74 0.11 7.53 3.81 11.77
5/12/2021 10:15:00 AM 9.46 49.028 0.11 7.56 3.81 11.77
5/12/2021 10:30:00 AM 9.64 49.352 0.109 7.59 3.64 11.76
5/12/2021 10:45:00 AM 9.86 49.748 0.109 7.64 3.9 11.75
5/12/2021 11:00:00 AM 10.1 50.18 0.109 7.67 3.5 11.73
5/12/2021 11:15:00 AM 10.34 50.612 0.109 7.71 3.83 11.71
5/12/2021 11:30:00 AM 10.6 51.08 0.109 7.74 3.57 11.69
5/12/2021 11:45:00 AM 10.85 51.53 0.109 7.78 3.68 11.65
5/12/2021 12:00:00 PM 11.04 51.872 0.109 7.78 3.62 11.62
5/12/2021 12:15:00 PM 11.3 52.34 0.109 7.83 3.59 11.58
5/12/2021 12:30:00 PM 11.42 52.556 0.109 7.83 3.61 11.52
5/12/2021 12:45:00 PM 11.62 52.916 0.109 7.85 3.67 11.49
5/12/2021 1:00:00 PM 11.71 53.078 0.108 7.87 3.68 11.43
5/12/2021 1:15:00 PM 11.78 53.204 0.108 7.86 3.82 11.43
5/12/2021 1:30:00 PM 12.01 53.618 0.108 7.96 3.64 11.41
5/12/2021 1:45:00 PM 12.1 53.78 0.108 7.93 3.41 11.34
5/12/2021 2:00:00 PM 12.26 54.068 0.108 7.96 3.49 11.31
5/12/2021 2:15:00 PM 12.42 54.356 0.108 8.02 3.73 11.31
5/12/2021 2:30:00 PM 12.56 54.608 0.108 8.04 3.75 11.26
5/12/2021 2:45:00 PM 12.66 54.788 0.108 8.02 3.71 11.24
5/12/2021 3:00:00 PM 12.92 55.256 0.108 8.1 3.67 11.21
5/12/2021 3:15:00 PM 12.91 55.238 0.108 8.06 3.68 11.13
5/12/2021 3:30:00 PM 12.85 55.13 0.108 8 3.67 11.09
5/12/2021 3:45:00 PM 12.8 55.04 0.108 7.96 3.59 11.06
5/12/2021 4:00:00 PM 12.77 54.986 0.108 7.91 3.4 11.06
5/12/2021 4:15:00 PM 12.86 55.148 0.108 7.96 3.44 11.05
5/12/2021 4:30:00 PM 12.98 55.364 0.108 7.98 3.56 11.03
5/12/2021 4:45:00 PM 13.05 55.49 0.108 7.95 3.51 10.97
5/12/2021 5:00:00 PM 13.01 55.418 0.108 7.88 3.41 10.88
5/12/2021 5:15:00 PM 13.01 55.418 0.108 7.83 3.53 10.85
5/12/2021 5:30:00 PM 13.11 55.598 0.108 7.87 3.7 10.85
5/12/2021 5:45:00 PM 13.14 55.652 0.108 7.84 3.61 10.81
5/12/2021 6:00:00 PM 13.1 55.58 0.108 7.77 3.52 10.76
5/12/2021 6:15:00 PM 13.12 55.616 0.108 7.76 3.58 10.72
5/12/2021 6:30:00 PM 13.1 55.58 0.108 7.71 3.64 10.69
5/12/2021 6:45:00 PM 13.07 55.526 0.109 7.65 3.45 10.64
5/12/2021 7:00:00 PM 13.01 55.418 0.109 7.58 3.44 10.58
5/12/2021 7:15:00 PM 12.98 55.364 0.109 7.54 3.46 10.53
5/12/2021 7:30:00 PM 12.96 55.328 0.109 7.49 3.3 10.48
5/12/2021 7:45:00 PM 12.93 55.274 0.109 7.44 3.37 10.43
5/12/2021 8:00:00 PM 12.88 55.184 0.109 7.41 3.43 10.39
5/12/2021 8:15:00 PM 12.81 55.058 0.11 7.35 3.51 10.36
5/12/2021 8:30:00 PM 12.72 54.896 0.11 7.3 3.44 10.33
5/12/2021 8:45:00 PM 12.63 54.734 0.11 7.27 3.7 10.32
5/12/2021 9:00:00 PM 12.52 54.536 0.11 7.25 3.68 10.32
5/12/2021 9:15:00 PM 12.42 54.356 0.11 7.24 3.8 10.32
5/12/2021 9:30:00 PM 12.31 54.158 0.11 7.21 3.93 10.33
5/12/2021 9:45:00 PM 12.19 53.942 0.111 7.19 3.92 10.35
5/12/2021 10:00:00 PM 12.06 53.708 0.111 7.18 3.68 10.36
5/12/2021 10:15:00 PM 11.92 53.456 0.111 7.17 3.75 10.38
5/12/2021 10:30:00 PM 11.79 53.222 0.111 7.16 3.78 10.4
5/12/2021 10:45:00 PM 11.66 52.988 0.111 7.15 3.76 10.42
5/12/2021 11:00:00 PM 11.53 52.754 0.111 7.16 3.74 10.45
5/12/2021 11:15:00 PM 11.4 52.52 0.111 7.13 3.85 10.48
5/12/2021 11:30:00 PM 11.27 52.286 0.111 7.14 3.79 10.49
5/12/2021 11:45:00 PM 11.14 52.052 0.111 7.13 3.69 10.53
5/13/2021 12:00:00 AM 11.01 51.818 0.112 7.14 3.72 10.56
5/13/2021 12:15:00 AM 10.88 51.584 0.112 7.13 3.8 10.59
5/13/2021 12:30:00 AM 10.76 51.368 0.112 7.14 3.67 10.61
5/13/2021 12:45:00 AM 10.64 51.152 0.112 7.14 3.69 10.64
5/13/2021 1:00:00 AM 10.53 50.954 0.112 7.14 3.74 10.67
5/13/2021 1:15:00 AM 10.42 50.756 0.112 7.14 3.76 10.69
5/13/2021 1:30:00 AM 10.32 50.576 0.112 7.13 3.7 10.72
5/13/2021 1:45:00 AM 10.21 50.378 0.112 7.14 3.76 10.74
5/13/2021 2:00:00 AM 10.11 50.198 0.112 7.13 3.7 10.77
5/13/2021 2:15:00 AM 10.02 50.036 0.112 7.14 3.61 10.79
5/13/2021 2:30:00 AM 9.92 49.856 0.113 7.13 3.67 10.82
5/13/2021 2:45:00 AM 9.83 49.694 0.113 7.13 3.84 10.84
5/13/2021 3:00:00 AM 9.74 49.532 0.113 7.15 3.76 10.87
5/13/2021 3:15:00 AM 9.65 49.37 0.113 7.13 3.67 10.88
5/13/2021 3:30:00 AM 9.56 49.208 0.113 7.14 3.65 10.91
5/13/2021 3:45:00 AM 9.48 49.064 0.113 7.14 3.71 10.93
5/13/2021 4:00:00 AM 9.4 48.92 0.113 7.14 3.63 10.96
5/13/2021 4:15:00 AM 9.31 48.758 0.113 7.13 3.63 10.98
5/13/2021 4:30:00 AM 9.23 48.614 0.113 7.14 3.79 11
5/13/2021 4:45:00 AM 9.16 48.488 0.113 7.15 3.58 11.02
5/13/2021 5:00:00 AM 9.08 48.344 0.113 7.14 3.6 11.04
5/13/2021 5:15:00 AM 9 48.2 0.113 7.14 3.73 11.07
5/13/2021 5:30:00 AM 8.93 48.074 0.113 7.14 3.5 11.09
5/13/2021 5:45:00 AM 8.86 47.948 0.113 7.14 3.48 11.12
5/13/2021 6:00:00 AM 8.79 47.822 0.113 7.16 3.54 11.15
5/13/2021 6:15:00 AM 8.73 47.714 0.113 7.17 3.4 11.2
5/13/2021 6:30:00 AM 8.67 47.606 0.113 7.19 3.32 11.24
5/13/2021 6:45:00 AM 8.62 47.516 0.113 7.19 3.36 11.31
5/13/2021 7:00:00 AM 8.58 47.444 0.113 7.21 3.29 11.38
5/13/2021 7:15:00 AM 8.56 47.408 0.113 7.23 3.26 11.45
5/13/2021 7:30:00 AM 8.56 47.408 0.113 7.26 3.26 11.52
5/13/2021 7:45:00 AM 8.58 47.444 0.113 7.29 3.09 11.58
5/13/2021 8:00:00 AM 8.62 47.516 0.113 7.32 3.17 11.65
5/13/2021 8:15:00 AM 8.68 47.624 0.113 7.35 3.04 11.68
5/13/2021 8:30:00 AM 8.76 47.768 0.112 7.38 2.94 11.73
5/13/2021 8:45:00 AM 8.86 47.948 0.112 7.42 2.97 11.76
5/13/2021 9:00:00 AM 8.97 48.146 0.112 7.47 2.95 11.79
5/13/2021 9:15:00 AM 9.11 48.398 0.112 7.5 2.87 11.81
5/13/2021 9:30:00 AM 9.25 48.65 0.112 7.53 2.94 11.82
5/13/2021 9:45:00 AM 9.42 48.956 0.112 7.58 2.84 11.83
5/13/2021 10:00:00 AM 9.6 49.28 0.111 7.62 2.77 11.83
5/13/2021 10:15:00 AM 9.8 49.64 0.111 7.68 2.82 11.83
5/13/2021 10:30:00 AM 10.02 50.036 0.111 7.71 2.85 11.82
5/13/2021 10:45:00 AM 10.27 50.486 0.111 7.76 2.94 11.81
5/13/2021 11:00:00 AM 10.53 50.954 0.111 7.81 2.79 11.78
5/13/2021 11:15:00 AM 10.8 51.44 0.111 7.85 2.74 11.74
5/13/2021 11:30:00 AM 11.02 51.836 0.111 7.89 2.8 11.71
5/13/2021 11:45:00 AM 11.26 52.268 0.111 7.92 2.72 11.69
5/13/2021 12:00:00 PM 11.41 52.538 0.111 7.96 2.8 11.62
5/13/2021 12:15:00 PM 11.44 52.592 0.111 7.92 2.84 11.51
5/13/2021 12:30:00 PM 11.73 53.114 0.11 8.03 2.76 11.58
5/13/2021 12:45:00 PM 11.88 53.384 0.11 8.02 2.77 11.53
5/13/2021 1:00:00 PM 12.02 53.636 0.11 8.09 2.77 11.48
5/13/2021 1:15:00 PM 12.09 53.762 0.11 8.06 2.74 11.37
5/13/2021 1:30:00 PM 12.08 53.744 0.11 8.06 2.71 11.39
5/13/2021 1:45:00 PM 12.12 53.816 0.11 8.11 2.81 11.41
5/13/2021 2:00:00 PM 12.3 54.14 0.11 8.21 2.85 11.44
5/13/2021 2:15:00 PM 12.4 54.32 0.11 8.22 2.8 11.36
5/13/2021 2:30:00 PM 12.46 54.428 0.11 8.25 2.7 11.35
5/13/2021 2:45:00 PM 12.54 54.572 0.11 8.3 2.72 11.36
5/13/2021 3:00:00 PM 12.62 54.716 0.109 8.35 2.7 11.36
5/13/2021 3:15:00 PM 12.75 54.95 0.109 8.4 2.66 11.35
5/13/2021 3:30:00 PM 12.91 55.238 0.109 8.45 2.68 11.29
5/13/2021 3:45:00 PM 13.08 55.544 0.109 8.48 2.73 11.26
5/13/2021 4:00:00 PM 13.29 55.922 0.109 8.55 2.78 11.23
5/13/2021 4:15:00 PM 13.41 56.138 0.109 8.56 2.77 11.17
5/13/2021 4:30:00 PM 13.54 56.372 0.109 8.57 2.74 11.1
5/13/2021 4:45:00 PM 13.69 56.642 0.109 8.58 2.81 11.05
5/13/2021 5:00:00 PM 13.83 56.894 0.109 8.61 2.81 11
5/13/2021 5:15:00 PM 13.89 57.002 0.109 8.56 2.68 10.89
5/13/2021 5:30:00 PM 13.88 56.984 0.109 8.49 2.74 10.83
5/13/2021 5:45:00 PM 13.85 56.93 0.109 8.41 2.76 10.75
5/13/2021 6:00:00 PM 13.83 56.894 0.109 8.31 2.75 10.68
5/13/2021 6:15:00 PM 13.8 56.84 0.109 8.19 2.76 10.6
5/13/2021 6:30:00 PM 13.73 56.714 0.11 8.03 2.78 10.53
5/13/2021 6:45:00 PM 13.64 56.552 0.11 7.87 2.8 10.48
5/13/2021 7:00:00 PM 13.56 56.408 0.11 7.74 2.83 10.44
5/13/2021 7:15:00 PM 13.48 56.264 0.11 7.64 2.72 10.4
5/13/2021 7:30:00 PM 13.41 56.138 0.111 7.56 2.85 10.35
5/13/2021 7:45:00 PM 13.34 56.012 0.111 7.49 2.88 10.31
5/13/2021 8:00:00 PM 13.26 55.868 0.111 7.42 2.72 10.26
5/13/2021 8:15:00 PM 13.18 55.724 0.111 7.37 2.81 10.22
5/13/2021 8:30:00 PM 13.1 55.58 0.111 7.33 2.82 10.18
5/13/2021 8:45:00 PM 13.04 55.472 0.111 7.31 2.86 10.16
5/13/2021 9:00:00 PM 12.97 55.346 0.111 7.3 2.96 10.14
5/13/2021 9:15:00 PM 12.9 55.22 0.112 7.27 3.05 10.13
5/13/2021 9:30:00 PM 12.83 55.094 0.112 7.24 3.14 10.14
5/13/2021 9:45:00 PM 12.74 54.932 0.112 7.23 3.09 10.15
5/13/2021 10:00:00 PM 12.65 54.77 0.112 7.22 3.09 10.15
5/13/2021 10:15:00 PM 12.55 54.59 0.112 7.21 3.01 10.17
5/13/2021 10:30:00 PM 12.43 54.374 0.112 7.19 3.15 10.18
5/13/2021 10:45:00 PM 12.31 54.158 0.113 7.18 3.06 10.21
5/13/2021 11:00:00 PM 12.19 53.942 0.113 7.17 3.02 10.23
5/13/2021 11:15:00 PM 12.07 53.726 0.113 7.16 3.1 10.25
5/13/2021 11:30:00 PM 11.95 53.51 0.113 7.15 2.99 10.28
5/13/2021 11:45:00 PM 11.84 53.312 0.113 7.15 3.09 10.3
5/14/2021 12:00:00 AM 11.73 53.114 0.113 7.13 3.04 10.32
5/14/2021 12:15:00 AM 11.62 52.916 0.114 7.15 3.05 10.35
5/14/2021 12:30:00 AM 11.51 52.718 0.114 7.14 2.96 10.37
5/14/2021 12:45:00 AM 11.4 52.52 0.114 7.15 3.04 10.39
5/14/2021 1:00:00 AM 11.29 52.322 0.114 7.15 3.12 10.41
5/14/2021 1:15:00 AM 11.18 52.124 0.114 7.15 3.11 10.45
5/14/2021 1:30:00 AM 11.07 51.926 0.114 7.15 3.1 10.48
5/14/2021 1:45:00 AM 10.96 51.728 0.114 7.15 3.11 10.51
5/14/2021 2:00:00 AM 10.86 51.548 0.114 7.14 3.02 10.52
5/14/2021 2:15:00 AM 10.75 51.35 0.114 7.14 3.14 10.54
5/14/2021 2:30:00 AM 10.65 51.17 0.115 7.15 2.96 10.58
5/14/2021 2:45:00 AM 10.55 50.99 0.115 7.14 3.28 10.6
5/14/2021 3:00:00 AM 10.45 50.81 0.115 7.14 3.02 10.63
5/14/2021 3:15:00 AM 10.36 50.648 0.115 7.15 2.94 10.66
5/14/2021 3:30:00 AM 10.26 50.468 0.115 7.15 2.99 10.68
5/14/2021 3:45:00 AM 10.17 50.306 0.115 7.14 3.17 10.71
5/14/2021 4:00:00 AM 10.08 50.144 0.115 7.15 2.94 10.72
5/14/2021 4:15:00 AM 9.99 49.982 0.115 7.16 3.02 10.76
5/14/2021 4:30:00 AM 9.9 49.82 0.115 7.15 2.97 10.78
5/14/2021 4:45:00 AM 9.82 49.676 0.115 7.15 3.04 10.8
5/14/2021 5:00:00 AM 9.73 49.514 0.115 7.15 2.96 10.82
5/14/2021 5:15:00 AM 9.64 49.352 0.115 7.16 3.07 10.86
5/14/2021 5:30:00 AM 9.56 49.208 0.115 7.15 2.93 10.88
5/14/2021 5:45:00 AM 9.48 49.064 0.115 7.15 2.99 10.91
5/14/2021 6:00:00 AM 9.39 48.902 0.115 7.15 3.01 10.95
5/14/2021 6:15:00 AM 9.32 48.776 0.115 7.17 2.85 11.01
5/14/2021 6:30:00 AM 9.25 48.65 0.115 7.18 2.76 11.08
5/14/2021 6:45:00 AM 9.19 48.542 0.115 7.19 2.74 11.15
5/14/2021 7:00:00 AM 9.14 48.452 0.115 7.22 2.87 11.23
5/14/2021 7:15:00 AM 9.12 48.416 0.115 7.25 2.69 11.33
5/14/2021 7:30:00 AM 9.12 48.416 0.115 7.28 2.69 11.42
5/14/2021 7:45:00 AM 9.13 48.434 0.115 7.33 2.73 11.5
5/14/2021 8:00:00 AM 9.17 48.506 0.115 7.36 2.55 11.57
5/14/2021 8:15:00 AM 9.22 48.596 0.115 7.4 2.65 11.63
5/14/2021 8:30:00 AM 9.29 48.722 0.115 7.44 2.61 11.68
5/14/2021 8:45:00 AM 9.39 48.902 0.115 7.48 2.56 11.73
5/14/2021 9:00:00 AM 9.5 49.1 0.115 7.53 2.53 11.76
5/14/2021 9:15:00 AM 9.63 49.334 0.115 7.58 2.43 11.78
5/14/2021 9:30:00 AM 9.76 49.568 0.114 7.63 2.49 11.8
5/14/2021 9:45:00 AM 9.93 49.874 0.114 7.67 2.44 11.82
5/14/2021 10:00:00 AM 10.1 50.18 0.114 7.73 2.48 11.81
5/14/2021 10:15:00 AM 10.31 50.558 0.114 7.78 2.37 11.82
5/14/2021 10:30:00 AM 10.54 50.972 0.114 7.84 2.43 11.82
5/14/2021 10:45:00 AM 10.8 51.44 0.114 7.9 2.43 11.79
5/14/2021 11:00:00 AM 11.08 51.944 0.113 7.96 2.45 11.77
5/14/2021 11:15:00 AM 11.37 52.466 0.113 8.04 2.44 11.73
5/14/2021 11:30:00 AM 11.67 53.006 0.113 8.09 2.3 11.7
5/14/2021 11:45:00 AM 11.97 53.546 0.113 8.15 2.38 11.66
5/14/2021 12:00:00 PM 12.29 54.122 0.113 8.23 2.46 11.62
5/14/2021 12:15:00 PM 12.55 54.59 0.113 8.29 2.34 11.56
5/14/2021 12:30:00 PM 12.75 54.95 0.113 8.33 2.46 11.46
5/14/2021 12:45:00 PM 12.86 55.148 0.112 8.3 2.41 11.43
5/14/2021 1:00:00 PM 12.85 55.13 0.112 8.31 2.49 11.37
5/14/2021 1:15:00 PM 12.94 55.292 0.112 8.35 2.39 11.37
5/14/2021 1:30:00 PM 13.17 55.706 0.112 8.44 2.37 11.33
5/14/2021 1:45:00 PM 13.34 56.012 0.112 8.5 2.44 11.3
5/14/2021 2:00:00 PM 13.51 56.318 0.112 8.56 2.39 11.31
5/14/2021 2:15:00 PM 13.55 56.39 0.112 8.59 2.4 11.28
5/14/2021 2:30:00 PM 13.77 56.786 0.112 8.65 2.36 11.26
5/14/2021 2:45:00 PM 14.1 57.38 0.111 8.74 2.34 11.2
5/14/2021 3:00:00 PM 14.47 58.046 0.111 8.81 2.32 11.14
5/14/2021 3:15:00 PM 14.62 58.316 0.111 8.8 2.41 11.09
5/14/2021 3:30:00 PM 14.7 58.46 0.111 8.81 2.43 11.07
5/14/2021 3:45:00 PM 14.87 58.766 0.111 8.85 2.35 11.04
5/14/2021 4:00:00 PM 15.01 59.018 0.111 8.88 2.43 10.97
5/14/2021 4:15:00 PM 14.92 58.856 0.111 8.83 2.47 10.88
5/14/2021 4:30:00 PM 14.87 58.766 0.111 8.82 2.52 10.85
5/14/2021 4:45:00 PM 14.89 58.802 0.111 8.84 2.57 10.84
5/14/2021 5:00:00 PM 14.89 58.802 0.111 8.84 2.42 10.8
5/14/2021 5:15:00 PM 14.95 58.91 0.111 8.86 2.48 10.72
5/14/2021 5:30:00 PM 14.95 58.91 0.11 8.84 2.52 10.65
5/14/2021 5:45:00 PM 14.93 58.874 0.11 8.8 2.41 10.59
5/14/2021 6:00:00 PM 14.92 58.856 0.11 8.76 2.37 10.52
5/14/2021 6:15:00 PM 14.91 58.838 0.11 8.7 2.47 10.42
5/14/2021 6:30:00 PM 14.86 58.748 0.111 8.58 2.37 10.28
5/14/2021 6:45:00 PM 14.79 58.622 0.111 8.4 2.4 10.19
5/14/2021 7:00:00 PM 14.73 58.514 0.111 8.24 2.5 10.14
5/14/2021 7:15:00 PM 14.66 58.388 0.111 8.07 2.42 10.11
5/14/2021 7:30:00 PM 14.58 58.244 0.111 7.92 2.41 10.07
5/14/2021 7:45:00 PM 14.5 58.1 0.111 7.76 2.52 10.02
5/14/2021 8:00:00 PM 14.41 57.938 0.112 7.63 2.54 9.97
5/14/2021 8:15:00 PM 14.31 57.758 0.112 7.52 2.5 9.91
5/14/2021 8:30:00 PM 14.22 57.596 0.112 7.45 2.46 9.87
5/14/2021 8:45:00 PM 14.13 57.434 0.112 7.39 2.59 9.84
5/14/2021 9:00:00 PM 14.04 57.272 0.113 7.33 2.64 9.83
5/14/2021 9:15:00 PM 13.94 57.092 0.113 7.3 2.61 9.83
5/14/2021 9:30:00 PM 13.84 56.912 0.113 7.27 2.78 9.83
5/14/2021 9:45:00 PM 13.73 56.714 0.113 7.25 16.34 9.84
5/14/2021 10:00:00 PM 13.61 56.498 0.113 7.23 2.64 9.86
5/14/2021 10:15:00 PM 13.49 56.282 0.114 7.22 2.7 9.88
5/14/2021 10:30:00 PM 13.37 56.066 0.114 7.2 2.67 9.9
5/14/2021 10:45:00 PM 13.24 55.832 0.114 7.19 2.63 9.93
5/14/2021 11:00:00 PM 13.11 55.598 0.114 7.18 2.7 9.95
5/14/2021 11:15:00 PM 12.98 55.364 0.115 7.17 2.63 9.98
5/14/2021 11:30:00 PM 12.86 55.148 0.115 7.17 2.73 10
5/14/2021 11:45:00 PM 12.74 54.932 0.115 7.17 2.67 10.03
5/15/2021 12:00:00 AM 12.62 54.716 0.115 7.16 2.75 10.05
5/15/2021 12:15:00 AM 12.51 54.518 0.115 7.16 2.67 10.08
5/15/2021 12:30:00 AM 12.4 54.32 0.116 7.16 2.72 10.11
5/15/2021 12:45:00 AM 12.3 54.14 0.116 7.15 2.69 10.12
5/15/2021 1:00:00 AM 12.19 53.942 0.116 7.15 2.69 10.15
5/15/2021 1:15:00 AM 12.09 53.762 0.116 7.16 2.82 10.18
5/15/2021 1:30:00 AM 11.98 53.564 0.116 7.15 2.65 10.2
5/15/2021 1:45:00 AM 11.87 53.366 0.116 7.15 2.67 10.23
5/15/2021 2:00:00 AM 11.77 53.186 0.117 7.15 2.65 10.26
5/15/2021 2:15:00 AM 11.66 52.988 0.117 7.15 2.63 10.28
5/15/2021 2:30:00 AM 11.55 52.79 0.117 7.14 2.81 10.31
5/15/2021 2:45:00 AM 11.44 52.592 0.117 7.15 2.66 10.33
5/15/2021 3:00:00 AM 11.34 52.412 0.117 7.14 2.62 10.36
5/15/2021 3:15:00 AM 11.23 52.214 0.117 7.14 2.67 10.38
5/15/2021 3:30:00 AM 11.12 52.016 0.118 7.14 4.38 10.41
5/15/2021 3:45:00 AM 11.02 51.836 0.118 7.15 2.73 10.45
5/15/2021 4:00:00 AM 10.92 51.656 0.118 7.15 2.71 10.47
5/15/2021 4:15:00 AM 10.82 51.476 0.118 7.15 2.66 10.49
5/15/2021 4:30:00 AM 10.72 51.296 0.118 7.16 2.7 10.52
5/15/2021 4:45:00 AM 10.63 51.134 0.118 7.15 2.75 10.56
5/15/2021 5:00:00 AM 10.53 50.954 0.118 7.15 2.82 10.57
5/15/2021 5:15:00 AM 10.45 50.81 0.118 7.16 2.75 10.6
5/15/2021 5:30:00 AM 10.36 50.648 0.118 7.15 2.75 10.63
5/15/2021 5:45:00 AM 10.28 50.504 0.119 7.16 2.54 10.66
5/15/2021 6:00:00 AM 10.2 50.36 0.119 7.16 2.54 10.71
5/15/2021 6:15:00 AM 10.13 50.234 0.119 7.18 2.55 10.77
5/15/2021 6:30:00 AM 10.06 50.108 0.119 7.21 2.57 10.84
5/15/2021 6:45:00 AM 10 50 0.119 7.21 2.58 10.93
5/15/2021 7:00:00 AM 9.96 49.928 0.119 7.25 2.49 11.02
5/15/2021 7:15:00 AM 9.94 49.892 0.119 7.29 2.54 11.14
5/15/2021 7:30:00 AM 9.95 49.91 0.119 7.33 2.56 11.23
5/15/2021 7:45:00 AM 9.97 49.946 0.119 7.38 2.42 11.33
5/15/2021 8:00:00 AM 10 50 0.119 7.41 2.33 11.41
5/15/2021 8:15:00 AM 10.06 50.108 0.119 7.46 2.3 11.47
5/15/2021 8:30:00 AM 10.11 50.198 0.119 7.51 2.48 11.53
5/15/2021 8:45:00 AM 10.2 50.36 0.119 7.56 2.41 11.58
5/15/2021 9:00:00 AM 10.31 50.558 0.119 7.62 2.36 11.62
5/15/2021 9:15:00 AM 10.45 50.81 0.119 7.66 2.27 11.65
5/15/2021 9:30:00 AM 10.58 51.044 0.119 7.72 2.37 11.67
5/15/2021 9:45:00 AM 10.73 51.314 0.119 7.78 2.3 11.69
5/15/2021 10:00:00 AM 10.91 51.638 0.119 7.83 2.32 11.69
5/15/2021 10:15:00 AM 11.12 52.016 0.118 7.9 2.23 11.7
5/15/2021 10:30:00 AM 11.35 52.43 0.118 8 2.29 11.69
5/15/2021 10:45:00 AM 11.61 52.898 0.118 8.06 2.26 11.68
5/15/2021 11:00:00 AM 11.89 53.402 0.118 8.12 2.21 11.66
5/15/2021 11:15:00 AM 12.18 53.924 0.118 8.21 2.25 11.63
5/15/2021 11:30:00 AM 12.48 54.464 0.118 8.28 2.26 11.59
5/15/2021 11:45:00 AM 12.78 55.004 0.118 8.35 2.25 11.55
5/15/2021 12:00:00 PM 13.1 55.58 0.118 8.43 2.19 11.5
5/15/2021 12:15:00 PM 13.39 56.102 0.118 8.48 2.27 11.45
5/15/2021 12:30:00 PM 13.46 56.228 0.118 8.49 2.27 11.35
5/15/2021 12:45:00 PM 13.51 56.318 0.118 8.53 2.26 11.32
5/15/2021 1:00:00 PM 13.5 56.3 0.118 8.55 2.27 11.3
5/15/2021 1:15:00 PM 13.51 56.318 0.117 8.6 2.28 11.3
5/15/2021 1:30:00 PM 13.51 56.318 0.117 8.63 2.25 11.28
5/15/2021 1:45:00 PM 13.48 56.264 0.117 8.64 2.35 11.23
5/15/2021 2:00:00 PM 13.48 56.264 0.117 8.65 2.26 11.17
5/15/2021 2:15:00 PM 13.51 56.318 0.117 8.68 2.33 11.19
5/15/2021 2:30:00 PM 13.56 56.408 0.117 8.72 2.46 11.2
5/15/2021 2:45:00 PM 13.62 56.516 0.117 8.76 2.25 11.23
5/15/2021 3:00:00 PM 13.74 56.732 0.117 8.82 2.22 11.26
5/15/2021 3:15:00 PM 13.81 56.858 0.117 8.86 2.27 11.25
5/15/2021 3:30:00 PM 13.87 56.966 0.117 8.88 2.39 11.24
5/15/2021 3:45:00 PM 13.99 57.182 0.117 8.93 2.27 11.21
5/15/2021 4:00:00 PM 14.05 57.29 0.117 8.94 2.3 11.16
5/15/2021 4:15:00 PM 14.07 57.326 0.117 8.96 2.32 11.15
5/15/2021 4:30:00 PM 14.12 57.416 0.117 8.99 2.28 11.12
5/15/2021 4:45:00 PM 14.2 57.56 0.116 8.98 2.26 11.03
5/15/2021 5:00:00 PM 14.27 57.686 0.116 8.98 2.16 10.95
5/15/2021 5:15:00 PM 14.36 57.848 0.116 9 2.24 10.93
5/15/2021 5:30:00 PM 14.47 58.046 0.116 9.01 2.24 10.89
5/15/2021 5:45:00 PM 14.57 58.226 0.116 9.01 2.24 10.85
5/15/2021 6:00:00 PM 14.59 58.262 0.116 8.98 2.19 10.74
5/15/2021 6:15:00 PM 14.57 58.226 0.116 8.95 2.23 10.66
5/15/2021 6:30:00 PM 14.56 58.208 0.116 8.92 2.23 10.63
5/15/2021 6:45:00 PM 14.57 58.226 0.116 8.88 2.37 10.56
5/15/2021 7:00:00 PM 14.58 58.244 0.116 8.83 2.2 10.48
5/15/2021 7:15:00 PM 14.6 58.28 0.116 8.78 2.27 10.38
5/15/2021 7:30:00 PM 14.62 58.316 0.116 8.67 2.3 10.23
5/15/2021 7:45:00 PM 14.63 58.334 0.116 8.53 2.29 10.09
5/15/2021 8:00:00 PM 14.64 58.352 0.116 8.35 2.39 10
5/15/2021 8:15:00 PM 14.64 58.352 0.116 8.14 2.27 9.92
5/15/2021 8:30:00 PM 14.62 58.316 0.117 7.91 2.32 9.82
5/15/2021 8:45:00 PM 14.6 58.28 0.117 7.71 2.38 9.76
5/15/2021 9:00:00 PM 14.58 58.244 0.117 7.59 2.42 9.71
5/15/2021 9:15:00 PM 14.55 58.19 0.118 7.5 2.33 9.67
5/15/2021 9:30:00 PM 14.51 58.118 0.118 7.43 2.36 9.66
5/15/2021 9:45:00 PM 14.46 58.028 0.118 7.38 2.42 9.64
5/15/2021 10:00:00 PM 14.41 57.938 0.118 7.33 2.37 9.64
5/15/2021 10:15:00 PM 14.35 57.83 0.119 7.31 2.48 9.64
5/15/2021 10:30:00 PM 14.3 57.74 0.119 7.28 2.37 9.64
5/15/2021 10:45:00 PM 14.24 57.632 0.119 7.26 2.43 9.64
5/15/2021 11:00:00 PM 14.18 57.524 0.119 7.24 2.5 9.65
5/15/2021 11:15:00 PM 14.12 57.416 0.12 7.23 2.48 9.65
5/15/2021 11:30:00 PM 14.06 57.308 0.12 7.21 2.5 9.66
5/15/2021 11:45:00 PM 14 57.2 0.12 7.21 2.45 9.67
5/16/2021 12:00:00 AM 13.94 57.092 0.12 7.2 2.48 9.68
5/16/2021 12:15:00 AM 13.88 56.984 0.12 7.18 2.5 9.7
5/16/2021 12:30:00 AM 13.82 56.876 0.121 7.18 2.47 9.71
5/16/2021 12:45:00 AM 13.76 56.768 0.121 7.17 2.54 9.72
5/16/2021 1:00:00 AM 13.7 56.66 0.121 7.18 2.52 9.74
5/16/2021 1:15:00 AM 13.64 56.552 0.121 7.17 2.51 9.75
5/16/2021 1:30:00 AM 13.57 56.426 0.121 7.16 2.61 9.76
5/16/2021 1:45:00 AM 13.5 56.3 0.121 7.16 2.52 9.78
5/16/2021 2:00:00 AM 13.44 56.192 0.122 7.16 2.57 9.8
5/16/2021 2:15:00 AM 13.38 56.084 0.122 7.15 2.57 9.82
5/16/2021 2:30:00 AM 13.32 55.976 0.122 7.16 2.54 9.83
5/16/2021 2:45:00 AM 13.27 55.886 0.122 7.16 2.49 9.85
5/16/2021 3:00:00 AM 13.21 55.778 0.123 7.16 2.53 9.86
5/16/2021 3:15:00 AM 13.14 55.652 0.123 7.15 2.52 9.88
5/16/2021 3:30:00 AM 13.08 55.544 0.123 7.16 2.56 9.89
5/16/2021 3:45:00 AM 13.02 55.436 0.123 7.16 2.43 9.91
5/16/2021 4:00:00 AM 12.95 55.31 0.123 7.15 2.45 9.93
5/16/2021 4:15:00 AM 12.89 55.202 0.123 7.16 2.5 9.94
5/16/2021 4:30:00 AM 12.82 55.076 0.124 7.17 2.55 9.96
5/16/2021 4:45:00 AM 12.74 54.932 0.124 7.15 2.46 9.98
5/16/2021 5:00:00 AM 12.66 54.788 0.124 7.16 2.47 10
5/16/2021 5:15:00 AM 12.58 54.644 0.124 7.16 2.57 10.02
5/16/2021 5:30:00 AM 12.5 54.5 0.124 7.16 2.47 10.04
5/16/2021 5:45:00 AM 12.42 54.356 0.124 7.16 2.48 10.07
5/16/2021 6:00:00 AM 12.36 54.248 0.124 7.16 2.48 10.11
5/16/2021 6:15:00 AM 12.29 54.122 0.124 7.19 2.45 10.2
5/16/2021 6:30:00 AM 12.24 54.032 0.124 7.21 2.39 10.28
5/16/2021 6:45:00 AM 12.18 53.924 0.124 7.23 2.35 10.38
5/16/2021 7:00:00 AM 12.14 53.852 0.124 7.27 2.31 10.48
5/16/2021 7:15:00 AM 12.12 53.816 0.124 7.31 2.33 10.63
5/16/2021 7:30:00 AM 12.15 53.87 0.124 7.39 2.38 10.78
5/16/2021 7:45:00 AM 12.16 53.888 0.124 7.44 2.22 10.87
5/16/2021 8:00:00 AM 12.18 53.924 0.124 7.5 2.31 10.97
5/16/2021 8:15:00 AM 12.2 53.96 0.124 7.56 2.2 11.06
5/16/2021 8:30:00 AM 12.22 53.996 0.123 7.64 2.25 11.14
5/16/2021 8:45:00 AM 12.27 54.086 0.123 7.71 2.2 11.22
5/16/2021 9:00:00 AM 12.36 54.248 0.123 7.82 2.16 11.29
5/16/2021 9:15:00 AM 12.46 54.428 0.123 7.91 2.25 11.35
5/16/2021 9:30:00 AM 12.55 54.59 0.123 8 2.2 11.39
5/16/2021 9:45:00 AM 12.67 54.806 0.123 8.1 2.25 11.43
5/16/2021 10:00:00 AM 12.78 55.004 0.122 8.18 2.32 11.45
5/16/2021 10:15:00 AM 12.88 55.184 0.122 8.26 2.11 11.45
5/16/2021 10:30:00 AM 12.99 55.382 0.122 8.35 2.18 11.46
5/16/2021 10:45:00 AM 13.06 55.508 0.122 8.41 2.11 11.45
5/16/2021 11:00:00 AM 13.1 55.58 0.122 8.44 2.13 11.4
5/16/2021 11:15:00 AM 13.15 55.67 0.121 8.5 2.17 11.41
5/16/2021 11:30:00 AM 13.26 55.868 0.121 8.58 5.77 11.45
5/16/2021 11:45:00 AM 13.4 56.12 0.121 8.65 2.26 11.47
5/16/2021 12:00:00 PM 13.56 56.408 0.121 8.73 2.18 11.47
5/16/2021 12:15:00 PM 13.77 56.786 0.121 8.79 2.22 11.45
5/16/2021 12:30:00 PM 13.99 57.182 0.121 8.86 2.21 11.44
5/16/2021 12:45:00 PM 14.26 57.668 0.121 8.92 2.18 11.4
5/16/2021 1:00:00 PM 14.51 58.118 0.12 8.98 2.14 11.35
5/16/2021 1:15:00 PM 14.75 58.55 0.12 9.01 2.18 11.31
5/16/2021 1:30:00 PM 15.02 59.036 0.12 9.05 2.19 11.25
5/16/2021 1:45:00 PM 15.24 59.432 0.12 9.07 2.16 11.2
5/16/2021 2:00:00 PM 15.45 59.81 0.12 9.11 2.12 11.13
5/16/2021 2:15:00 PM 15.64 60.152 0.12 9.14 2.2 11.08
5/16/2021 2:30:00 PM 15.81 60.458 0.12 9.14 2.37 11.02
5/16/2021 2:45:00 PM 15.96 60.728 0.12 9.18 2.4 11.01
5/16/2021 3:00:00 PM 16.09 60.962 0.12 9.21 2.21 10.95
5/16/2021 3:15:00 PM 16.14 61.052 0.12 9.2 2.16 10.86
5/16/2021 3:30:00 PM 16.03 60.854 0.119 9.15 2.29 10.6
5/16/2021 3:45:00 PM 15.9 60.62 0.119 9.06 2.15 10.37
5/16/2021 4:00:00 PM 15.77 60.386 0.119 9 2.37 10.26
5/16/2021 4:15:00 PM 15.66 60.188 0.119 8.94 2.34 10.24
5/16/2021 4:30:00 PM 15.63 60.134 0.119 8.92 2.32 10.34
5/16/2021 4:45:00 PM 15.62 60.116 0.119 8.91 2.26 10.34
5/16/2021 5:00:00 PM 15.61 60.098 0.118 8.91 2.33 10.29
5/16/2021 5:15:00 PM 15.56 60.008 0.118 8.86 2.27 10.23
5/16/2021 5:30:00 PM 15.5 59.9 0.118 8.79 2.17 10.13
5/16/2021 5:45:00 PM 15.43 59.774 0.118 8.69 2.24 10.03
5/16/2021 6:00:00 PM 15.36 59.648 0.118 8.57 2.29 9.96
5/16/2021 6:15:00 PM 15.28 59.504 0.118 8.42 2.37 9.87
5/16/2021 6:30:00 PM 15.23 59.414 0.119 8.23 2.22 9.8
5/16/2021 6:45:00 PM 15.18 59.324 0.119 8.05 2.21 9.77
5/16/2021 7:00:00 PM 15.14 59.252 0.119 7.88 2.36 9.75
5/16/2021 7:15:00 PM 15.1 59.18 0.119 7.74 2.28 9.7
5/16/2021 7:30:00 PM 15.06 59.108 0.119 7.64 2.44 9.65
5/16/2021 7:45:00 PM 15.03 59.054 0.12 7.55 2.39 9.61
5/16/2021 8:00:00 PM 14.98 58.964 0.12 7.48 2.29 9.58
5/16/2021 8:15:00 PM 14.94 58.892 0.12 7.41 2.27 9.55
5/16/2021 8:30:00 PM 14.9 58.82 0.12 7.38 2.32 9.52
5/16/2021 8:45:00 PM 14.86 58.748 0.12 7.35 2.32 9.5
5/16/2021 9:00:00 PM 14.82 58.676 0.12 7.31 2.31 9.5
5/16/2021 9:15:00 PM 14.78 58.604 0.121 7.3 2.38 9.5
5/16/2021 9:30:00 PM 14.73 58.514 0.121 7.27 2.42 9.5
5/16/2021 9:45:00 PM 14.67 58.406 0.121 7.26 2.38 9.5
5/16/2021 10:00:00 PM 14.61 58.298 0.121 7.25 2.39 9.52
5/16/2021 10:15:00 PM 14.54 58.172 0.121 7.22 2.43 9.52
5/16/2021 10:30:00 PM 14.47 58.046 0.121 7.21 2.44 9.53
5/16/2021 10:45:00 PM 14.4 57.92 0.121 7.21 2.39 9.55
5/16/2021 11:00:00 PM 14.33 57.794 0.122 7.2 2.43 9.57
5/16/2021 11:15:00 PM 14.25 57.65 0.122 7.19 2.37 9.58
5/16/2021 11:30:00 PM 14.17 57.506 0.122 7.19 2.48 9.59
5/16/2021 11:45:00 PM 14.09 57.362 0.122 7.17 2.49 9.62
5/17/2021 12:00:00 AM 14.01 57.218 0.122 7.17 2.45 9.64
5/17/2021 12:15:00 AM 13.93 57.074 0.122 7.17 2.44 9.66
5/17/2021 12:30:00 AM 13.84 56.912 0.123 7.17 2.39 9.67
5/17/2021 12:45:00 AM 13.76 56.768 0.123 7.17 2.4 9.7
5/17/2021 1:00:00 AM 13.68 56.624 0.123 7.16 2.44 9.71
5/17/2021 1:15:00 AM 13.6 56.48 0.123 7.16 2.44 9.74
5/17/2021 1:30:00 AM 13.51 56.318 0.123 7.15 2.54 9.76
5/17/2021 1:45:00 AM 13.43 56.174 0.124 7.16 2.44 9.78
5/17/2021 2:00:00 AM 13.36 56.048 0.124 7.15 2.65 9.8
5/17/2021 2:15:00 AM 13.28 55.904 0.124 7.16 2.55 9.82
5/17/2021 2:30:00 AM 13.21 55.778 0.124 7.17 2.53 9.84
5/17/2021 2:45:00 AM 13.13 55.634 0.124 7.16 2.38 9.86
5/17/2021 3:00:00 AM 13.04 55.472 0.124 7.16 2.45 9.89
5/17/2021 3:15:00 AM 12.95 55.31 0.125 7.15 2.47 9.91
5/17/2021 3:30:00 AM 12.87 55.166 0.125 7.16 2.51 9.94
5/17/2021 3:45:00 AM 12.78 55.004 0.125 7.16 2.51 9.95
5/17/2021 4:00:00 AM 12.69 54.842 0.125 7.17 2.46 9.98
5/17/2021 4:15:00 AM 12.6 54.68 0.125 7.16 2.48 10
5/17/2021 4:30:00 AM 12.52 54.536 0.125 7.16 2.44 10.02
5/17/2021 4:45:00 AM 12.43 54.374 0.125 7.16 2.64 10.05
5/17/2021 5:00:00 AM 12.35 54.23 0.125 7.15 2.52 10.07
5/17/2021 5:15:00 AM 12.28 54.104 0.125 7.16 2.53 10.09
5/17/2021 5:30:00 AM 12.2 53.96 0.125 7.17 2.51 10.11
5/17/2021 5:45:00 AM 12.12 53.816 0.125 7.19 2.4 10.15
5/17/2021 6:00:00 AM 12.05 53.69 0.125 7.18 2.38 10.19
5/17/2021 6:15:00 AM 11.99 53.582 0.125 7.19 2.33 10.25
5/17/2021 6:30:00 AM 11.94 53.492 0.125 7.21 2.29 10.34
5/17/2021 6:45:00 AM 11.89 53.402 0.125 7.24 2.31 10.44
5/17/2021 7:00:00 AM 11.84 53.312 0.125 7.27 2.25 10.56
5/17/2021 7:15:00 AM 11.81 53.258 0.125 7.32 2.25 10.7
5/17/2021 7:30:00 AM 11.8 53.24 0.125 7.37 2.34 10.81
5/17/2021 7:45:00 AM 11.82 53.276 0.125 7.44 2.26 10.92
5/17/2021 8:00:00 AM 11.87 53.366 0.125 7.48 2.19 11.01
5/17/2021 8:15:00 AM 11.93 53.474 0.125 7.53 2.16 11.09
5/17/2021 8:30:00 AM 11.99 53.582 0.125 7.59 2.1 11.16
5/17/2021 8:45:00 AM 12.07 53.726 0.125 7.65 2.19 11.21
5/17/2021 9:00:00 AM 12.16 53.888 0.124 7.71 2.24 11.26
5/17/2021 9:15:00 AM 12.27 54.086 0.124 7.77 2.22 11.29
5/17/2021 9:30:00 AM 12.39 54.302 0.124 7.82 2.24 11.3
5/17/2021 9:45:00 AM 12.55 54.59 0.124 7.9 2.19 11.33
5/17/2021 10:00:00 AM 12.7 54.86 0.124 7.97 2.13 11.34
5/17/2021 10:15:00 AM 12.89 55.202 0.124 8.04 2.2 11.36
5/17/2021 10:30:00 AM 13.11 55.598 0.123 8.12 2.25 11.34
5/17/2021 10:45:00 AM 13.36 56.048 0.123 8.19 2.23 11.34
5/17/2021 11:00:00 AM 13.63 56.534 0.123 8.26 2.11 11.33
5/17/2021 11:15:00 AM 13.91 57.038 0.123 8.35 2.17 11.28
5/17/2021 11:30:00 AM 14.2 57.56 0.122 8.43 2.14 11.26
5/17/2021 11:45:00 AM 14.53 58.154 0.122 8.5 2.13 11.23
5/17/2021 12:00:00 PM 14.82 58.676 0.122 8.58 2.18 11.16
5/17/2021 12:15:00 PM 15.12 59.216 0.122 8.64 2.29 11.13
5/17/2021 12:30:00 PM 15.45 59.81 0.122 8.71 2.22 11.07
5/17/2021 12:45:00 PM 15.77 60.386 0.121 8.77 2.14 11.01
5/17/2021 1:00:00 PM 16.07 60.926 0.121 8.82 2.2 10.95
5/17/2021 1:15:00 PM 16.35 61.43 0.121 8.87 2.14 10.89
5/17/2021 1:30:00 PM 16.56 61.808 0.121 8.89 2.26 10.83
5/17/2021 1:45:00 PM 16.72 62.096 0.121 8.92 2.18 10.77
5/17/2021 2:00:00 PM 16.84 62.312 0.121 8.92 2.13 10.7
5/17/2021 2:15:00 PM 17.04 62.672 0.121 8.96 2.12 10.61
5/17/2021 2:30:00 PM 17.07 62.726 0.121 8.95 2.73 10.51
5/17/2021 2:45:00 PM 17.18 62.924 0.121 8.97 2.28 10.52
5/17/2021 3:00:00 PM 17.36 63.248 0.121 9 2.2 10.48
5/17/2021 3:15:00 PM 17.52 63.536 0.121 9.03 2.15 10.45
5/17/2021 3:30:00 PM 17.6 63.68 0.121 9.04 2.26 10.4
5/17/2021 3:45:00 PM 17.79 64.022 0.121 9.08 2.13 10.39
5/17/2021 4:00:00 PM 17.89 64.202 0.12 9.08 2.14 10.33
5/17/2021 4:15:00 PM 17.97 64.346 0.12 9.09 2.18 10.29
5/17/2021 4:30:00 PM 17.91 64.238 0.12 9.06 2.13 10.22
5/17/2021 4:45:00 PM 17.99 64.382 0.12 9.09 2.15 10.23
5/17/2021 5:00:00 PM 18.02 64.436 0.12 9.09 2.37 10.16
5/17/2021 5:15:00 PM 17.99 64.382 0.12 9.07 2.15 10.09
5/17/2021 5:30:00 PM 17.9 64.22 0.12 9.03 2.2 10.03
5/17/2021 5:45:00 PM 17.8 64.04 0.12 8.99 2.26 9.97
5/17/2021 6:00:00 PM 17.7 63.86 0.119 8.94 2.22 9.89
5/17/2021 6:15:00 PM 17.61 63.698 0.119 8.91 2.2 9.82
5/17/2021 6:30:00 PM 17.54 63.572 0.119 8.86 2.21 9.76
5/17/2021 6:45:00 PM 17.48 63.464 0.119 8.81 2.25 9.67
5/17/2021 7:00:00 PM 17.41 63.338 0.119 8.73 2.23 9.59
5/17/2021 7:15:00 PM 17.36 63.248 0.119 8.63 2.28 9.53
5/17/2021 7:30:00 PM 17.32 63.176 0.119 8.54 2.2 9.49
5/17/2021 7:45:00 PM 17.27 63.086 0.119 8.41 2.22 9.41
5/17/2021 8:00:00 PM 17.21 62.978 0.119 8.21 2.26 9.34
5/17/2021 8:15:00 PM 17.12 62.816 0.119 7.98 2.24 9.25
5/17/2021 8:30:00 PM 17.05 62.69 0.12 7.76 2.23 9.18
5/17/2021 8:45:00 PM 16.98 62.564 0.12 7.6 2.3 9.12
5/17/2021 9:00:00 PM 16.92 62.456 0.12 7.51 2.28 9.08
5/17/2021 9:15:00 PM 16.85 62.33 0.12 7.44 2.56 9.06
5/17/2021 9:30:00 PM 16.78 62.204 0.121 7.39 2.38 9.05
5/17/2021 9:45:00 PM 16.71 62.078 0.121 7.34 2.4 9.05
5/17/2021 10:00:00 PM 16.63 61.934 0.121 7.3 2.27 9.06
5/17/2021 10:15:00 PM 16.54 61.772 0.121 7.27 2.32 9.06
5/17/2021 10:30:00 PM 16.46 61.628 0.122 7.26 2.42 9.07
5/17/2021 10:45:00 PM 16.37 61.466 0.122 7.23 2.37 9.09
5/17/2021 11:00:00 PM 16.28 61.304 0.122 7.24 2.38 9.11
5/17/2021 11:15:00 PM 16.17 61.106 0.123 7.22 2.47 9.13
5/17/2021 11:30:00 PM 16.07 60.926 0.123 7.23 2.39 9.16
5/17/2021 11:45:00 PM 15.96 60.728 0.123 7.21 2.41 9.17
5/18/2021 12:00:00 AM 15.85 60.53 0.124 7.19 2.42 9.18
5/18/2021 12:15:00 AM 15.73 60.314 0.124 7.21 2.43 9.23
5/18/2021 12:30:00 AM 15.61 60.098 0.124 7.17 2.46 9.26
5/18/2021 12:45:00 AM 15.49 59.882 0.125 7.17 2.49 9.28
5/18/2021 1:00:00 AM 15.37 59.666 0.125 7.17 2.44 9.31
5/18/2021 1:15:00 AM 15.25 59.45 0.125 7.19 2.38 9.34
5/18/2021 1:30:00 AM 15.14 59.252 0.125 7.16 2.36 9.37
5/18/2021 1:45:00 AM 15.02 59.036 0.125 7.17 2.44 9.4
5/18/2021 2:00:00 AM 14.91 58.838 0.125 7.16 2.42 9.42
5/18/2021 2:15:00 AM 14.8 58.64 0.125 7.18 2.43 9.45
5/18/2021 2:30:00 AM 14.69 58.442 0.125 7.15 2.46 9.47
5/18/2021 2:45:00 AM 14.58 58.244 0.125 7.19 2.35 9.5
5/18/2021 3:00:00 AM 14.48 58.064 0.125 7.15 2.4 9.53
5/18/2021 3:15:00 AM 14.37 57.866 0.125 7.16 2.4 9.56
5/18/2021 3:30:00 AM 14.26 57.668 0.126 7.16 2.73 9.58
5/18/2021 3:45:00 AM 14.16 57.488 0.126 7.17 2.6 9.61
5/18/2021 4:00:00 AM 14.05 57.29 0.126 7.18 2.38 9.64
5/18/2021 4:15:00 AM 13.95 57.11 0.126 7.16 2.44 9.67
5/18/2021 4:30:00 AM 13.85 56.93 0.126 7.15 2.49 9.69
5/18/2021 4:45:00 AM 13.74 56.732 0.126 7.16 2.48 9.72
5/18/2021 5:00:00 AM 13.64 56.552 0.126 7.17 2.51 9.75
5/18/2021 5:15:00 AM 13.54 56.372 0.126 7.18 2.53 9.78
5/18/2021 5:30:00 AM 13.44 56.192 0.126 7.18 2.38 9.8
5/18/2021 5:45:00 AM 13.34 56.012 0.126 7.19 2.7 9.84
5/18/2021 6:00:00 AM 13.24 55.832 0.127 7.19 2.35 9.9
5/18/2021 6:15:00 AM 13.15 55.67 0.127 7.22 2.3 9.96
5/18/2021 6:30:00 AM 13.07 55.526 0.127 7.22 2.27 10.04
5/18/2021 6:45:00 AM 12.99 55.382 0.127 7.23 2.38 10.13
5/18/2021 7:00:00 AM 12.93 55.274 0.127 7.29 2.23 10.23
5/18/2021 7:15:00 AM 12.9 55.22 0.126 7.33 2.28 10.36
5/18/2021 7:30:00 AM 12.89 55.202 0.126 7.37 2.25 10.48
5/18/2021 7:45:00 AM 12.9 55.22 0.126 7.41 2.23 10.59
5/18/2021 8:00:00 AM 12.94 55.292 0.126 7.49 2.39 10.69
5/18/2021 8:15:00 AM 12.99 55.382 0.126 7.53 4.01 10.77
5/18/2021 8:30:00 AM 13.05 55.49 0.126 7.6 4.21 10.83
5/18/2021 8:45:00 AM 13.14 55.652 0.126 7.66 2.35 10.9
5/18/2021 9:00:00 AM 13.25 55.85 0.126 7.71 2.14 10.95
5/18/2021 9:15:00 AM 13.38 56.084 0.126 7.78 2.13 10.99
5/18/2021 9:30:00 AM 13.52 56.336 0.126 7.85 2.25 11.01
5/18/2021 9:45:00 AM 13.67 56.606 0.126 7.9 2.09 11.03
5/18/2021 10:00:00 AM 13.85 56.93 0.125 7.99 2.09 11.05
5/18/2021 10:15:00 AM 14.04 57.272 0.125 8.06 2.26 11.05
5/18/2021 10:30:00 AM 14.26 57.668 0.125 8.13 2.07 11.05
5/18/2021 10:45:00 AM 14.51 58.118 0.125 8.22 2.14 11.04
5/18/2021 11:00:00 AM 14.78 58.604 0.125 8.29 2.11 11.02
5/18/2021 11:15:00 AM 15.05 59.09 0.124 8.36 2.1 10.98
5/18/2021 11:30:00 AM 15.36 59.648 0.124 8.44 2.06 10.95
5/18/2021 11:45:00 AM 15.66 60.188 0.124 8.53 2.56 10.92
5/18/2021 12:00:00 PM 15.98 60.764 0.124 8.6 2.02 10.87
5/18/2021 12:15:00 PM 16.3 61.34 0.124 8.67 2.09 10.82
5/18/2021 12:30:00 PM 16.62 61.916 0.123 8.74 2.15 10.78
5/18/2021 12:45:00 PM 16.94 62.492 0.123 8.8 1.99 10.73
5/18/2021 1:00:00 PM 17.24 63.032 0.123 8.83 2.1 10.62
5/18/2021 1:15:00 PM 17.6 63.68 0.124 8.9 2.28 10.61
5/18/2021 1:30:00 PM 17.87 64.166 0.123 8.93 5.28 10.55
5/18/2021 1:45:00 PM 18.16 64.688 0.123 9 2.17 10.5
5/18/2021 2:00:00 PM 18.42 65.156 0.123 9.04 1.97 10.44
5/18/2021 2:15:00 PM 18.66 65.588 0.123 9.08 2.21 10.39
5/18/2021 2:30:00 PM 18.65 65.57 0.123 9.07 2.02 10.21
5/18/2021 2:45:00 PM 18.76 65.768 0.123 9.07 2.11 10.17
5/18/2021 3:00:00 PM 18.85 65.93 0.123 9.09 3.54 10.12
5/18/2021 3:15:00 PM 18.97 66.146 0.123 9.12 2.06 10.03
5/18/2021 3:30:00 PM 19.09 66.362 0.123 9.12 2.04 10.06
5/18/2021 3:45:00 PM 19.15 66.47 0.123 9.12 2.04 10.01
5/18/2021 4:00:00 PM 19.27 66.686 0.123 9.14 2.14 9.96
5/18/2021 4:15:00 PM 19.35 66.83 0.123 9.15 2.06 9.95
5/18/2021 4:30:00 PM 19.38 66.884 0.123 9.15 2.19 9.9
5/18/2021 4:45:00 PM 19.37 66.866 0.123 9.12 2.09 9.84
5/18/2021 5:00:00 PM 19.3 66.74 0.122 9.09 2.05 9.79
5/18/2021 5:15:00 PM 19.23 66.614 0.122 9.06 2.03 9.74
5/18/2021 5:30:00 PM 19.11 66.398 0.122 9.02 2.07 9.7
5/18/2021 5:45:00 PM 18.97 66.146 0.122 8.98 2.08 9.65
5/18/2021 6:00:00 PM 18.83 65.894 0.122 8.92 2.09 9.59
5/18/2021 6:15:00 PM 18.68 65.624 0.122 8.87 2.08 9.55
5/18/2021 6:30:00 PM 18.53 65.354 0.122 8.76 2.06 9.49
5/18/2021 6:45:00 PM 18.4 65.12 0.122 8.68 2.04 9.42
5/18/2021 7:00:00 PM 18.27 64.886 0.122 8.57 2.11 9.35
5/18/2021 7:15:00 PM 18.15 64.67 0.122 8.45 2.15 9.3
5/18/2021 7:30:00 PM 18.04 64.472 0.122 8.29 2.12 9.24
5/18/2021 7:45:00 PM 17.94 64.292 0.122 8.09 2.01 9.18
5/18/2021 8:00:00 PM 17.85 64.13 0.122 7.89 2.1 9.12
5/18/2021 8:15:00 PM 17.75 63.95 0.123 7.71 2.11 9.06
5/18/2021 8:30:00 PM 17.66 63.788 0.123 7.59 2.13 9.01
5/18/2021 8:45:00 PM 17.57 63.626 0.123 7.49 2.24 8.97
5/18/2021 9:00:00 PM 17.49 63.482 0.123 7.43 2.22 8.94
5/18/2021 9:15:00 PM 17.41 63.338 0.123 7.38 2.23 8.93
5/18/2021 9:30:00 PM 17.34 63.212 0.124 7.36 2.24 8.92
5/18/2021 9:45:00 PM 17.27 63.086 0.124 7.34 2.18 8.92
5/18/2021 10:00:00 PM 17.21 62.978 0.124 7.31 2.61 8.92
5/18/2021 10:15:00 PM 17.14 62.852 0.124 7.3 2.21 8.93
5/18/2021 10:30:00 PM 17.08 62.744 0.124 7.29 2.3 8.93
5/18/2021 10:45:00 PM 17.02 62.636 0.124 7.25 2.31 8.94
5/18/2021 11:00:00 PM 16.95 62.51 0.124 7.25 2.88 8.95
5/18/2021 11:15:00 PM 16.88 62.384 0.125 7.24 2.34 8.97
5/18/2021 11:30:00 PM 16.81 62.258 0.125 7.23 2.46 8.98
5/18/2021 11:45:00 PM 16.73 62.114 0.125 7.23 2.4 9
5/19/2021 12:00:00 AM 16.65 61.97 0.125 7.21 2.3 9.01
5/19/2021 12:15:00 AM 16.56 61.808 0.125 7.21 2.21 9.03
5/19/2021 12:30:00 AM 16.47 61.646 0.125 7.21 2.25 9.05
5/19/2021 12:45:00 AM 16.37 61.466 0.126 7.21 2.35 9.07
5/19/2021 1:00:00 AM 16.27 61.286 0.126 7.2 3.77 9.09
5/19/2021 1:15:00 AM 16.17 61.106 0.126 7.21 2.33 9.11
5/19/2021 1:30:00 AM 16.08 60.944 0.126 7.2 2.39 9.14
5/19/2021 1:45:00 AM 15.98 60.764 0.126 7.21 2.32 9.17
5/19/2021 2:00:00 AM 15.88 60.584 0.126 7.19 2.36 9.18
5/19/2021 2:15:00 AM 15.78 60.404 0.126 7.19 2.4 9.21
5/19/2021 2:30:00 AM 15.69 60.242 0.127 7.18 2.37 9.23
5/19/2021 2:45:00 AM 15.59 60.062 0.127 7.18 2.37 9.26
5/19/2021 3:00:00 AM 15.5 59.9 0.127 7.19 2.38 9.28
5/19/2021 3:15:00 AM 15.4 59.72 0.127 7.19 2.28 9.3
5/19/2021 3:30:00 AM 15.31 59.558 0.127 7.18 2.31 9.33
5/19/2021 3:45:00 AM 15.21 59.378 0.127 7.18 2.45 9.35
5/19/2021 4:00:00 AM 15.12 59.216 0.127 7.19 2.42 9.38
5/19/2021 4:15:00 AM 15.03 59.054 0.127 7.18 2.35 9.4
5/19/2021 4:30:00 AM 14.94 58.892 0.127 7.19 2.28 9.42
5/19/2021 4:45:00 AM 14.84 58.712 0.128 7.2 2.32 9.45
5/19/2021 5:00:00 AM 14.75 58.55 0.128 7.19 2.43 9.47
5/19/2021 5:15:00 AM 14.66 58.388 0.128 7.19 2.27 9.5
5/19/2021 5:30:00 AM 14.57 58.226 0.128 7.18 2.35 9.52
5/19/2021 5:45:00 AM 14.48 58.064 0.128 7.2 2.32 9.56
5/19/2021 6:00:00 AM 14.39 57.902 0.128 7.19 2.45 9.61
5/19/2021 6:15:00 AM 14.32 57.776 0.128 7.21 2.26 9.67
5/19/2021 6:30:00 AM 14.24 57.632 0.129 7.24 2.36 9.75
5/19/2021 6:45:00 AM 14.18 57.524 0.129 7.26 2.24 9.84
5/19/2021 7:00:00 AM 14.13 57.434 0.129 7.3 2.27 9.95
5/19/2021 7:15:00 AM 14.11 57.398 0.129 7.33 2.3 10.07
5/19/2021 7:30:00 AM 14.11 57.398 0.129 7.38 2.17 10.2
5/19/2021 7:45:00 AM 14.13 57.434 0.128 7.44 2.25 10.31
5/19/2021 8:00:00 AM 14.18 57.524 0.128 7.49 2.23 10.4
5/19/2021 8:15:00 AM 14.25 57.65 0.128 7.55 2.11 10.49
5/19/2021 8:30:00 AM 14.33 57.794 0.128 7.63 2.15 10.55
5/19/2021 8:45:00 AM 14.42 57.956 0.128 7.69 2.06 10.61
5/19/2021 9:00:00 AM 14.54 58.172 0.128 7.76 2.11 10.65
5/19/2021 9:15:00 AM 14.67 58.406 0.128 7.81 2.3 10.7
5/19/2021 9:30:00 AM 14.81 58.658 0.128 7.89 2.09 10.72
5/19/2021 9:45:00 AM 14.97 58.946 0.128 7.96 2.04 10.74
5/19/2021 10:00:00 AM 15.15 59.27 0.128 8.03 2.02 10.76
5/19/2021 10:15:00 AM 15.36 59.648 0.128 8.1 1.98 10.76
5/19/2021 10:30:00 AM 15.59 60.062 0.128 8.18 2.06 10.76
5/19/2021 10:45:00 AM 15.84 60.512 0.127 8.24 2.04 10.76
5/19/2021 11:00:00 AM 16.1 60.98 0.127 8.32 2.02 10.74
5/19/2021 11:15:00 AM 16.38 61.484 0.127 8.39 2.01 10.71
5/19/2021 11:30:00 AM 16.68 62.024 0.127 8.47 2.01 10.67
5/19/2021 11:45:00 AM 16.99 62.582 0.126 8.54 2.02 10.64
5/19/2021 12:00:00 PM 17.31 63.158 0.126 8.61 2.03 10.59
5/19/2021 12:15:00 PM 17.63 63.734 0.126 8.66 1.95 10.54
5/19/2021 12:30:00 PM 17.97 64.346 0.126 8.74 2 10.49
5/19/2021 12:45:00 PM 18.3 64.94 0.125 8.8 2.05 10.43
5/19/2021 1:00:00 PM 18.64 65.552 0.125 8.86 2.09 10.38
5/19/2021 1:15:00 PM 18.96 66.128 0.125 8.91 2.14 10.31
5/19/2021 1:30:00 PM 19.27 66.686 0.125 8.95 2.01 10.24
5/19/2021 1:45:00 PM 19.56 67.208 0.125 8.98 2.03 10.17
5/19/2021 2:00:00 PM 19.81 67.658 0.125 9.02 2.15 10.1
5/19/2021 2:15:00 PM 20.07 68.126 0.125 9.05 2.38 10.04
5/19/2021 2:30:00 PM 20.31 68.558 0.125 9.09 1.91 9.96
5/19/2021 2:45:00 PM 20.51 68.918 0.125 9.11 2.02 9.9
5/19/2021 3:00:00 PM 20.68 69.224 0.125 9.12 2.03 9.84
5/19/2021 3:15:00 PM 20.84 69.512 0.125 9.13 2.02 9.78
5/19/2021 3:30:00 PM 20.96 69.728 0.125 9.15 1.97 9.72
5/19/2021 3:45:00 PM 21.05 69.89 0.125 9.14 2.04 9.67
5/19/2021 4:00:00 PM 21.1 69.98 0.125 9.14 2.01 9.64
5/19/2021 4:15:00 PM 21.1 69.98 0.125 9.12 1.97 9.64
5/19/2021 4:30:00 PM 21.07 69.926 0.124 9.1 2.1 9.61
5/19/2021 4:45:00 PM 21.03 69.854 0.124 9.09 2.03 9.57
5/19/2021 5:00:00 PM 20.97 69.746 0.124 9.07 1.95 9.53
5/19/2021 5:15:00 PM 20.87 69.566 0.124 9.06 1.98 9.48
5/19/2021 5:30:00 PM 20.77 69.386 0.124 9.01 2.05 9.45
5/19/2021 5:45:00 PM 20.64 69.152 0.124 8.99 1.97 9.39
5/19/2021 6:00:00 PM 20.48 68.864 0.124 8.93 2.08 9.35
5/19/2021 6:15:00 PM 20.34 68.612 0.124 8.87 2.06 9.33
5/19/2021 6:30:00 PM 20.22 68.396 0.124 8.83 2.06 9.29
5/19/2021 6:45:00 PM 20.12 68.216 0.124 8.78 2.08 9.24
5/19/2021 7:00:00 PM 20.02 68.036 0.124 8.73 2.06 9.22
5/19/2021 7:15:00 PM 19.95 67.91 0.123 8.68 2.07 9.17
5/19/2021 7:30:00 PM 19.86 67.748 0.123 8.58 2.15 9.08
5/19/2021 7:45:00 PM 19.76 67.568 0.123 8.47 2.21 8.97
5/19/2021 8:00:00 PM 19.66 67.388 0.123 8.28 2.05 8.85
5/19/2021 8:15:00 PM 19.56 67.208 0.124 8.04 2.1 8.75
5/19/2021 8:30:00 PM 19.48 67.064 0.124 7.8 2.15 8.67
5/19/2021 8:45:00 PM 19.39 66.902 0.124 7.64 2.28 8.62
5/19/2021 9:00:00 PM 19.31 66.758 0.124 7.54 2.3 8.58
5/19/2021 9:15:00 PM 19.25 66.65 0.124 7.48 2.21 8.55
5/19/2021 9:30:00 PM 19.18 66.524 0.125 7.45 2.37 8.53
5/19/2021 9:45:00 PM 19.12 66.416 0.125 7.4 2.35 8.53
5/19/2021 10:00:00 PM 19.07 66.326 0.125 7.38 2.64 8.52
5/19/2021 10:15:00 PM 19.01 66.218 0.125 7.35 2.37 8.52
5/19/2021 10:30:00 PM 18.96 66.128 0.125 7.33 2.29 8.52
5/19/2021 10:45:00 PM 18.91 66.038 0.126 7.33 2.25 8.53
5/19/2021 11:00:00 PM 18.85 65.93 0.126 7.32 2.32 8.53
5/19/2021 11:15:00 PM 18.78 65.804 0.126 7.3 2.3 8.54
5/19/2021 11:30:00 PM 18.7 65.66 0.126 7.28 2.21 8.56
5/19/2021 11:45:00 PM 18.63 65.534 0.126 7.26 2.24 8.58
5/20/2021 12:00:00 AM 18.55 65.39 0.127 7.24 2.21 8.6
5/20/2021 12:15:00 AM 18.46 65.228 0.127 7.25 2.3 8.61
5/20/2021 12:30:00 AM 18.38 65.084 0.127 7.23 2.4 8.63
5/20/2021 12:45:00 AM 18.29 64.922 0.127 7.22 2.28 8.64
5/20/2021 1:00:00 AM 18.2 64.76 0.127 7.21 2.25 8.66
5/20/2021 1:15:00 AM 18.11 64.598 0.127 7.23 2.24 8.68
5/20/2021 1:30:00 AM 18.02 64.436 0.128 7.21 2.28 8.7
5/20/2021 1:45:00 AM 17.93 64.274 0.128 7.2 2.35 8.72
5/20/2021 2:00:00 AM 17.83 64.094 0.128 7.2 2.24 8.74
5/20/2021 2:15:00 AM 17.74 63.932 0.128 7.2 2.39 8.76
5/20/2021 2:30:00 AM 17.64 63.752 0.128 7.2 2.26 8.78
5/20/2021 2:45:00 AM 17.55 63.59 0.129 7.2 2.38 8.8
5/20/2021 3:00:00 AM 17.46 63.428 0.129 7.18 2.27 8.83
5/20/2021 3:15:00 AM 17.37 63.266 0.129 7.2 2.3 8.85
5/20/2021 3:30:00 AM 17.28 63.104 0.129 7.19 2.25 8.88
5/20/2021 3:45:00 AM 17.2 62.96 0.129 7.19 2.25 8.89
5/20/2021 4:00:00 AM 17.12 62.816 0.129 7.2 2.32 8.92
5/20/2021 4:15:00 AM 17.04 62.672 0.13 7.19 2.43 8.94
5/20/2021 4:30:00 AM 16.96 62.528 0.13 7.2 2.34 8.96
5/20/2021 4:45:00 AM 16.88 62.384 0.13 7.2 2.43 8.97
5/20/2021 5:00:00 AM 16.8 62.24 0.13 7.2 2.36 9
5/20/2021 5:15:00 AM 16.72 62.096 0.13 7.21 2.33 9.01
5/20/2021 5:30:00 AM 16.65 61.97 0.13 7.21 2.28 9.04
5/20/2021 5:45:00 AM 16.57 61.826 0.131 7.21 2.29 9.07
5/20/2021 6:00:00 AM 16.49 61.682 0.131 7.2 2.31 9.1
5/20/2021 6:15:00 AM 16.41 61.538 0.131 7.22 2.29 9.16
5/20/2021 6:30:00 AM 16.33 61.394 0.131 7.22 2.24 9.23
5/20/2021 6:45:00 AM 16.27 61.286 0.131 7.25 2.14 9.31
5/20/2021 7:00:00 AM 16.21 61.178 0.131 7.27 2.15 9.41
5/20/2021 7:15:00 AM 16.17 61.106 0.132 7.31 2.3 9.52
5/20/2021 7:30:00 AM 16.18 61.124 0.131 7.34 2.12 9.7
5/20/2021 7:45:00 AM 16.22 61.196 0.131 7.43 2.1 9.83
5/20/2021 8:00:00 AM 16.27 61.286 0.131 7.48 2.04 9.93
5/20/2021 8:15:00 AM 16.37 61.466 0.132 7.56 2.02 10.03
5/20/2021 8:30:00 AM 16.45 61.61 0.132 7.62 2.01 10.12
5/20/2021 8:45:00 AM 16.55 61.79 0.132 7.68 2.01 10.18
5/20/2021 9:00:00 AM 16.66 61.988 0.132 7.75 2 10.23
5/20/2021 9:15:00 AM 16.81 62.258 0.132 7.84 2.03 10.27
5/20/2021 9:30:00 AM 16.95 62.51 0.132 7.9 1.97 10.3
5/20/2021 9:45:00 AM 17.08 62.744 0.132 7.97 1.97 10.33
5/20/2021 10:00:00 AM 17.26 63.068 0.131 8.06 2.01 10.35
5/20/2021 10:15:00 AM 17.45 63.41 0.131 8.13 2.01 10.37
5/20/2021 10:30:00 AM 17.67 63.806 0.131 8.2 2.03 10.37
5/20/2021 10:45:00 AM 17.92 64.256 0.131 8.28 2.16 10.37
5/20/2021 11:00:00 AM 18.19 64.742 0.131 8.35 1.87 10.35
5/20/2021 11:15:00 AM 18.46 65.228 0.131 8.42 1.91 10.33
5/20/2021 11:30:00 AM 18.76 65.768 0.131 8.48 1.93 10.29
5/20/2021 11:45:00 AM 19.07 66.326 0.13 8.54 1.93 10.26
5/20/2021 12:00:00 PM 19.35 66.83 0.13 8.6 1.99 10.22
5/20/2021 12:15:00 PM 19.64 67.352 0.13 8.66 1.96 10.18
5/20/2021 12:30:00 PM 19.94 67.892 0.13 8.73 1.94 10.15
5/20/2021 12:45:00 PM 20.24 68.432 0.129 8.79 1.93 10.1
5/20/2021 1:00:00 PM 20.55 68.99 0.129 8.84 1.94 10.03
5/20/2021 1:15:00 PM 20.86 69.548 0.129 8.87 1.9 9.97
5/20/2021 1:30:00 PM 21.16 70.088 0.129 8.92 1.89 9.9
5/20/2021 1:45:00 PM 21.46 70.628 0.129 8.96 1.95 9.83
5/20/2021 2:00:00 PM 21.72 71.096 0.129 8.98 1.96 9.76
5/20/2021 2:15:00 PM 21.97 71.546 0.128 9.02 1.85 9.68
5/20/2021 2:30:00 PM 22.22 71.996 0.128 9.04 1.84 9.62
5/20/2021 2:45:00 PM 22.44 72.392 0.128 9.07 1.9 9.55
5/20/2021 3:00:00 PM 22.56 72.608 0.128 9.06 1.8 9.45
5/20/2021 3:15:00 PM 22.67 72.806 0.128 9.07 1.86 9.39
5/20/2021 3:30:00 PM 22.8 73.04 0.128 9.08 1.97 9.35
5/20/2021 3:45:00 PM 22.9 73.22 0.128 9.09 1.83 9.36
5/20/2021 4:00:00 PM 23 73.4 0.128 9.1 1.89 9.34
5/20/2021 4:15:00 PM 23.07 73.526 0.129 9.08 1.83 9.27
5/20/2021 4:30:00 PM 23.07 73.526 0.129 9.07 1.93 9.21
5/20/2021 4:45:00 PM 23 73.4 0.129 9.04 1.87 9.18
5/20/2021 5:00:00 PM 22.85 73.13 0.129 8.99 1.89 9.04
5/20/2021 5:15:00 PM 22.68 72.824 0.129 8.93 1.94 8.99
5/20/2021 5:30:00 PM 22.47 72.446 0.129 8.85 1.92 8.93
5/20/2021 5:45:00 PM 22.27 72.086 0.129 8.76 1.85 8.82
5/20/2021 6:00:00 PM 22.1 71.78 0.129 8.69 1.96 8.81
5/20/2021 6:15:00 PM 21.91 71.438 0.129 8.61 2.12 8.77
5/20/2021 6:30:00 PM 21.75 71.15 0.129 8.52 1.89 8.75
5/20/2021 6:45:00 PM 21.6 70.88 0.129 8.42 1.91 8.73
5/20/2021 7:00:00 PM 21.45 70.61 0.129 8.31 1.98 8.67
5/20/2021 7:15:00 PM 21.31 70.358 0.13 8.16 1.93 8.62
5/20/2021 7:30:00 PM 21.17 70.106 0.13 8 1.95 8.56
5/20/2021 7:45:00 PM 21.04 69.872 0.13 7.84 1.96 8.52
5/20/2021 8:00:00 PM 20.93 69.674 0.13 7.7 1.96 8.47
5/20/2021 8:15:00 PM 20.81 69.458 0.13 7.6 2.03 8.41
5/20/2021 8:30:00 PM 20.69 69.242 0.131 7.51 1.95 8.36
5/20/2021 8:45:00 PM 20.59 69.062 0.131 7.46 1.95 8.32
5/20/2021 9:00:00 PM 20.49 68.882 0.131 7.41 2.09 8.3
5/20/2021 9:15:00 PM 20.4 68.72 0.131 7.36 2.07 8.29
5/20/2021 9:30:00 PM 20.31 68.558 0.131 7.35 2.2 8.28
5/20/2021 9:45:00 PM 20.22 68.396 0.132 7.33 2.06 8.28
5/20/2021 10:00:00 PM 20.13 68.234 0.132 7.31 2.05 8.29
5/20/2021 10:15:00 PM 20.04 68.07201 0.132 7.3 2.01 8.31
5/20/2021 10:30:00 PM 19.95 67.91 0.132 7.29 2.05 8.31
5/20/2021 10:45:00 PM 19.86 67.748 0.132 7.27 2.1 8.33
5/20/2021 11:00:00 PM 19.77 67.586 0.132 7.26 2.1 8.35
5/20/2021 11:15:00 PM 19.68 67.424 0.132 7.25 2.09 8.37
5/20/2021 11:30:00 PM 19.59 67.262 0.132 7.24 2.04 8.38
5/20/2021 11:45:00 PM 19.5 67.1 0.132 7.24 2.09 8.4
5/21/2021 12:00:00 AM 19.41 66.938 0.132 7.23 2.12 8.41
5/21/2021 12:15:00 AM 19.32 66.776 0.132 7.23 2.12 8.43
5/21/2021 12:30:00 AM 19.24 66.632 0.132 7.23 2.07 8.45
5/21/2021 12:45:00 AM 19.16 66.488 0.132 7.22 2.17 8.47
5/21/2021 1:00:00 AM 19.08 66.344 0.131 7.22 2.18 8.48
5/21/2021 1:15:00 AM 19 66.2 0.131 7.22 2.09 8.5
5/21/2021 1:30:00 AM 18.92 66.056 0.131 7.21 2.09 8.52
5/21/2021 1:45:00 AM 18.84 65.912 0.131 7.22 2.15 8.53
5/21/2021 2:00:00 AM 18.75 65.75 0.131 7.21 2.27 8.57
5/21/2021 2:15:00 AM 18.66 65.588 0.131 7.21 2.11 8.58
5/21/2021 2:30:00 AM 18.58 65.444 0.131 7.21 2.2 8.59
5/21/2021 2:45:00 AM 18.49 65.282 0.131 7.22 2.19 8.63
5/21/2021 3:00:00 AM 18.4 65.12 0.131 7.21 2.19 8.64
5/21/2021 3:15:00 AM 18.32 64.976 0.132 7.2 2.13 8.66
5/21/2021 3:30:00 AM 18.23 64.814 0.132 7.2 2.16 8.68
5/21/2021 3:45:00 AM 18.15 64.67 0.132 7.21 2.12 8.7
5/21/2021 4:00:00 AM 18.07 64.526 0.132 7.21 2.16 8.71
5/21/2021 4:15:00 AM 17.98 64.364 0.132 7.19 2.15 8.74
5/21/2021 4:30:00 AM 17.89 64.202 0.132 7.2 2.24 8.76
5/21/2021 4:45:00 AM 17.8 64.04 0.132 7.21 2.15 8.78
5/21/2021 5:00:00 AM 17.71 63.878 0.132 7.2 2.16 8.8
5/21/2021 5:15:00 AM 17.62 63.716 0.132 7.2 2.32 8.82
5/21/2021 5:30:00 AM 17.53 63.554 0.133 7.2 2.24 8.84
5/21/2021 5:45:00 AM 17.44 63.392 0.133 7.19 2.24 8.89
5/21/2021 6:00:00 AM 17.35 63.23 0.133 7.2 2.1 8.93
5/21/2021 6:15:00 AM 17.26 63.068 0.133 7.22 2.14 8.99
5/21/2021 6:30:00 AM 17.18 62.924 0.133 7.25 2.07 9.07
5/21/2021 6:45:00 AM 17.12 62.816 0.133 7.25 2.06 9.15
5/21/2021 7:00:00 AM 17.06 62.708 0.133 7.3 2.04 9.27
5/21/2021 7:15:00 AM 17.04 62.672 0.133 7.34 2.06 9.4
5/21/2021 7:30:00 AM 17.03 62.654 0.133 7.39 2.04 9.53
5/21/2021 7:45:00 AM 17.06 62.708 0.133 7.46 2.01 9.66
5/21/2021 8:00:00 AM 17.11 62.798 0.133 7.51 2.02 9.76
5/21/2021 8:15:00 AM 17.18 62.924 0.133 7.58 1.99 9.86
5/21/2021 8:30:00 AM 17.27 63.086 0.133 7.65 1.97 9.93
5/21/2021 8:45:00 AM 17.36 63.248 0.133 7.72 2.04 10
5/21/2021 9:00:00 AM 17.47 63.446 0.133 7.8 1.94 10.05
5/21/2021 9:15:00 AM 17.59 63.662 0.133 7.86 2.04 10.1
5/21/2021 9:30:00 AM 17.72 63.896 0.133 7.92 1.97 10.13
5/21/2021 9:45:00 AM 17.87 64.166 0.133 7.99 1.93 10.16
5/21/2021 10:00:00 AM 18.05 64.49 0.133 8.05 1.92 10.18
5/21/2021 10:15:00 AM 18.24 64.832 0.133 8.12 1.92 10.19
5/21/2021 10:30:00 AM 18.48 65.264 0.133 8.19 1.98 10.21
5/21/2021 10:45:00 AM 18.71 65.67799 0.133 8.25 1.95 10.2
5/21/2021 11:00:00 AM 18.96 66.128 0.133 8.31 1.94 10.18
5/21/2021 11:15:00 AM 19.23 66.614 0.133 8.37 1.97 10.15
5/21/2021 11:30:00 AM 19.5 67.1 0.133 8.43 1.84 10.14
5/21/2021 11:45:00 AM 19.8 67.64 0.133 8.49 1.85 10.11
5/21/2021 12:00:00 PM 20.09 68.162 0.133 8.54 1.87 10.07
5/21/2021 12:15:00 PM 20.39 68.702 0.133 8.58 1.82 10
5/21/2021 12:30:00 PM 20.72 69.296 0.132 8.64 1.75 9.96
5/21/2021 12:45:00 PM 21.04 69.872 0.132 8.69 1.84 9.91
5/21/2021 1:00:00 PM 21.36 70.448 0.132 8.73 1.83 9.86
5/21/2021 1:15:00 PM 21.68 71.024 0.132 8.77 1.73 9.8
5/21/2021 1:30:00 PM 21.99 71.582 0.132 8.81 1.71 9.73
5/21/2021 1:45:00 PM 22.28 72.104 0.132 8.85 1.79 9.67
5/21/2021 2:00:00 PM 22.55 72.59 0.132 8.88 1.72 9.61
5/21/2021 2:15:00 PM 22.8 73.04 0.132 8.91 1.77 9.55
5/21/2021 2:30:00 PM 23.02 73.436 0.132 8.92 1.75 9.48
5/21/2021 2:45:00 PM 23.22 73.796 0.132 8.95 1.7 9.4
5/21/2021 3:00:00 PM 23.41 74.138 0.132 8.97 1.83 9.36
5/21/2021 3:15:00 PM 23.57 74.426 0.132 8.97 1.84 9.31
5/21/2021 3:30:00 PM 23.68 74.624 0.131 8.98 1.77 9.26
5/21/2021 3:45:00 PM 23.78 74.804 0.132 8.97 1.77 9.19
5/21/2021 4:00:00 PM 23.8 74.84 0.132 8.94 1.68 9.13
5/21/2021 4:15:00 PM 23.82 74.876 0.132 8.93 1.75 9.08
5/21/2021 4:30:00 PM 23.82 74.876 0.132 8.92 1.82 9.04
5/21/2021 4:45:00 PM 23.84 74.912 0.132 8.91 1.66 8.99
5/21/2021 5:00:00 PM 23.77 74.786 0.132 8.87 1.77 8.89
5/21/2021 5:15:00 PM 23.71 74.67799 0.132 8.84 1.78 8.86
5/21/2021 5:30:00 PM 23.62 74.516 0.132 8.78 1.74 8.81
5/21/2021 5:45:00 PM 23.51 74.318 0.132 8.75 1.7 8.77
5/21/2021 6:00:00 PM 23.39 74.102 0.132 8.69 1.79 8.74
5/21/2021 6:15:00 PM 23.23 73.814 0.133 8.61 1.79 8.69
5/21/2021 6:30:00 PM 23.08 73.544 0.133 8.52 1.75 8.64
5/21/2021 6:45:00 PM 22.9 73.22 0.133 8.4 1.86 8.55
5/21/2021 7:00:00 PM 22.73 72.914 0.133 8.26 1.76 8.47
5/21/2021 7:15:00 PM 22.56 72.608 0.134 8.1 1.75 8.44
5/21/2021 7:30:00 PM 22.41 72.338 0.134 7.94 1.89 8.4
5/21/2021 7:45:00 PM 22.26 72.068 0.134 7.79 1.77 8.35
5/21/2021 8:00:00 PM 22.1 71.78 0.134 7.66 1.82 8.3
5/21/2021 8:15:00 PM 21.94 71.492 0.135 7.54 1.73 8.22
5/21/2021 8:30:00 PM 21.78 71.204 0.135 7.46 1.89 8.15
5/21/2021 8:45:00 PM 21.62 70.916 0.136 7.39 1.87 8.12
5/21/2021 9:00:00 PM 21.47 70.646 0.136 7.33 1.85 8.08
5/21/2021 9:15:00 PM 21.33 70.394 0.136 7.31 1.9 8.09
5/21/2021 9:30:00 PM 21.19 70.142 0.136 7.29 1.83 8.09
5/21/2021 9:45:00 PM 21.07 69.926 0.136 7.27 2.03 8.09
5/21/2021 10:00:00 PM 20.95 69.71 0.136 7.26 1.84 8.11
5/21/2021 10:15:00 PM 20.84 69.512 0.136 7.24 1.97 8.12
5/21/2021 10:30:00 PM 20.74 69.332 0.136 7.24 2.03 8.13
5/21/2021 10:45:00 PM 20.64 69.152 0.136 7.23 1.96 8.14
5/21/2021 11:00:00 PM 20.55 68.99 0.136 7.24 1.94 8.16
5/21/2021 11:15:00 PM 20.46 68.828 0.136 7.22 2 8.17
5/21/2021 11:30:00 PM 20.38 68.684 0.136 7.22 1.94 8.16
5/21/2021 11:45:00 PM 20.29 68.522 0.136 7.22 2.05 8.19
5/22/2021 12:00:00 AM 20.21 68.378 0.136 7.21 1.97 8.21
5/22/2021 12:15:00 AM 20.13 68.234 0.136 7.21 1.96 8.23
5/22/2021 12:30:00 AM 20.05 68.09 0.136 7.21 1.98 8.24
5/22/2021 12:45:00 AM 19.97 67.946 0.136 7.21 2.01 8.26
5/22/2021 1:00:00 AM 19.89 67.802 0.136 7.2 2.07 8.27
5/22/2021 1:15:00 AM 19.81 67.658 0.136 7.2 2.49 8.28
5/22/2021 1:30:00 AM 19.72 67.496 0.136 7.19 2.09 8.31
5/22/2021 1:45:00 AM 19.64 67.352 0.136 7.2 2.13 8.32
5/22/2021 2:00:00 AM 19.57 67.226 0.136 7.19 2.09 8.33
5/22/2021 2:15:00 AM 19.5 67.1 0.136 7.19 2.02 8.37
5/22/2021 2:30:00 AM 19.42 66.956 0.136 7.19 2 8.36
5/22/2021 2:45:00 AM 19.36 66.848 0.136 7.19 2.05 8.39
5/22/2021 3:00:00 AM 19.29 66.722 0.136 7.2 2.02 8.4
5/22/2021 3:15:00 AM 19.23 66.614 0.136 7.2 2.06 8.41
5/22/2021 3:30:00 AM 19.18 66.524 0.136 7.2 2.06 8.43
5/22/2021 3:45:00 AM 19.12 66.416 0.135 7.2 2.07 8.44
5/22/2021 4:00:00 AM 19.06 66.308 0.135 7.2 2.06 8.46
5/22/2021 4:15:00 AM 19.01 66.218 0.135 7.19 2.14 8.47
5/22/2021 4:30:00 AM 18.95 66.11 0.135 7.19 2.03 8.48
5/22/2021 4:45:00 AM 18.89 66.002 0.135 7.18 2.25 8.51
5/22/2021 5:00:00 AM 18.82 65.876 0.135 7.19 2.22 8.52
5/22/2021 5:15:00 AM 18.75 65.75 0.135 7.19 2.2 8.52
5/22/2021 5:30:00 AM 18.67 65.606 0.135 7.18 2.23 8.54
5/22/2021 5:45:00 AM 18.59 65.462 0.135 7.17 2.07 8.56
5/22/2021 6:00:00 AM 18.52 65.336 0.135 7.18 2.04 8.6
5/22/2021 6:15:00 AM 18.46 65.228 0.135 7.19 2.18 8.68
5/22/2021 6:30:00 AM 18.4 65.12 0.135 7.22 2.02 8.76
5/22/2021 6:45:00 AM 18.36 65.048 0.135 7.26 2.07 8.85
5/22/2021 7:00:00 AM 18.32 64.976 0.135 7.27 1.98 8.94
5/22/2021 7:15:00 AM 18.29 64.922 0.135 7.3 2 9.05
5/22/2021 7:30:00 AM 18.29 64.922 0.135 7.34 1.95 9.2
5/22/2021 7:45:00 AM 18.31 64.958 0.135 7.41 1.91 9.32
5/22/2021 8:00:00 AM 18.32 64.976 0.135 7.45 1.98 9.37
5/22/2021 8:15:00 AM 18.36 65.048 0.135 7.49 1.97 9.46
5/22/2021 8:30:00 AM 18.4 65.12 0.135 7.54 1.93 9.56
5/22/2021 8:45:00 AM 18.45 65.21 0.135 7.61 1.88 9.65
5/22/2021 9:00:00 AM 18.52 65.336 0.135 7.67 1.9 9.72
5/22/2021 9:15:00 AM 18.6 65.48 0.135 7.73 1.87 9.76
5/22/2021 9:30:00 AM 18.73 65.714 0.135 7.83 1.92 9.85
5/22/2021 9:45:00 AM 18.83 65.894 0.134 7.9 1.92 9.89
5/22/2021 10:00:00 AM 18.93 66.074 0.134 7.97 1.92 9.89
5/22/2021 10:15:00 AM 19.01 66.218 0.134 8.01 1.86 9.87
5/22/2021 10:30:00 AM 19.19 66.542 0.134 8.12 1.86 9.95
5/22/2021 10:45:00 AM 19.32 66.776 0.134 8.21 1.83 10
5/22/2021 11:00:00 AM 19.49 67.082 0.134 8.3 1.88 10.02
5/22/2021 11:15:00 AM 19.64 67.352 0.134 8.34 1.84 9.97
5/22/2021 11:30:00 AM 19.75 67.55 0.134 8.38 1.83 9.92
5/22/2021 11:45:00 AM 19.84 67.712 0.134 8.42 1.86 9.9
5/22/2021 12:00:00 PM 19.9 67.82 0.134 8.45 1.83 9.88
5/22/2021 12:15:00 PM 19.97 67.946 0.133 8.49 1.81 9.85
5/22/2021 12:30:00 PM 20.24 68.432 0.133 8.59 1.76 9.92
5/22/2021 12:45:00 PM 20.46 68.828 0.133 8.63 1.8 9.92
5/22/2021 1:00:00 PM 20.71 69.278 0.133 8.69 1.78 9.91
5/22/2021 1:15:00 PM 20.94 69.692 0.133 8.74 1.77 9.88
5/22/2021 1:30:00 PM 21.11 69.998 0.133 8.77 1.75 9.83
5/22/2021 1:45:00 PM 21.3 70.34 0.133 8.82 1.92 9.81
5/22/2021 2:00:00 PM 21.42 70.556 0.133 8.84 1.82 9.76
5/22/2021 2:15:00 PM 21.57 70.826 0.132 8.89 2.2 9.72
5/22/2021 2:30:00 PM 21.72 71.096 0.132 8.91 1.77 9.68
5/22/2021 2:45:00 PM 21.81 71.258 0.132 8.92 1.71 9.62
5/22/2021 3:00:00 PM 21.95 71.51 0.132 8.95 1.74 9.59
5/22/2021 3:15:00 PM 22 71.6 0.132 8.94 1.71 9.54
5/22/2021 3:30:00 PM 22.02 71.636 0.132 8.94 1.68 9.48
5/22/2021 3:45:00 PM 22.07 71.726 0.132 8.95 1.75 9.46
5/22/2021 4:00:00 PM 22.03 71.654 0.132 8.91 1.79 9.33
5/22/2021 4:15:00 PM 22.17 71.906 0.132 8.96 1.81 9.39
5/22/2021 4:30:00 PM 22.17 71.906 0.132 8.93 1.7 9.28
5/22/2021 4:45:00 PM 22.19 71.942 0.132 8.9 1.69 9.15
5/22/2021 5:00:00 PM 22.19 71.942 0.132 8.86 1.73 9.05
5/22/2021 5:15:00 PM 22.14 71.852 0.132 8.81 1.77 9.03
5/22/2021 5:30:00 PM 22.08 71.744 0.132 8.77 1.79 8.97
5/22/2021 5:45:00 PM 22.03 71.654 0.133 8.72 1.74 8.92
5/22/2021 6:00:00 PM 21.99 71.582 0.133 8.67 1.74 8.87
5/22/2021 6:15:00 PM 21.91 71.438 0.133 8.61 1.83 8.81
5/22/2021 6:30:00 PM 21.86 71.348 0.133 8.52 1.76 8.74
5/22/2021 6:45:00 PM 21.79 71.222 0.133 8.44 1.72 8.73
5/22/2021 7:00:00 PM 21.73 71.114 0.134 8.36 1.71 8.7
5/22/2021 7:15:00 PM 21.68 71.024 0.134 8.24 1.76 8.61
5/22/2021 7:30:00 PM 21.62 70.916 0.134 8.1 1.75 8.54
5/22/2021 7:45:00 PM 21.54 70.772 0.135 7.93 1.77 8.45
5/22/2021 8:00:00 PM 21.45 70.61 0.135 7.76 1.73 8.33
5/22/2021 8:15:00 PM 21.36 70.448 0.136 7.61 1.78 8.25
5/22/2021 8:30:00 PM 21.28 70.304 0.136 7.52 1.8 8.17
5/22/2021 8:45:00 PM 21.19 70.142 0.137 7.44 1.77 8.13
5/22/2021 9:00:00 PM 21.1 69.98 0.137 7.39 1.79 8.09
5/22/2021 9:15:00 PM 21.01 69.818 0.138 7.35 1.93 8.09
5/22/2021 9:30:00 PM 20.93 69.674 0.138 7.32 1.82 8.07
5/22/2021 9:45:00 PM 20.86 69.548 0.138 7.3 1.81 8.08
5/22/2021 10:00:00 PM 20.78 69.404 0.139 7.29 1.9 8.08
5/22/2021 10:15:00 PM 20.71 69.278 0.139 7.28 1.87 8.09
5/22/2021 10:30:00 PM 20.64 69.152 0.139 7.26 1.96 8.09
5/22/2021 10:45:00 PM 20.58 69.044 0.139 7.26 1.82 8.09
5/22/2021 11:00:00 PM 20.51 68.918 0.139 7.24 1.88 8.1
5/22/2021 11:15:00 PM 20.46 68.828 0.139 7.24 1.86 8.12
5/22/2021 11:30:00 PM 20.41 68.738 0.139 7.25 1.84 8.13
5/22/2021 11:45:00 PM 20.36 68.648 0.139 7.24 1.87 8.14
5/23/2021 12:00:00 AM 20.31 68.558 0.14 7.23 1.95 8.14
5/23/2021 12:15:00 AM 20.26 68.468 0.139 7.24 1.87 8.15
5/23/2021 12:30:00 AM 20.21 68.378 0.139 7.23 1.9 8.16
5/23/2021 12:45:00 AM 20.16 68.288 0.139 7.22 1.96 8.16
5/23/2021 1:00:00 AM 20.11 68.198 0.139 7.24 2.04 8.18
5/23/2021 1:15:00 AM 20.06 68.108 0.139 7.23 2.02 8.18
5/23/2021 1:30:00 AM 20.01 68.018 0.139 7.23 1.9 8.19
5/23/2021 1:45:00 AM 19.97 67.946 0.139 7.24 2.01 8.2
5/23/2021 2:00:00 AM 19.92 67.856 0.139 7.23 1.9 8.21
5/23/2021 2:15:00 AM 19.87 67.766 0.139 7.22 1.88 8.22
5/23/2021 2:30:00 AM 19.82 67.676 0.138 7.22 2.01 8.23
5/23/2021 2:45:00 AM 19.78 67.604 0.138 7.22 1.93 8.24
5/23/2021 3:00:00 AM 19.73 67.514 0.138 7.23 1.96 8.25
5/23/2021 3:15:00 AM 19.68 67.424 0.138 7.22 1.98 8.26
5/23/2021 3:30:00 AM 19.63 67.334 0.138 7.21 1.92 8.27
5/23/2021 3:45:00 AM 19.58 67.244 0.138 7.21 1.98 8.28
5/23/2021 4:00:00 AM 19.51 67.118 0.138 7.2 2.14 8.29
5/23/2021 4:15:00 AM 19.45 67.01 0.138 7.19 1.91 8.31
5/23/2021 4:30:00 AM 19.4 66.92 0.138 7.19 1.91 8.32
5/23/2021 4:45:00 AM 19.35 66.83 0.138 7.2 2.05 8.33
5/23/2021 5:00:00 AM 19.31 66.758 0.138 7.21 2.18 8.34
5/23/2021 5:15:00 AM 19.26 66.668 0.138 7.19 2 8.35
5/23/2021 5:30:00 AM 19.2 66.56 0.138 7.19 1.95 8.36
5/23/2021 5:45:00 AM 19.13 66.434 0.138 7.18 1.93 8.39
5/23/2021 6:00:00 AM 19.05 66.29 0.138 7.18 1.96 8.44
5/23/2021 6:15:00 AM 19 66.2 0.138 7.2 1.87 8.52
5/23/2021 6:30:00 AM 18.97 66.146 0.137 7.23 1.9 8.65
5/23/2021 6:45:00 AM 18.97 66.146 0.137 7.27 1.82 8.76
5/23/2021 7:00:00 AM 18.97 66.146 0.137 7.31 1.88 8.81
5/23/2021 7:15:00 AM 18.99 66.182 0.137 7.32 1.86 8.85
5/23/2021 7:30:00 AM 19.01 66.218 0.137 7.35 1.87 8.88
5/23/2021 7:45:00 AM 19.05 66.29 0.137 7.4 1.81 9.05
5/23/2021 8:00:00 AM 19.11 66.398 0.137 7.46 1.83 9.17
5/23/2021 8:15:00 AM 19.21 66.578 0.137 7.54 1.82 9.28
5/23/2021 8:30:00 AM 19.36 66.848 0.137 7.63 1.87 9.39
5/23/2021 8:45:00 AM 19.51 67.118 0.137 7.7 1.76 9.48
5/23/2021 9:00:00 AM 19.65 67.37 0.137 7.76 1.79 9.49
5/23/2021 9:15:00 AM 19.79 67.622 0.137 7.83 1.76 9.53
5/23/2021 9:30:00 AM 19.93 67.874 0.137 7.89 1.76 9.56
5/23/2021 9:45:00 AM 20.08 68.144 0.137 7.96 1.78 9.59
5/23/2021 10:00:00 AM 20.24 68.432 0.137 8.03 1.78 9.62
5/23/2021 10:15:00 AM 20.41 68.738 0.137 8.07 1.85 9.61
5/23/2021 10:30:00 AM 20.65 69.17 0.137 8.14 1.65 9.63
5/23/2021 10:45:00 AM 20.9 69.62 0.137 8.19 1.79 9.62
5/23/2021 11:00:00 AM 21.06 69.908 0.137 8.21 1.75 9.56
5/23/2021 11:15:00 AM 21.31 70.358 0.137 8.28 1.78 9.58
5/23/2021 11:30:00 AM 21.47 70.646 0.137 8.29 1.79 9.56
5/23/2021 11:45:00 AM 21.61 70.898 0.137 8.32 1.67 9.5
5/23/2021 12:00:00 PM 21.83 71.294 0.136 8.39 1.8 9.47
5/23/2021 12:15:00 PM 22.04 71.672 0.136 8.4 1.76 9.45
5/23/2021 12:30:00 PM 22.19 71.942 0.136 8.45 1.76 9.39
5/23/2021 12:45:00 PM 22.44 72.392 0.136 8.51 1.74 9.42
5/23/2021 1:00:00 PM 22.64 72.752 0.136 8.55 1.7 9.41
5/23/2021 1:15:00 PM 22.76 72.968 0.136 8.56 1.69 9.3
5/23/2021 1:30:00 PM 22.76 72.968 0.136 8.5 1.73 9.09
5/23/2021 1:45:00 PM 22.78 73.004 0.136 8.51 1.69 9.03
5/23/2021 2:00:00 PM 22.93 73.274 0.136 8.53 1.73 9.09
5/23/2021 2:15:00 PM 23.13 73.634 0.135 8.59 1.77 9.18
5/23/2021 2:30:00 PM 23.33 73.994 0.135 8.61 1.85 9.15
5/23/2021 2:45:00 PM 23.57 74.426 0.135 8.64 1.68 9.12
5/23/2021 3:00:00 PM 23.73 74.714 0.135 8.66 1.71 9.08
5/23/2021 3:15:00 PM 23.83 74.894 0.136 8.67 4.45 8.98
5/23/2021 3:30:00 PM 23.74 74.732 0.136 8.59 1.74 8.8
5/23/2021 3:45:00 PM 23.69 74.642 0.136 8.57 1.66 8.79
5/23/2021 4:00:00 PM 23.58 74.444 0.136 8.5 1.63 8.74
5/23/2021 4:15:00 PM 23.57 74.426 0.136 8.49 1.61 8.79
5/23/2021 4:30:00 PM 23.62 74.516 0.136 8.5 1.71 8.81
5/23/2021 4:45:00 PM 23.55 74.39 0.136 8.44 1.7 8.67
5/23/2021 5:00:00 PM 23.46 74.228 0.137 8.36 1.68 8.57
5/23/2021 5:15:00 PM 23.35 74.03 0.137 8.31 1.67 8.61
5/23/2021 5:30:00 PM 23.23 73.814 0.137 8.24 1.76 8.65
5/23/2021 5:45:00 PM 23.17 73.706 0.137 8.23 1.71 8.65
5/23/2021 6:00:00 PM 23.07 73.526 0.137 8.13 1.71 8.51
5/23/2021 6:15:00 PM 22.94 73.292 0.138 7.99 1.71 8.33
5/23/2021 6:30:00 PM 22.8 73.04 0.138 7.86 1.77 8.28
5/23/2021 6:45:00 PM 22.63 72.734 0.139 7.73 1.77 8.22
5/23/2021 7:00:00 PM 22.47 72.446 0.139 7.61 1.67 8.13
5/23/2021 7:15:00 PM 22.31 72.158 0.139 7.52 1.76 8.07
5/23/2021 7:30:00 PM 22.16 71.888 0.14 7.47 1.75 8.05
5/23/2021 7:45:00 PM 22.01 71.618 0.14 7.42 1.73 8.02
5/23/2021 8:00:00 PM 21.86 71.348 0.14 7.38 1.87 8.02
5/23/2021 8:15:00 PM 21.72 71.096 0.14 7.37 1.7 8.01
5/23/2021 8:30:00 PM 21.59 70.862 0.141 7.34 1.75 7.99
5/23/2021 8:45:00 PM 21.48 70.664 0.141 7.33 1.78 7.98
5/23/2021 9:00:00 PM 21.34 70.412 0.141 7.31 1.75 7.99
5/23/2021 9:15:00 PM 21.2 70.16 0.141 7.29 1.8 7.99
5/23/2021 9:30:00 PM 21.08 69.944 0.141 7.29 1.86 8
5/23/2021 9:45:00 PM 20.96 69.728 0.142 7.28 1.69 8.01
5/23/2021 10:00:00 PM 20.82 69.476 0.142 7.26 1.84 8.03
5/23/2021 10:15:00 PM 20.69 69.242 0.142 7.26 1.81 8.06
5/23/2021 10:30:00 PM 20.56 69.008 0.142 7.26 1.88 8.08
5/23/2021 10:45:00 PM 20.42 68.756 0.142 7.25 1.92 8.11
5/23/2021 11:00:00 PM 20.3 68.54 0.142 7.26 1.8 8.14
5/23/2021 11:15:00 PM 20.17 68.306 0.142 7.24 1.92 8.16
5/23/2021 11:30:00 PM 20.06 68.108 0.142 7.25 1.84 8.18
5/23/2021 11:45:00 PM 19.95 67.91 0.142 7.25 2.1 8.21
5/24/2021 12:00:00 AM 19.84 67.712 0.142 7.26 1.96 8.23
5/24/2021 12:15:00 AM 19.74 67.532 0.142 7.24 1.86 8.26
5/24/2021 12:30:00 AM 19.64 67.352 0.142 7.25 1.9 8.27
5/24/2021 12:45:00 AM 19.54 67.172 0.142 7.26 1.95 8.3
5/24/2021 1:00:00 AM 19.44 66.992 0.142 7.25 1.96 8.32
5/24/2021 1:15:00 AM 19.33 66.794 0.142 7.24 2.07 8.34
5/24/2021 1:30:00 AM 19.23 66.614 0.142 7.25 2.02 8.37
5/24/2021 1:45:00 AM 19.12 66.416 0.142 7.24 1.95 8.38
5/24/2021 2:00:00 AM 19.01 66.218 0.142 7.25 1.99 8.41
5/24/2021 2:15:00 AM 18.91 66.038 0.142 7.24 1.98 8.43
5/24/2021 2:30:00 AM 18.81 65.858 0.142 7.25 1.94 8.45
5/24/2021 2:45:00 AM 18.71 65.67799 0.141 7.24 1.93 8.48
5/24/2021 3:00:00 AM 18.63 65.534 0.141 7.24 1.94 8.5
5/24/2021 3:15:00 AM 18.54 65.372 0.141 7.26 1.92 8.51
5/24/2021 3:30:00 AM 18.46 65.228 0.141 7.25 2 8.54
5/24/2021 3:45:00 AM 18.39 65.102 0.141 7.25 1.94 8.56
5/24/2021 4:00:00 AM 18.31 64.958 0.141 7.25 2.1 8.57
5/24/2021 4:15:00 AM 18.24 64.832 0.141 7.26 2.08 8.6
5/24/2021 4:30:00 AM 18.15 64.67 0.141 7.25 2.03 8.62
5/24/2021 4:45:00 AM 18.07 64.526 0.141 7.25 1.89 8.63
5/24/2021 5:00:00 AM 18 64.4 0.141 7.26 2.15 8.65
5/24/2021 5:15:00 AM 17.93 64.274 0.141 7.26 1.96 8.67
5/24/2021 5:30:00 AM 17.87 64.166 0.141 7.27 2.03 8.69
5/24/2021 5:45:00 AM 17.81 64.058 0.141 7.27 1.93 8.71
5/24/2021 6:00:00 AM 17.75 63.95 0.141 7.28 1.96 8.74
5/24/2021 6:15:00 AM 17.7 63.86 0.141 7.29 1.86 8.8
5/24/2021 6:30:00 AM 17.64 63.752 0.141 7.29 1.92 8.88
5/24/2021 6:45:00 AM 17.61 63.698 0.14 7.33 1.9 9
5/24/2021 7:00:00 AM 17.59 63.662 0.14 7.36 1.92 9.12
5/24/2021 7:15:00 AM 17.58 63.644 0.14 7.41 1.91 9.26
5/24/2021 7:30:00 AM 17.58 63.644 0.14 7.44 1.76 9.34
5/24/2021 7:45:00 AM 17.58 63.644 0.14 7.49 1.87 9.41
5/24/2021 8:00:00 AM 17.61 63.698 0.14 7.54 1.81 9.52
5/24/2021 8:15:00 AM 17.66 63.788 0.139 7.59 1.81 9.61
5/24/2021 8:30:00 AM 17.78 64.004 0.139 7.67 1.8 9.73
5/24/2021 8:45:00 AM 17.87 64.166 0.139 7.73 1.75 9.8
5/24/2021 9:00:00 AM 18 64.4 0.139 7.8 1.84 9.86
5/24/2021 9:15:00 AM 18.14 64.652 0.139 7.86 1.87 9.88
5/24/2021 9:30:00 AM 18.27 64.886 0.139 7.92 1.76 9.92
5/24/2021 9:45:00 AM 18.43 65.174 0.139 8 1.75 9.97
5/24/2021 10:00:00 AM 18.47 65.246 0.139 8.03 1.68 9.96
5/24/2021 10:15:00 AM 18.54 65.372 0.139 8.08 1.75 10
5/24/2021 10:30:00 AM 18.57 65.426 0.139 8.12 1.72 10.04
5/24/2021 10:45:00 AM 18.64 65.552 0.138 8.18 1.73 10.04
5/24/2021 11:00:00 AM 18.7 65.66 0.138 8.24 1.71 10.06
5/24/2021 11:15:00 AM 19.02 66.236 0.138 8.33 1.72 10.08
5/24/2021 11:30:00 AM 19.22 66.596 0.138 8.39 1.75 10.09
5/24/2021 11:45:00 AM 19.33 66.794 0.138 8.43 1.71 10.07
5/24/2021 12:00:00 PM 19.63 67.334 0.138 8.52 1.84 10.06
5/24/2021 12:15:00 PM 19.82 67.676 0.138 8.55 1.73 10.03
5/24/2021 12:30:00 PM 20 68 0.137 8.58 1.8 9.98
5/24/2021 12:45:00 PM 20.2 68.36 0.137 8.63 1.69 9.92
5/24/2021 1:00:00 PM 20.36 68.648 0.137 8.67 1.7 9.9
5/24/2021 1:15:00 PM 20.46 68.828 0.137 8.69 1.81 9.83
5/24/2021 1:30:00 PM 20.51 68.918 0.137 8.7 1.77 9.72
5/24/2021 1:45:00 PM 20.51 68.918 0.137 8.69 1.71 9.66
5/24/2021 2:00:00 PM 20.49 68.882 0.136 8.7 1.74 9.64
5/24/2021 2:15:00 PM 20.42 68.756 0.136 8.69 1.71 9.57
5/24/2021 2:30:00 PM 20.35 68.63 0.136 8.65 1.67 9.51
5/24/2021 2:45:00 PM 20.29 68.522 0.136 8.65 1.68 9.52
5/24/2021 3:00:00 PM 20.21 68.378 0.136 8.62 1.69 9.5
5/24/2021 3:15:00 PM 20.11 68.198 0.136 8.58 1.73 9.44
5/24/2021 3:30:00 PM 20.01 68.018 0.136 8.52 1.7 9.34
5/24/2021 3:45:00 PM 19.94 67.892 0.136 8.5 1.76 9.37
5/24/2021 4:00:00 PM 19.88 67.784 0.136 8.48 1.75 9.37
5/24/2021 4:15:00 PM 19.81 67.658 0.137 8.42 1.78 9.28
5/24/2021 4:30:00 PM 19.76 67.568 0.137 8.37 1.68 9.24
5/24/2021 4:45:00 PM 19.71 67.478 0.137 8.3 1.7 9.18
5/24/2021 5:00:00 PM 19.65 67.37 0.137 8.2 1.68 9.09
5/24/2021 5:15:00 PM 19.57 67.226 0.138 8.07 1.78 9.01
5/24/2021 5:30:00 PM 19.49 67.082 0.138 7.94 1.71 8.97
5/24/2021 5:45:00 PM 19.41 66.938 0.138 7.84 1.77 8.92
5/24/2021 6:00:00 PM 19.31 66.758 0.139 7.74 1.69 8.87
5/24/2021 6:15:00 PM 19.21 66.578 0.139 7.66 1.64 8.84
5/24/2021 6:30:00 PM 19.12 66.416 0.14 7.6 1.78 8.82
5/24/2021 6:45:00 PM 19.04 66.272 0.14 7.56 1.69 8.79
5/24/2021 7:00:00 PM 18.95 66.11 0.14 7.51 1.68 8.76
5/24/2021 7:15:00 PM 18.86 65.948 0.141 7.48 1.67 8.74
5/24/2021 7:30:00 PM 18.77 65.786 0.141 7.45 1.71 8.72
5/24/2021 7:45:00 PM 18.69 65.642 0.141 7.42 1.74 8.69
5/24/2021 8:00:00 PM 18.6 65.48 0.142 7.4 1.65 8.68
5/24/2021 8:15:00 PM 18.52 65.336 0.142 7.38 1.72 8.66
5/24/2021 8:30:00 PM 18.43 65.174 0.142 7.36 1.85 8.66
5/24/2021 8:45:00 PM 18.34 65.012 0.143 7.36 1.74 8.65
5/24/2021 9:00:00 PM 18.27 64.886 0.143 7.34 1.91 8.64
5/24/2021 9:15:00 PM 18.2 64.76 0.143 7.34 1.8 8.66
5/24/2021 9:30:00 PM 18.13 64.634 0.143 7.33 1.88 8.66
5/24/2021 9:45:00 PM 18.06 64.508 0.143 7.32 1.83 8.66
5/24/2021 10:00:00 PM 17.99 64.382 0.143 7.32 1.93 8.68
5/24/2021 10:15:00 PM 17.93 64.274 0.143 7.32 1.98 8.69
5/24/2021 10:30:00 PM 17.87 64.166 0.143 7.3 1.78 8.69
5/24/2021 10:45:00 PM 17.81 64.058 0.143 7.31 1.85 8.71
5/24/2021 11:00:00 PM 17.76 63.968 0.143 7.31 1.86 8.72
5/24/2021 11:15:00 PM 17.7 63.86 0.143 7.3 1.91 8.74
5/24/2021 11:30:00 PM 17.65 63.77 0.143 7.3 1.92 8.74
5/24/2021 11:45:00 PM 17.6 63.68 0.143 7.31 1.91 8.76
5/25/2021 12:00:00 AM 17.54 63.572 0.143 7.3 1.87 8.76
5/25/2021 12:15:00 AM 17.49 63.482 0.143 7.31 2.03 8.77
5/25/2021 12:30:00 AM 17.45 63.41 0.143 7.3 1.99 8.79
5/25/2021 12:45:00 AM 17.41 63.338 0.143 7.3 1.9 8.8
5/25/2021 1:00:00 AM 17.36 63.248 0.143 7.3 1.91 8.8
5/25/2021 1:15:00 AM 17.32 63.176 0.143 7.31 1.86 8.82
5/25/2021 1:30:00 AM 17.27 63.086 0.143 7.31 1.91 8.83
5/25/2021 1:45:00 AM 17.21 62.978 0.143 7.29 1.92 8.84
5/25/2021 2:00:00 AM 17.17 62.906 0.143 7.3 1.91 8.86
5/25/2021 2:15:00 AM 17.12 62.816 0.142 7.3 1.89 8.86
5/25/2021 2:30:00 AM 17.07 62.726 0.142 7.3 1.91 8.87
5/25/2021 2:45:00 AM 17.02 62.636 0.142 7.3 1.99 8.88
5/25/2021 3:00:00 AM 16.98 62.564 0.142 7.31 1.98 8.89
5/25/2021 3:15:00 AM 16.94 62.492 0.142 7.3 1.96 8.91
5/25/2021 3:30:00 AM 16.89 62.402 0.142 7.3 1.99 8.92
5/25/2021 3:45:00 AM 16.85 62.33 0.142 7.3 2.01 8.93
5/25/2021 4:00:00 AM 16.81 62.258 0.142 7.3 2.09 8.93
5/25/2021 4:15:00 AM 16.77 62.186 0.142 7.29 1.98 8.96
5/25/2021 4:30:00 AM 16.73 62.114 0.142 7.29 2.02 8.96
5/25/2021 4:45:00 AM 16.69 62.042 0.142 7.3 1.95 8.96
5/25/2021 5:00:00 AM 16.65 61.97 0.142 7.3 1.98 8.98
5/25/2021 5:15:00 AM 16.61 61.898 0.142 7.3 2.05 8.99
5/25/2021 5:30:00 AM 16.58 61.844 0.142 7.29 1.91 8.99
5/25/2021 5:45:00 AM 16.54 61.772 0.142 7.3 1.95 9.01
5/25/2021 6:00:00 AM 16.51 61.718 0.142 7.3 1.94 9.03
5/25/2021 6:15:00 AM 16.49 61.682 0.142 7.31 1.87 9.06
5/25/2021 6:30:00 AM 16.46 61.628 0.142 7.32 1.84 9.1
5/25/2021 6:45:00 AM 16.44 61.592 0.142 7.33 2.03 9.14
5/25/2021 7:00:00 AM 16.42 61.556 0.142 7.33 1.89 9.17
5/25/2021 7:15:00 AM 16.4 61.52 0.142 7.35 1.89 9.24
5/25/2021 7:30:00 AM 16.4 61.52 0.142 7.38 1.81 9.31
5/25/2021 7:45:00 AM 16.39 61.502 0.141 7.4 1.77 9.37
5/25/2021 8:00:00 AM 16.41 61.538 0.141 7.43 1.82 9.5
5/25/2021 8:15:00 AM 16.44 61.592 0.141 7.48 1.82 9.64
5/25/2021 8:30:00 AM 16.48 61.664 0.141 7.53 1.78 9.77
5/25/2021 8:45:00 AM 16.54 61.772 0.141 7.6 1.79 9.86
5/25/2021 9:00:00 AM 16.59 61.862 0.141 7.65 1.81 9.92
5/25/2021 9:15:00 AM 16.67 62.006 0.14 7.72 1.75 10
5/25/2021 9:30:00 AM 16.74 62.132 0.14 7.78 1.74 10.07
5/25/2021 9:45:00 AM 16.82 62.276 0.14 7.85 1.73 10.13
5/25/2021 10:00:00 AM 16.92 62.456 0.14 7.93 1.78 10.2
5/25/2021 10:15:00 AM 17.1 62.78 0.14 8.03 1.71 10.26
5/25/2021 10:30:00 AM 17.42 63.356 0.14 8.14 1.78 10.31
5/25/2021 10:45:00 AM 17.74 63.932 0.139 8.24 1.78 10.31
5/25/2021 11:00:00 AM 18.04 64.472 0.139 8.29 1.73 10.29
5/25/2021 11:15:00 AM 18.26 64.868 0.139 8.36 1.76 10.26
5/25/2021 11:30:00 AM 18.48 65.264 0.139 8.43 1.79 10.27
5/25/2021 11:45:00 AM 18.7 65.66 0.139 8.49 1.7 10.24
5/25/2021 12:00:00 PM 18.79 65.82201 0.139 8.5 1.72 10.2
5/25/2021 12:15:00 PM 19.16 66.488 0.139 8.58 1.75 10.17
5/25/2021 12:30:00 PM 19.46 67.028 0.139 8.62 1.75 10.12
5/25/2021 12:45:00 PM 19.76 67.568 0.139 8.65 1.77 10.05
5/25/2021 1:00:00 PM 20.09 68.162 0.138 8.71 1.7 10
5/25/2021 1:15:00 PM 20.4 68.72 0.138 8.72 1.74 9.93
5/25/2021 1:30:00 PM 20.72 69.296 0.138 8.76 1.72 9.85
5/25/2021 1:45:00 PM 21.03 69.854 0.138 8.78 1.71 9.79
5/25/2021 2:00:00 PM 21.34 70.412 0.138 8.81 1.73 9.74
5/25/2021 2:15:00 PM 21.65 70.97 0.138 8.84 1.66 9.66
5/25/2021 2:30:00 PM 21.92 71.456 0.138 8.86 1.69 9.58
5/25/2021 2:45:00 PM 22.21 71.978 0.138 8.86 1.74 9.52
5/25/2021 3:00:00 PM 22.45 72.41 0.138 8.87 1.75 9.43
5/25/2021 3:15:00 PM 22.62 72.716 0.138 8.87 1.63 9.35
5/25/2021 3:30:00 PM 22.77 72.986 0.138 8.87 1.65 9.28
5/25/2021 3:45:00 PM 22.86 73.148 0.138 8.86 1.67 9.22
5/25/2021 4:00:00 PM 22.93 73.274 0.138 8.83 1.68 9.16
5/25/2021 4:15:00 PM 22.95 73.31 0.139 8.8 1.72 9.1
5/25/2021 4:30:00 PM 22.99 73.382 0.139 8.77 1.77 9.05
5/25/2021 4:45:00 PM 22.99 73.382 0.139 8.75 1.69 8.99
5/25/2021 5:00:00 PM 22.93 73.274 0.139 8.7 2.35 8.93
5/25/2021 5:15:00 PM 22.88 73.184 0.139 8.65 1.7 8.88
5/25/2021 5:30:00 PM 22.78 73.004 0.139 8.58 1.64 8.82
5/25/2021 5:45:00 PM 22.66 72.788 0.139 8.5 1.72 8.74
5/25/2021 6:00:00 PM 22.53 72.554 0.139 8.4 1.98 8.68
5/25/2021 6:15:00 PM 22.38 72.284 0.14 8.29 1.79 8.61
5/25/2021 6:30:00 PM 22.22 71.996 0.14 8.17 1.7 8.56
5/25/2021 6:45:00 PM 22.06 71.708 0.141 8.01 1.65 8.52
5/25/2021 7:00:00 PM 21.92 71.456 0.141 7.88 1.76 8.46
5/25/2021 7:15:00 PM 21.8 71.24 0.141 7.78 1.7 8.4
5/25/2021 7:30:00 PM 21.68 71.024 0.142 7.68 1.69 8.35
5/25/2021 7:45:00 PM 21.56 70.808 0.142 7.61 1.68 8.29
5/25/2021 8:00:00 PM 21.44 70.592 0.143 7.56 1.76 8.24
5/25/2021 8:15:00 PM 21.31 70.358 0.143 7.5 1.68 8.17
5/25/2021 8:30:00 PM 21.17 70.106 0.144 7.43 1.75 8.13
5/25/2021 8:45:00 PM 21.04 69.872 0.144 7.4 1.78 8.11
5/25/2021 9:00:00 PM 20.91 69.638 0.145 7.36 1.95 8.09
5/25/2021 9:15:00 PM 20.79 69.422 0.145 7.34 1.86 8.07
5/25/2021 9:30:00 PM 20.68 69.224 0.145 7.31 1.99 8.08
5/25/2021 9:45:00 PM 20.58 69.044 0.145 7.31 2.07 8.09
5/25/2021 10:00:00 PM 20.49 68.882 0.145 7.3 1.91 8.09
5/25/2021 10:15:00 PM 20.4 68.72 0.145 7.29 1.86 8.1
5/25/2021 10:30:00 PM 20.32 68.576 0.146 7.29 1.88 8.1
5/25/2021 10:45:00 PM 20.24 68.432 0.146 7.28 1.86 8.12
5/25/2021 11:00:00 PM 20.16 68.288 0.146 7.27 1.86 8.14
5/25/2021 11:15:00 PM 20.07 68.126 0.146 7.26 1.98 8.14
5/25/2021 11:30:00 PM 20 68 0.146 7.26 1.91 8.16
5/25/2021 11:45:00 PM 19.92 67.856 0.146 7.26 1.93 8.17
5/26/2021 12:00:00 AM 19.85 67.73 0.146 7.26 1.97 8.19
5/26/2021 12:15:00 AM 19.79 67.622 0.146 7.26 2.12 8.2
5/26/2021 12:30:00 AM 19.72 67.496 0.146 7.26 2.01 8.22
5/26/2021 12:45:00 AM 19.66 67.388 0.145 7.26 1.94 8.23
5/26/2021 1:00:00 AM 19.59 67.262 0.145 7.25 1.96 8.23
5/26/2021 1:15:00 AM 19.53 67.154 0.145 7.25 1.94 8.24
5/26/2021 1:30:00 AM 19.46 67.028 0.145 7.25 1.96 8.26
5/26/2021 1:45:00 AM 19.39 66.902 0.145 7.24 1.9 8.28
5/26/2021 2:00:00 AM 19.32 66.776 0.145 7.26 1.99 8.29
5/26/2021 2:15:00 AM 19.26 66.668 0.145 7.24 2 8.3
5/26/2021 2:30:00 AM 19.19 66.542 0.145 7.24 1.97 8.32
5/26/2021 2:45:00 AM 19.13 66.434 0.145 7.24 2 8.32
5/26/2021 3:00:00 AM 19.06 66.308 0.145 7.23 2.03 8.34
5/26/2021 3:15:00 AM 18.99 66.182 0.145 7.23 1.95 8.36
5/26/2021 3:30:00 AM 18.92 66.056 0.145 7.23 1.88 8.36
5/26/2021 3:45:00 AM 18.85 65.93 0.145 7.23 1.95 8.39
5/26/2021 4:00:00 AM 18.78 65.804 0.145 7.23 2.08 8.41
5/26/2021 4:15:00 AM 18.7 65.66 0.145 7.24 1.97 8.41
5/26/2021 4:30:00 AM 18.63 65.534 0.145 7.23 2.01 8.43
5/26/2021 4:45:00 AM 18.56 65.408 0.145 7.22 1.98 8.44
5/26/2021 5:00:00 AM 18.49 65.282 0.144 7.23 1.97 8.46
5/26/2021 5:15:00 AM 18.42 65.156 0.144 7.22 2.01 8.48
5/26/2021 5:30:00 AM 18.35 65.03 0.144 7.22 2.12 8.49
5/26/2021 5:45:00 AM 18.28 64.904 0.144 7.23 2.11 8.52
5/26/2021 6:00:00 AM 18.23 64.814 0.144 7.23 1.95 8.56
5/26/2021 6:15:00 AM 18.18 64.724 0.144 7.25 1.95 8.62
5/26/2021 6:30:00 AM 18.14 64.652 0.144 7.26 1.96 8.69
5/26/2021 6:45:00 AM 18.11 64.598 0.144 7.29 1.9 8.78
5/26/2021 7:00:00 AM 18.11 64.598 0.144 7.32 1.86 8.92
5/26/2021 7:15:00 AM 18.11 64.598 0.144 7.36 1.87 9.03
5/26/2021 7:30:00 AM 18.17 64.706 0.144 7.41 1.89 9.16
5/26/2021 7:45:00 AM 18.19 64.742 0.143 7.45 1.82 9.21
5/26/2021 8:00:00 AM 18.26 64.868 0.143 7.5 1.88 9.29
5/26/2021 8:15:00 AM 18.33 64.994 0.143 7.54 1.85 9.36
5/26/2021 8:30:00 AM 18.39 65.102 0.143 7.58 1.84 9.42
5/26/2021 8:45:00 AM 18.57 65.426 0.143 7.67 1.87 9.56
5/26/2021 9:00:00 AM 18.73 65.714 0.143 7.75 1.79 9.63
5/26/2021 9:15:00 AM 18.94 66.092 0.143 7.82 1.76 9.68
5/26/2021 9:30:00 AM 19.2 66.56 0.143 7.9 1.77 9.72
5/26/2021 9:45:00 AM 19.48 67.064 0.143 7.98 1.78 9.75
5/26/2021 10:00:00 AM 19.61 67.298 0.143 8.01 1.92 9.69
5/26/2021 10:15:00 AM 19.72 67.496 0.143 8.03 1.82 9.63
5/26/2021 10:30:00 AM 19.83 67.694 0.143 8.07 1.83 9.64
5/26/2021 10:45:00 AM 19.89 67.802 0.143 8.13 1.81 9.68
5/26/2021 11:00:00 AM 20.06 68.108 0.143 8.19 1.78 9.73
5/26/2021 11:15:00 AM 20.33 68.594 0.143 8.3 1.81 9.79
5/26/2021 11:30:00 AM 20.56 69.008 0.143 8.37 1.81 9.79
5/26/2021 11:45:00 AM 20.94 69.692 0.142 8.42 1.76 9.74
5/26/2021 12:00:00 PM 21.33 70.394 0.142 8.49 1.85 9.69
5/26/2021 12:15:00 PM 21.68 71.024 0.142 8.54 1.79 9.63
5/26/2021 12:30:00 PM 22.04 71.672 0.142 8.58 1.81 9.56
5/26/2021 12:45:00 PM 22.41 72.338 0.142 8.62 1.72 9.5
5/26/2021 1:00:00 PM 22.77 72.986 0.142 8.66 1.75 9.45
5/26/2021 1:15:00 PM 23.13 73.634 0.142 8.71 1.72 9.36
5/26/2021 1:30:00 PM 23.49 74.282 0.142 8.73 1.68 9.28
5/26/2021 1:45:00 PM 23.82 74.876 0.142 8.75 3.42 9.2
5/26/2021 2:00:00 PM 24.06 75.308 0.142 8.76 1.7 9.12
5/26/2021 2:15:00 PM 24.28 75.704 0.142 8.78 1.75 9.03
5/26/2021 2:30:00 PM 24.53 76.154 0.142 8.8 1.68 8.96
5/26/2021 2:45:00 PM 24.66 76.388 0.142 8.77 1.71 8.83
5/26/2021 3:00:00 PM 24.81 76.658 0.142 8.78 2 8.8
5/26/2021 3:15:00 PM 24.86 76.748 0.142 8.75 1.77 8.76
5/26/2021 3:30:00 PM 24.91 76.838 0.142 8.74 1.73 8.74
5/26/2021 3:45:00 PM 24.92 76.856 0.142 8.72 1.67 8.62
5/26/2021 4:00:00 PM 24.79 76.622 0.142 8.65 1.72 8.45
5/26/2021 4:15:00 PM 24.65 76.37 0.142 8.55 1.77 8.24
5/26/2021 4:30:00 PM 24.43 75.974 0.142 8.39 1.74 7.99
5/26/2021 4:45:00 PM 24.23 75.614 0.142 8.27 1.9 8.02
5/26/2021 5:00:00 PM 24.09 75.362 0.143 8.15 1.72 8.14
5/26/2021 5:15:00 PM 23.99 75.182 0.143 8.07 2.31 8.21
5/26/2021 5:30:00 PM 23.92 75.056 0.143 7.98 1.73 8.2
5/26/2021 5:45:00 PM 23.94 75.092 0.143 7.95 1.84 8.17
5/26/2021 6:00:00 PM 23.93 75.074 0.143 7.94 1.71 8.17
5/26/2021 6:15:00 PM 23.89 75.002 0.144 7.9 1.82 8.11
5/26/2021 6:30:00 PM 23.8 74.84 0.144 7.81 1.79 8
5/26/2021 6:45:00 PM 23.64 74.552 0.145 7.68 1.89 7.83
5/26/2021 7:00:00 PM 23.12 73.616 0.136 7.42 11.39 7.81
5/26/2021 7:15:00 PM 23.07 73.526 0.14 7.38 7.57 7.73
5/26/2021 7:30:00 PM 22.91 73.238 0.141 7.33 8.35 7.71
5/26/2021 7:45:00 PM 22.75 72.95 0.141 7.31 5.66 7.71
5/26/2021 8:00:00 PM 22.59 72.662 0.141 7.29 5.4 7.7
5/26/2021 8:15:00 PM 22.4 72.32 0.141 7.25 6 7.67
5/26/2021 8:30:00 PM 22.23 72.014 0.14 7.24 4.84 7.66
5/26/2021 8:45:00 PM 22.09 71.762 0.141 7.21 4.9 7.64
5/26/2021 9:00:00 PM 21.95 71.51 0.142 7.2 5.01 7.65
5/26/2021 9:15:00 PM 21.82 71.276 0.142 7.19 5.31 7.64
5/26/2021 9:30:00 PM 21.72 71.096 0.142 7.18 5.82 7.65
5/26/2021 9:45:00 PM 21.62 70.916 0.14 7.18 6.75 7.68
5/26/2021 10:00:00 PM 21.55 70.79 0.14 7.18 6.58 7.71
5/26/2021 10:15:00 PM 21.44 70.592 0.139 7.16 9.43 7.76
5/26/2021 10:30:00 PM 21.31 70.358 0.139 7.16 12.16 7.83
5/26/2021 10:45:00 PM 21.04 69.872 0.141 7.13 14.24 7.91
5/26/2021 11:00:00 PM 20.74 69.332 0.14 7.09 15.47 7.99
5/26/2021 11:15:00 PM 20.64 69.152 0.136 7.11 16.2 8.01
5/26/2021 11:30:00 PM 20.7 69.26 0.136 7.16 16.21 8
5/26/2021 11:45:00 PM 20.8 69.44 0.136 7.2 15.03 7.99
5/27/2021 12:00:00 AM 20.88 69.584 0.135 7.21 14.29 8
5/27/2021 12:15:00 AM 20.92 69.656 0.133 7.2 13.59 8
5/27/2021 12:30:00 AM 20.9 69.62 0.132 7.18 13.48 7.99
5/27/2021 12:45:00 AM 20.84 69.512 0.131 7.17 17.82 7.99
5/27/2021 1:00:00 AM 20.74 69.332 0.131 7.14 25.43 7.99
5/27/2021 1:15:00 AM 20.61 69.098 0.132 7.12 38.69 8
5/27/2021 1:30:00 AM 20.45 68.81 0.132 7.1 45.82 8.02
5/27/2021 1:45:00 AM 20.29 68.522 0.133 7.08 45.41 8.04
5/27/2021 2:00:00 AM 20.14 68.252 0.133 7.08 40.53 8.07
5/27/2021 2:15:00 AM 20.02 68.036 0.132 7.09 35.33 8.1
5/27/2021 2:30:00 AM 19.91 67.838 0.132 7.09 48.09 8.12
5/27/2021 2:45:00 AM 19.82 67.676 0.132 7.11 23.18 8.15
5/27/2021 3:00:00 AM 19.74 67.532 0.132 7.12 21.72 8.17
5/27/2021 3:15:00 AM 19.66 67.388 0.133 7.13 22.39 8.19
5/27/2021 3:30:00 AM 19.58 67.244 0.133 7.14 18.76 8.2
5/27/2021 3:45:00 AM 19.51 67.118 0.134 7.15 17.71 8.23
5/27/2021 4:00:00 AM 19.43 66.974 0.135 7.15 15.68 8.25
5/27/2021 4:15:00 AM 19.36 66.848 0.136 7.15 14.33 8.27
5/27/2021 4:30:00 AM 19.28 66.704 0.136 7.16 13.66 8.3
5/27/2021 4:45:00 AM 19.2 66.56 0.137 7.16 12.38 8.31
5/27/2021 5:00:00 AM 19.14 66.452 0.137 7.16 11.63 8.33
5/27/2021 5:15:00 AM 19.07 66.326 0.137 7.18 11.06 8.34
5/27/2021 5:30:00 AM 19 66.2 0.136 7.17 10.8 8.36
5/27/2021 5:45:00 AM 18.92 66.056 0.136 7.17 9.58 8.38
5/27/2021 6:00:00 AM 18.85 65.93 0.136 7.17 9.49 8.41
5/27/2021 6:15:00 AM 18.79 65.82201 0.136 7.18 8.93 8.44
5/27/2021 6:30:00 AM 18.73 65.714 0.136 7.19 9.06 8.48
5/27/2021 6:45:00 AM 18.68 65.624 0.136 7.2 8.33 8.53
5/27/2021 7:00:00 AM 18.65 65.57 0.136 7.21 8 8.58
5/27/2021 7:15:00 AM 18.61 65.498 0.136 7.23 7.74 8.62
5/27/2021 7:30:00 AM 18.6 65.48 0.136 7.25 7.76 8.67
5/27/2021 7:45:00 AM 18.61 65.498 0.137 7.28 7.7 8.72
5/27/2021 8:00:00 AM 18.62 65.516 0.137 7.31 7.43 8.8
5/27/2021 8:15:00 AM 18.62 65.516 0.138 7.32 7.36 8.84
5/27/2021 8:30:00 AM 18.63 65.534 0.138 7.35 7.46 8.89
5/27/2021 8:45:00 AM 18.69 65.642 0.139 7.38 7.56 8.97
5/27/2021 9:00:00 AM 18.78 65.804 0.139 7.43 7.04 9.03
5/27/2021 9:15:00 AM 18.86 65.948 0.139 7.46 7.25 9.08
5/27/2021 9:30:00 AM 18.95 66.11 0.14 7.48 7.1 9.12
5/27/2021 9:45:00 AM 19.06 66.308 0.14 7.52 6.9 9.17
5/27/2021 10:00:00 AM 19.12 66.416 0.14 7.54 6.54 9.16
5/27/2021 10:15:00 AM 19.18 66.524 0.14 7.55 6.6 9.18
5/27/2021 10:30:00 AM 19.36 66.848 0.14 7.62 6.3 9.26
5/27/2021 10:45:00 AM 19.56 67.208 0.14 7.67 6.26 9.29
5/27/2021 11:00:00 AM 19.77 67.586 0.14 7.71 6.21 9.31
5/27/2021 11:15:00 AM 19.98 67.964 0.14 7.75 5.8 9.32
5/27/2021 11:30:00 AM 20.16 68.288 0.14 7.79 5.62 9.33
5/27/2021 11:45:00 AM 20.34 68.612 0.14 7.82 5.66 9.33
5/27/2021 12:00:00 PM 20.55 68.99 0.14 7.86 5.37 9.31
5/27/2021 12:15:00 PM 20.79 69.422 0.14 7.9 5.19 9.29
5/27/2021 12:30:00 PM 21.03 69.854 0.14 7.93 4.98 9.26
5/27/2021 12:45:00 PM 21.27 70.286 0.14 7.97 5.1 9.24
5/27/2021 1:00:00 PM 21.5 70.7 0.14 8 4.89 9.22
5/27/2021 1:15:00 PM 21.75 71.15 0.14 8.04 4.85 9.19
5/27/2021 1:30:00 PM 21.95 71.51 0.14 8.07 4.66 9.15
5/27/2021 1:45:00 PM 22.17 71.906 0.14 8.1 4.36 9.11
5/27/2021 2:00:00 PM 22.35 72.23 0.14 8.11 4.36 9.06
5/27/2021 2:15:00 PM 22.53 72.554 0.14 8.12 4.14 9.03
5/27/2021 2:30:00 PM 22.68 72.824 0.14 8.13 4.14 8.99
5/27/2021 2:45:00 PM 22.83 73.094 0.14 8.15 3.93 8.96
5/27/2021 3:00:00 PM 22.92 73.256 0.141 8.13 3.89 8.9
5/27/2021 3:15:00 PM 23 73.4 0.141 8.12 3.82 8.87
5/27/2021 3:30:00 PM 23.03 73.454 0.141 8.1 3.76 8.84
5/27/2021 3:45:00 PM 23.07 73.526 0.141 8.1 3.8 8.79
5/27/2021 4:00:00 PM 23.03 73.454 0.141 8.03 3.76 8.76
5/27/2021 4:15:00 PM 23.01 73.418 0.141 8.01 3.66 8.73
5/27/2021 4:30:00 PM 22.91 73.238 0.141 7.97 3.51 8.71
5/27/2021 4:45:00 PM 22.81 73.058 0.141 7.91 3.63 8.68
5/27/2021 5:00:00 PM 22.68 72.824 0.141 7.85 3.74 8.64
5/27/2021 5:15:00 PM 22.54 72.57201 0.142 7.81 3.48 8.6
5/27/2021 5:30:00 PM 22.36 72.248 0.142 7.74 3.42 8.57
5/27/2021 5:45:00 PM 22.15 71.87 0.142 7.67 3.52 8.54
5/27/2021 6:00:00 PM 21.93 71.474 0.142 7.6 3.36 8.48
5/27/2021 6:15:00 PM 21.68 71.024 0.142 7.55 3.32 8.47
5/27/2021 6:30:00 PM 21.46 70.628 0.142 7.47 3.28 8.42
5/27/2021 6:45:00 PM 21.28 70.304 0.142 7.45 3.26 8.39
5/27/2021 7:00:00 PM 21.1 69.98 0.142 7.42 3.28 8.37
5/27/2021 7:15:00 PM 20.91 69.638 0.142 7.39 3.35 8.34
5/27/2021 7:30:00 PM 20.74 69.332 0.143 7.37 3.25 8.34
5/27/2021 7:45:00 PM 20.59 69.062 0.143 7.35 3.35 8.32
5/27/2021 8:00:00 PM 20.44 68.792 0.143 7.33 3.2 8.31
5/27/2021 8:15:00 PM 20.29 68.522 0.143 7.31 3.21 8.31
5/27/2021 8:30:00 PM 20.16 68.288 0.143 7.3 3.26 8.28
5/27/2021 8:45:00 PM 20.04 68.07201 0.143 7.29 3.44 8.27
5/27/2021 9:00:00 PM 19.92 67.856 0.143 7.28 3.48 8.27
5/27/2021 9:15:00 PM 19.81 67.658 0.142 7.27 3.5 8.28
5/27/2021 9:30:00 PM 19.71 67.478 0.142 7.26 3.29 8.28
5/27/2021 9:45:00 PM 19.6 67.28 0.142 7.25 3.36 8.3
5/27/2021 10:00:00 PM 19.5 67.1 0.142 7.25 3.47 8.31
5/27/2021 10:15:00 PM 19.4 66.92 0.142 7.25 3.33 8.34
5/27/2021 10:30:00 PM 19.3 66.74 0.142 7.25 3.35 8.35
5/27/2021 10:45:00 PM 19.21 66.578 0.142 7.24 3.23 8.36
5/27/2021 11:00:00 PM 19.1 66.38 0.142 7.24 3.31 8.38
5/27/2021 11:15:00 PM 19.01 66.218 0.142 7.24 3.43 8.4
5/27/2021 11:30:00 PM 18.92 66.056 0.142 7.24 3.43 8.41
5/27/2021 11:45:00 PM 18.82 65.876 0.142 7.23 3.42 8.43
5/28/2021 12:00:00 AM 18.72 65.696 0.142 7.24 3.3 8.46
5/28/2021 12:15:00 AM 18.62 65.516 0.142 7.23 3.17 8.49
5/28/2021 12:30:00 AM 18.52 65.336 0.142 7.23 3.29 8.49
5/28/2021 12:45:00 AM 18.43 65.174 0.142 7.24 3.26 8.53
5/28/2021 1:00:00 AM 18.34 65.012 0.142 7.25 3.29 8.54
5/28/2021 1:15:00 AM 18.25 64.85 0.142 7.24 3.21 8.56
5/28/2021 1:30:00 AM 18.16 64.688 0.141 7.24 3.29 8.58
5/28/2021 1:45:00 AM 18.07 64.526 0.141 7.25 3.29 8.59
5/28/2021 2:00:00 AM 17.96 64.328 0.141 7.24 3.46 8.62
5/28/2021 2:15:00 AM 17.87 64.166 0.141 7.24 3.24 8.64
5/28/2021 2:30:00 AM 17.77 63.986 0.141 7.23 3.37 8.66
5/28/2021 2:45:00 AM 17.68 63.824 0.141 7.24 3.22 8.68
5/28/2021 3:00:00 AM 17.59 63.662 0.141 7.24 3.74 8.69
5/28/2021 3:15:00 AM 17.51 63.518 0.141 7.23 3.31 8.72
5/28/2021 3:30:00 AM 17.42 63.356 0.141 7.24 3.39 8.75
5/28/2021 3:45:00 AM 17.33 63.194 0.141 7.24 3.22 8.76
5/28/2021 4:00:00 AM 17.25 63.05 0.141 7.25 3.32 8.78
5/28/2021 4:15:00 AM 17.16 62.888 0.141 7.24 3.31 8.8
5/28/2021 4:30:00 AM 17.08 62.744 0.141 7.24 3.08 8.82
5/28/2021 4:45:00 AM 16.99 62.582 0.142 7.25 3.43 8.85
5/28/2021 5:00:00 AM 16.9 62.42 0.142 7.25 3.18 8.86
5/28/2021 5:15:00 AM 16.81 62.258 0.142 7.26 3.16 8.88
5/28/2021 5:30:00 AM 16.72 62.096 0.142 7.26 3.18 8.9
5/28/2021 5:45:00 AM 16.64 61.952 0.142 7.24 3.03 8.93
5/28/2021 6:00:00 AM 16.56 61.808 0.142 7.26 2.93 8.97
5/28/2021 6:15:00 AM 16.48 61.664 0.142 7.27 2.84 9.02
5/28/2021 6:30:00 AM 16.42 61.556 0.142 7.29 2.83 9.1
5/28/2021 6:45:00 AM 16.36 61.448 0.142 7.3 2.81 9.18
5/28/2021 7:00:00 AM 16.33 61.394 0.142 7.34 2.79 9.26
5/28/2021 7:15:00 AM 16.3 61.34 0.142 7.37 2.73 9.33
5/28/2021 7:30:00 AM 16.29 61.322 0.142 7.39 2.68 9.42
5/28/2021 7:45:00 AM 16.3 61.34 0.142 7.43 2.66 9.54
5/28/2021 8:00:00 AM 16.29 61.322 0.143 7.45 2.59 9.58
5/28/2021 8:15:00 AM 16.28 61.304 0.143 7.48 2.64 9.55
5/28/2021 8:30:00 AM 16.26 61.268 0.143 7.48 2.61 9.57
5/28/2021 8:45:00 AM 16.24 61.232 0.143 7.5 2.54 9.6
5/28/2021 9:00:00 AM 16.22 61.196 0.143 7.51 2.47 9.64
5/28/2021 9:15:00 AM 16.22 61.196 0.143 7.53 2.56 9.7
5/28/2021 9:30:00 AM 16.21 61.178 0.143 7.55 2.48 9.71
5/28/2021 9:45:00 AM 16.23 61.214 0.144 7.58 2.5 9.77
5/28/2021 10:00:00 AM 16.22 61